<?xml version="1.0" encoding="UTF-8" standalone="no" ?>
<gpx xmlns="http://www.topografix.com/GPX/1/1" xmlns:xsi="http://www.w3.org/2001/XMLSchema-instance" xsi:schemaLocation="http://www.topografix.com/GPX/1/1 http://www.topografix.com/GPX/1/1/gpx.xsd" version="1.1" creator="VisuGPX - https://www.visugpx.com">
  <metadata>
    <name>sambuis par montrond</name>
    <desc><![CDATA[En prevision de sortie du 08/04]]></desc>
  </metadata>
  <trk>
    <name><![CDATA[ACTIVE LOG]]></name>
    <trkseg>
      <trkpt lat="45.28365" lon="6.21038">
        <ele>1230.1442871</ele>
        <time>2012-03-02T06:44:45Z</time>
      </trkpt>
      <trkpt lat="45.28361" lon="6.21039">
        <ele>1229.6635742</ele>
        <time>2012-03-02T06:44:59Z</time>
      </trkpt>
      <trkpt lat="45.28361" lon="6.21038">
        <ele>1229.6635742</ele>
        <time>2012-03-02T06:45:00Z</time>
      </trkpt>
      <trkpt lat="45.28345" lon="6.21022">
        <ele>1228.7023926</ele>
        <time>2012-03-02T06:45:17Z</time>
      </trkpt>
      <trkpt lat="45.28341" lon="6.21019">
        <ele>1228.7023926</ele>
        <time>2012-03-02T06:45:36Z</time>
      </trkpt>
      <trkpt lat="45.28341" lon="6.2102">
        <ele>1229.1828613</ele>
        <time>2012-03-02T06:45:58Z</time>
      </trkpt>
      <trkpt lat="45.28337" lon="6.21016">
        <ele>1228.7023926</ele>
        <time>2012-03-02T06:46:11Z</time>
      </trkpt>
      <trkpt lat="45.28328" lon="6.21014">
        <ele>1228.7023926</ele>
        <time>2012-03-02T06:46:25Z</time>
      </trkpt>
      <trkpt lat="45.2832" lon="6.21004">
        <ele>1228.7023926</ele>
        <time>2012-03-02T06:46:35Z</time>
      </trkpt>
      <trkpt lat="45.28315" lon="6.20987">
        <ele>1230.625</ele>
        <time>2012-03-02T06:46:51Z</time>
      </trkpt>
      <trkpt lat="45.28315" lon="6.20978">
        <ele>1232.5476074</ele>
        <time>2012-03-02T06:47:08Z</time>
      </trkpt>
      <trkpt lat="45.28313" lon="6.20968">
        <ele>1233.5087891</ele>
        <time>2012-03-02T06:47:23Z</time>
      </trkpt>
      <trkpt lat="45.28314" lon="6.20954">
        <ele>1235.4313965</ele>
        <time>2012-03-02T06:47:38Z</time>
      </trkpt>
      <trkpt lat="45.28311" lon="6.20951">
        <ele>1234.9509277</ele>
        <time>2012-03-02T06:47:48Z</time>
      </trkpt>
      <trkpt lat="45.28312" lon="6.20939">
        <ele>1236.873291</ele>
        <time>2012-03-02T06:48:02Z</time>
      </trkpt>
      <trkpt lat="45.28314" lon="6.20933">
        <ele>1237.8347168</ele>
        <time>2012-03-02T06:48:16Z</time>
      </trkpt>
      <trkpt lat="45.2831" lon="6.20915">
        <ele>1241.1992188</ele>
        <time>2012-03-02T06:48:32Z</time>
      </trkpt>
      <trkpt lat="45.28305" lon="6.20892">
        <ele>1244.0834961</ele>
        <time>2012-03-02T06:48:51Z</time>
      </trkpt>
      <trkpt lat="45.28308" lon="6.20882">
        <ele>1245.5253906</ele>
        <time>2012-03-02T06:49:12Z</time>
      </trkpt>
      <trkpt lat="45.28308" lon="6.20868">
        <ele>1246.0061035</ele>
        <time>2012-03-02T06:49:28Z</time>
      </trkpt>
      <trkpt lat="45.28309" lon="6.20866">
        <ele>1247.447998</ele>
        <time>2012-03-02T06:49:31Z</time>
      </trkpt>
      <trkpt lat="45.28307" lon="6.20857">
        <ele>1248.4091797</ele>
        <time>2012-03-02T06:49:41Z</time>
      </trkpt>
      <trkpt lat="45.28311" lon="6.20845">
        <ele>1251.2932129</ele>
        <time>2012-03-02T06:49:54Z</time>
      </trkpt>
      <trkpt lat="45.2832" lon="6.20842">
        <ele>1253.2158203</ele>
        <time>2012-03-02T06:50:05Z</time>
      </trkpt>
      <trkpt lat="45.28326" lon="6.20846">
        <ele>1254.1772461</ele>
        <time>2012-03-02T06:50:13Z</time>
      </trkpt>
      <trkpt lat="45.28339" lon="6.2086">
        <ele>1256.0996094</ele>
        <time>2012-03-02T06:50:31Z</time>
      </trkpt>
      <trkpt lat="45.28341" lon="6.20858">
        <ele>1257.0610352</ele>
        <time>2012-03-02T06:50:37Z</time>
      </trkpt>
      <trkpt lat="45.28337" lon="6.2084">
        <ele>1258.5029297</ele>
        <time>2012-03-02T06:50:48Z</time>
      </trkpt>
      <trkpt lat="45.28335" lon="6.20837">
        <ele>1259.4643555</ele>
        <time>2012-03-02T06:50:51Z</time>
      </trkpt>
      <trkpt lat="45.28327" lon="6.20807">
        <ele>1262.8291016</ele>
        <time>2012-03-02T06:51:11Z</time>
      </trkpt>
      <trkpt lat="45.28322" lon="6.20787">
        <ele>1265.2324219</ele>
        <time>2012-03-02T06:51:27Z</time>
      </trkpt>
      <trkpt lat="45.28327" lon="6.20778">
        <ele>1268.5969238</ele>
        <time>2012-03-02T06:51:45Z</time>
      </trkpt>
      <trkpt lat="45.28323" lon="6.20767">
        <ele>1271.4807129</ele>
        <time>2012-03-02T06:52:00Z</time>
      </trkpt>
      <trkpt lat="45.28328" lon="6.20763">
        <ele>1274.3647461</ele>
        <time>2012-03-02T06:52:16Z</time>
      </trkpt>
      <trkpt lat="45.28326" lon="6.2075">
        <ele>1277.2490234</ele>
        <time>2012-03-02T06:52:32Z</time>
      </trkpt>
      <trkpt lat="45.28316" lon="6.20735">
        <ele>1279.1713867</ele>
        <time>2012-03-02T06:52:42Z</time>
      </trkpt>
      <trkpt lat="45.28317" lon="6.20727">
        <ele>1281.574707</ele>
        <time>2012-03-02T06:52:54Z</time>
      </trkpt>
      <trkpt lat="45.2833" lon="6.20728">
        <ele>1283.9780273</ele>
        <time>2012-03-02T06:53:10Z</time>
      </trkpt>
      <trkpt lat="45.28341" lon="6.20725">
        <ele>1285.9006348</ele>
        <time>2012-03-02T06:53:25Z</time>
      </trkpt>
      <trkpt lat="45.28342" lon="6.20725">
        <ele>1286.8618164</ele>
        <time>2012-03-02T06:53:28Z</time>
      </trkpt>
      <trkpt lat="45.28352" lon="6.20725">
        <ele>1288.3039551</ele>
        <time>2012-03-02T06:53:39Z</time>
      </trkpt>
      <trkpt lat="45.28349" lon="6.20709">
        <ele>1291.1877441</ele>
        <time>2012-03-02T06:53:55Z</time>
      </trkpt>
      <trkpt lat="45.28334" lon="6.20689">
        <ele>1293.5913086</ele>
        <time>2012-03-02T06:54:17Z</time>
      </trkpt>
      <trkpt lat="45.28329" lon="6.20666">
        <ele>1296.4753418</ele>
        <time>2012-03-02T06:54:35Z</time>
      </trkpt>
      <trkpt lat="45.28333" lon="6.20647">
        <ele>1299.3591309</ele>
        <time>2012-03-02T06:54:52Z</time>
      </trkpt>
      <trkpt lat="45.28341" lon="6.20653">
        <ele>1301.7624512</ele>
        <time>2012-03-02T06:55:07Z</time>
      </trkpt>
      <trkpt lat="45.28349" lon="6.20655">
        <ele>1304.1657715</ele>
        <time>2012-03-02T06:55:21Z</time>
      </trkpt>
      <trkpt lat="45.28357" lon="6.2064">
        <ele>1307.0495605</ele>
        <time>2012-03-02T06:55:39Z</time>
      </trkpt>
      <trkpt lat="45.28357" lon="6.2062">
        <ele>1309.453125</ele>
        <time>2012-03-02T06:55:56Z</time>
      </trkpt>
      <trkpt lat="45.28358" lon="6.20604">
        <ele>1312.817627</ele>
        <time>2012-03-02T06:56:11Z</time>
      </trkpt>
      <trkpt lat="45.2835" lon="6.20593">
        <ele>1314.2595215</ele>
        <time>2012-03-02T06:56:28Z</time>
      </trkpt>
      <trkpt lat="45.28348" lon="6.2059">
        <ele>1314.2595215</ele>
        <time>2012-03-02T06:56:32Z</time>
      </trkpt>
      <trkpt lat="45.28343" lon="6.20565">
        <ele>1315.2209473</ele>
        <time>2012-03-02T06:56:50Z</time>
      </trkpt>
      <trkpt lat="45.28334" lon="6.20534">
        <ele>1318.1047363</ele>
        <time>2012-03-02T06:57:09Z</time>
      </trkpt>
      <trkpt lat="45.28333" lon="6.20509">
        <ele>1321.4692383</ele>
        <time>2012-03-02T06:57:28Z</time>
      </trkpt>
      <trkpt lat="45.28324" lon="6.20486">
        <ele>1324.8342285</ele>
        <time>2012-03-02T06:57:50Z</time>
      </trkpt>
      <trkpt lat="45.2832" lon="6.20472">
        <ele>1327.2375488</ele>
        <time>2012-03-02T06:58:04Z</time>
      </trkpt>
      <trkpt lat="45.28322" lon="6.20454">
        <ele>1329.1599121</ele>
        <time>2012-03-02T06:58:23Z</time>
      </trkpt>
      <trkpt lat="45.28318" lon="6.20441">
        <ele>1330.6020508</ele>
        <time>2012-03-02T06:58:35Z</time>
      </trkpt>
      <trkpt lat="45.28308" lon="6.20421">
        <ele>1333.4858398</ele>
        <time>2012-03-02T06:58:51Z</time>
      </trkpt>
      <trkpt lat="45.28307" lon="6.20399">
        <ele>1336.8503418</ele>
        <time>2012-03-02T06:59:11Z</time>
      </trkpt>
      <trkpt lat="45.28314" lon="6.20387">
        <ele>1339.2536621</ele>
        <time>2012-03-02T06:59:26Z</time>
      </trkpt>
      <trkpt lat="45.28317" lon="6.20374">
        <ele>1340.6958008</ele>
        <time>2012-03-02T06:59:36Z</time>
      </trkpt>
      <trkpt lat="45.28316" lon="6.2037">
        <ele>1341.1765137</ele>
        <time>2012-03-02T06:59:39Z</time>
      </trkpt>
      <trkpt lat="45.28303" lon="6.20361">
        <ele>1342.6186523</ele>
        <time>2012-03-02T06:59:55Z</time>
      </trkpt>
      <trkpt lat="45.283" lon="6.20361">
        <ele>1342.6186523</ele>
        <time>2012-03-02T07:00:12Z</time>
      </trkpt>
      <trkpt lat="45.28299" lon="6.20361">
        <ele>1343.0991211</ele>
        <time>2012-03-02T07:00:15Z</time>
      </trkpt>
      <trkpt lat="45.28284" lon="6.20358">
        <ele>1345.5024414</ele>
        <time>2012-03-02T07:00:32Z</time>
      </trkpt>
      <trkpt lat="45.28279" lon="6.20336">
        <ele>1347.9057617</ele>
        <time>2012-03-02T07:00:49Z</time>
      </trkpt>
      <trkpt lat="45.28278" lon="6.20334">
        <ele>1347.9057617</ele>
        <time>2012-03-02T07:00:50Z</time>
      </trkpt>
      <trkpt lat="45.28271" lon="6.20329">
        <ele>1348.8669434</ele>
        <time>2012-03-02T07:01:06Z</time>
      </trkpt>
      <trkpt lat="45.28259" lon="6.20324">
        <ele>1350.7895508</ele>
        <time>2012-03-02T07:01:21Z</time>
      </trkpt>
      <trkpt lat="45.2825" lon="6.2031">
        <ele>1352.7121582</ele>
        <time>2012-03-02T07:01:38Z</time>
      </trkpt>
      <trkpt lat="45.28243" lon="6.20289">
        <ele>1356.0769043</ele>
        <time>2012-03-02T07:01:56Z</time>
      </trkpt>
      <trkpt lat="45.2824" lon="6.20277">
        <ele>1358.9609375</ele>
        <time>2012-03-02T07:02:10Z</time>
      </trkpt>
      <trkpt lat="45.28232" lon="6.20255">
        <ele>1362.3254395</ele>
        <time>2012-03-02T07:02:29Z</time>
      </trkpt>
      <trkpt lat="45.28228" lon="6.20234">
        <ele>1364.2480469</ele>
        <time>2012-03-02T07:02:47Z</time>
      </trkpt>
      <trkpt lat="45.28219" lon="6.20217">
        <ele>1366.6513672</ele>
        <time>2012-03-02T07:03:03Z</time>
      </trkpt>
      <trkpt lat="45.28213" lon="6.20199">
        <ele>1369.0546875</ele>
        <time>2012-03-02T07:03:20Z</time>
      </trkpt>
      <trkpt lat="45.28208" lon="6.20185">
        <ele>1371.9384766</ele>
        <time>2012-03-02T07:03:37Z</time>
      </trkpt>
      <trkpt lat="45.28201" lon="6.20167">
        <ele>1374.8227539</ele>
        <time>2012-03-02T07:03:55Z</time>
      </trkpt>
      <trkpt lat="45.28194" lon="6.20156">
        <ele>1376.7453613</ele>
        <time>2012-03-02T07:04:09Z</time>
      </trkpt>
      <trkpt lat="45.28183" lon="6.20145">
        <ele>1379.6291504</ele>
        <time>2012-03-02T07:04:24Z</time>
      </trkpt>
      <trkpt lat="45.2817" lon="6.20137">
        <ele>1382.9936523</ele>
        <time>2012-03-02T07:04:40Z</time>
      </trkpt>
      <trkpt lat="45.28156" lon="6.20123">
        <ele>1385.8776855</ele>
        <time>2012-03-02T07:04:59Z</time>
      </trkpt>
      <trkpt lat="45.28149" lon="6.20103">
        <ele>1389.2424316</ele>
        <time>2012-03-02T07:05:16Z</time>
      </trkpt>
      <trkpt lat="45.2814" lon="6.20091">
        <ele>1392.1264648</ele>
        <time>2012-03-02T07:05:33Z</time>
      </trkpt>
      <trkpt lat="45.28133" lon="6.20079">
        <ele>1395.4909668</ele>
        <time>2012-03-02T07:05:50Z</time>
      </trkpt>
      <trkpt lat="45.28123" lon="6.20065">
        <ele>1397.4135742</ele>
        <time>2012-03-02T07:06:10Z</time>
      </trkpt>
      <trkpt lat="45.28116" lon="6.20056">
        <ele>1396.4523926</ele>
        <time>2012-03-02T07:06:27Z</time>
      </trkpt>
      <trkpt lat="45.28108" lon="6.20047">
        <ele>1395.9716797</ele>
        <time>2012-03-02T07:06:43Z</time>
      </trkpt>
      <trkpt lat="45.2809" lon="6.20023">
        <ele>1394.529541</ele>
        <time>2012-03-02T07:07:01Z</time>
      </trkpt>
      <trkpt lat="45.28081" lon="6.20012">
        <ele>1393.0876465</ele>
        <time>2012-03-02T07:07:15Z</time>
      </trkpt>
      <trkpt lat="45.28068" lon="6.19992">
        <ele>1392.1264648</ele>
        <time>2012-03-02T07:07:30Z</time>
      </trkpt>
      <trkpt lat="45.28061" lon="6.19979">
        <ele>1393.0876465</ele>
        <time>2012-03-02T07:07:42Z</time>
      </trkpt>
      <trkpt lat="45.28055" lon="6.19966">
        <ele>1393.5683594</ele>
        <time>2012-03-02T07:07:59Z</time>
      </trkpt>
      <trkpt lat="45.28057" lon="6.19959">
        <ele>1393.0876465</ele>
        <time>2012-03-02T07:08:08Z</time>
      </trkpt>
      <trkpt lat="45.28054" lon="6.19953">
        <ele>1393.5683594</ele>
        <time>2012-03-02T07:08:24Z</time>
      </trkpt>
      <trkpt lat="45.28049" lon="6.19951">
        <ele>1393.0876465</ele>
        <time>2012-03-02T07:08:37Z</time>
      </trkpt>
      <trkpt lat="45.28038" lon="6.19947">
        <ele>1393.0876465</ele>
        <time>2012-03-02T07:08:53Z</time>
      </trkpt>
      <trkpt lat="45.28033" lon="6.19936">
        <ele>1392.1264648</ele>
        <time>2012-03-02T07:09:06Z</time>
      </trkpt>
      <trkpt lat="45.28027" lon="6.19926">
        <ele>1389.2424316</ele>
        <time>2012-03-02T07:09:12Z</time>
      </trkpt>
      <trkpt lat="45.28015" lon="6.19914">
        <ele>1386.3583984</ele>
        <time>2012-03-02T07:09:21Z</time>
      </trkpt>
      <trkpt lat="45.2801" lon="6.19893">
        <ele>1385.8776855</ele>
        <time>2012-03-02T07:09:36Z</time>
      </trkpt>
      <trkpt lat="45.27999" lon="6.19868">
        <ele>1386.8388672</ele>
        <time>2012-03-02T07:09:56Z</time>
      </trkpt>
      <trkpt lat="45.27985" lon="6.1984">
        <ele>1387.800293</ele>
        <time>2012-03-02T07:10:14Z</time>
      </trkpt>
      <trkpt lat="45.27976" lon="6.19821">
        <ele>1389.7231445</ele>
        <time>2012-03-02T07:10:30Z</time>
      </trkpt>
      <trkpt lat="45.27972" lon="6.19817">
        <ele>1390.6843262</ele>
        <time>2012-03-02T07:10:44Z</time>
      </trkpt>
      <trkpt lat="45.2797" lon="6.19828">
        <ele>1391.645752</ele>
        <time>2012-03-02T07:12:09Z</time>
      </trkpt>
      <trkpt lat="45.27959" lon="6.19819">
        <ele>1394.529541</ele>
        <time>2012-03-02T07:13:11Z</time>
      </trkpt>
      <trkpt lat="45.27948" lon="6.19802">
        <ele>1396.9328613</ele>
        <time>2012-03-02T07:13:33Z</time>
      </trkpt>
      <trkpt lat="45.27943" lon="6.19786">
        <ele>1397.8942871</ele>
        <time>2012-03-02T07:14:33Z</time>
      </trkpt>
      <trkpt lat="45.27942" lon="6.19773">
        <ele>1398.3747559</ele>
        <time>2012-03-02T07:14:59Z</time>
      </trkpt>
      <trkpt lat="45.27934" lon="6.19757">
        <ele>1401.2587891</ele>
        <time>2012-03-02T07:17:03Z</time>
      </trkpt>
      <trkpt lat="45.27929" lon="6.19754">
        <ele>1404.1430664</ele>
        <time>2012-03-02T07:17:16Z</time>
      </trkpt>
      <trkpt lat="45.27911" lon="6.19739">
        <ele>1407.0268555</ele>
        <time>2012-03-02T07:17:31Z</time>
      </trkpt>
      <trkpt lat="45.27891" lon="6.19727">
        <ele>1410.3913574</ele>
        <time>2012-03-02T07:17:49Z</time>
      </trkpt>
      <trkpt lat="45.2788" lon="6.19711">
        <ele>1412.7946777</ele>
        <time>2012-03-02T07:18:05Z</time>
      </trkpt>
      <trkpt lat="45.27867" lon="6.19695">
        <ele>1416.1591797</ele>
        <time>2012-03-02T07:18:24Z</time>
      </trkpt>
      <trkpt lat="45.27864" lon="6.19683">
        <ele>1419.5239258</ele>
        <time>2012-03-02T07:18:39Z</time>
      </trkpt>
      <trkpt lat="45.27862" lon="6.19666">
        <ele>1421.9272461</ele>
        <time>2012-03-02T07:18:53Z</time>
      </trkpt>
      <trkpt lat="45.27857" lon="6.1965">
        <ele>1424.8112793</ele>
        <time>2012-03-02T07:19:11Z</time>
      </trkpt>
      <trkpt lat="45.27856" lon="6.19641">
        <ele>1427.2145996</ele>
        <time>2012-03-02T07:19:25Z</time>
      </trkpt>
      <trkpt lat="45.27856" lon="6.19632">
        <ele>1429.1369629</ele>
        <time>2012-03-02T07:19:34Z</time>
      </trkpt>
      <trkpt lat="45.2784" lon="6.19627">
        <ele>1429.6176758</ele>
        <time>2012-03-02T07:19:49Z</time>
      </trkpt>
      <trkpt lat="45.27835" lon="6.1964">
        <ele>1431.0598145</ele>
        <time>2012-03-02T07:20:05Z</time>
      </trkpt>
      <trkpt lat="45.27833" lon="6.1965">
        <ele>1433.9436035</ele>
        <time>2012-03-02T07:20:20Z</time>
      </trkpt>
      <trkpt lat="45.27817" lon="6.19654">
        <ele>1437.3083496</ele>
        <time>2012-03-02T07:20:39Z</time>
      </trkpt>
      <trkpt lat="45.27821" lon="6.1967">
        <ele>1437.7890625</ele>
        <time>2012-03-02T07:20:59Z</time>
      </trkpt>
      <trkpt lat="45.27819" lon="6.19662">
        <ele>1439.7116699</ele>
        <time>2012-03-02T07:21:15Z</time>
      </trkpt>
      <trkpt lat="45.27809" lon="6.19655">
        <ele>1443.0761719</ele>
        <time>2012-03-02T07:21:34Z</time>
      </trkpt>
      <trkpt lat="45.27793" lon="6.19662">
        <ele>1445.4794922</ele>
        <time>2012-03-02T07:21:53Z</time>
      </trkpt>
      <trkpt lat="45.27774" lon="6.19677">
        <ele>1448.8439941</ele>
        <time>2012-03-02T07:22:11Z</time>
      </trkpt>
      <trkpt lat="45.27772" lon="6.19681">
        <ele>1451.7280273</ele>
        <time>2012-03-02T07:22:25Z</time>
      </trkpt>
      <trkpt lat="45.27769" lon="6.19693">
        <ele>1455.0927734</ele>
        <time>2012-03-02T07:22:41Z</time>
      </trkpt>
      <trkpt lat="45.27771" lon="6.19707">
        <ele>1457.4960938</ele>
        <time>2012-03-02T07:22:57Z</time>
      </trkpt>
      <trkpt lat="45.2777" lon="6.19725">
        <ele>1459.4187012</ele>
        <time>2012-03-02T07:23:12Z</time>
      </trkpt>
      <trkpt lat="45.27767" lon="6.19743">
        <ele>1462.7832031</ele>
        <time>2012-03-02T07:23:26Z</time>
      </trkpt>
      <trkpt lat="45.27772" lon="6.19758">
        <ele>1464.7058105</ele>
        <time>2012-03-02T07:23:42Z</time>
      </trkpt>
      <trkpt lat="45.27775" lon="6.19785">
        <ele>1466.1477051</ele>
        <time>2012-03-02T07:24:01Z</time>
      </trkpt>
      <trkpt lat="45.27776" lon="6.19807">
        <ele>1469.5126953</ele>
        <time>2012-03-02T07:24:21Z</time>
      </trkpt>
      <trkpt lat="45.27775" lon="6.19821">
        <ele>1471.9157715</ele>
        <time>2012-03-02T07:24:35Z</time>
      </trkpt>
      <trkpt lat="45.27779" lon="6.19836">
        <ele>1473.3579102</ele>
        <time>2012-03-02T07:24:54Z</time>
      </trkpt>
      <trkpt lat="45.27781" lon="6.19846">
        <ele>1474.3190918</ele>
        <time>2012-03-02T07:25:04Z</time>
      </trkpt>
      <trkpt lat="45.27787" lon="6.19873">
        <ele>1477.203125</ele>
        <time>2012-03-02T07:25:28Z</time>
      </trkpt>
      <trkpt lat="45.27791" lon="6.19904">
        <ele>1480.567627</ele>
        <time>2012-03-02T07:25:52Z</time>
      </trkpt>
      <trkpt lat="45.27798" lon="6.19922">
        <ele>1483.451416</ele>
        <time>2012-03-02T07:26:11Z</time>
      </trkpt>
      <trkpt lat="45.27803" lon="6.1994">
        <ele>1485.3742676</ele>
        <time>2012-03-02T07:26:28Z</time>
      </trkpt>
      <trkpt lat="45.27805" lon="6.19952">
        <ele>1488.7390137</ele>
        <time>2012-03-02T07:26:48Z</time>
      </trkpt>
      <trkpt lat="45.27805" lon="6.19963">
        <ele>1491.6228027</ele>
        <time>2012-03-02T07:27:02Z</time>
      </trkpt>
      <trkpt lat="45.27813" lon="6.19973">
        <ele>1494.9873047</ele>
        <time>2012-03-02T07:27:21Z</time>
      </trkpt>
      <trkpt lat="45.27808" lon="6.1999">
        <ele>1496.4294434</ele>
        <time>2012-03-02T07:27:35Z</time>
      </trkpt>
      <trkpt lat="45.27811" lon="6.20011">
        <ele>1499.3132324</ele>
        <time>2012-03-02T07:27:54Z</time>
      </trkpt>
      <trkpt lat="45.27806" lon="6.20028">
        <ele>1500.7553711</ele>
        <time>2012-03-02T07:28:10Z</time>
      </trkpt>
      <trkpt lat="45.27805" lon="6.20053">
        <ele>1503.6394043</ele>
        <time>2012-03-02T07:28:32Z</time>
      </trkpt>
      <trkpt lat="45.27805" lon="6.2007">
        <ele>1506.0424805</ele>
        <time>2012-03-02T07:28:46Z</time>
      </trkpt>
      <trkpt lat="45.27809" lon="6.20086">
        <ele>1508.9265137</ele>
        <time>2012-03-02T07:29:09Z</time>
      </trkpt>
      <trkpt lat="45.27803" lon="6.20103">
        <ele>1511.8105469</ele>
        <time>2012-03-02T07:29:28Z</time>
      </trkpt>
      <trkpt lat="45.27808" lon="6.20115">
        <ele>1515.1750488</ele>
        <time>2012-03-02T07:29:50Z</time>
      </trkpt>
      <trkpt lat="45.27819" lon="6.20127">
        <ele>1518.5397949</ele>
        <time>2012-03-02T07:30:08Z</time>
      </trkpt>
      <trkpt lat="45.27821" lon="6.20138">
        <ele>1521.423584</ele>
        <time>2012-03-02T07:30:22Z</time>
      </trkpt>
      <trkpt lat="45.2782" lon="6.20157">
        <ele>1525.2687988</ele>
        <time>2012-03-02T07:30:38Z</time>
      </trkpt>
      <trkpt lat="45.27821" lon="6.20161">
        <ele>1525.2687988</ele>
        <time>2012-03-02T07:30:40Z</time>
      </trkpt>
      <trkpt lat="45.27824" lon="6.20181">
        <ele>1528.6335449</ele>
        <time>2012-03-02T07:30:56Z</time>
      </trkpt>
      <trkpt lat="45.27829" lon="6.20192">
        <ele>1531.517334</ele>
        <time>2012-03-02T07:31:10Z</time>
      </trkpt>
      <trkpt lat="45.27824" lon="6.20203">
        <ele>1533.9208984</ele>
        <time>2012-03-02T07:31:24Z</time>
      </trkpt>
      <trkpt lat="45.27818" lon="6.20199">
        <ele>1533.9208984</ele>
        <time>2012-03-02T07:31:43Z</time>
      </trkpt>
      <trkpt lat="45.27818" lon="6.20199">
        <ele>1531.0368652</ele>
        <time>2012-03-02T07:33:07Z</time>
      </trkpt>
      <trkpt lat="45.27822" lon="6.20201">
        <ele>1530.0754395</ele>
        <time>2012-03-02T07:33:32Z</time>
      </trkpt>
      <trkpt lat="45.27822" lon="6.202">
        <ele>1529.1140137</ele>
        <time>2012-03-02T07:34:05Z</time>
      </trkpt>
      <trkpt lat="45.27823" lon="6.20194">
        <ele>1528.152832</ele>
        <time>2012-03-02T07:34:39Z</time>
      </trkpt>
      <trkpt lat="45.27822" lon="6.20184">
        <ele>1528.152832</ele>
        <time>2012-03-02T07:34:57Z</time>
      </trkpt>
      <trkpt lat="45.27821" lon="6.20183">
        <ele>1527.1916504</ele>
        <time>2012-03-02T07:36:00Z</time>
      </trkpt>
      <trkpt lat="45.27822" lon="6.20183">
        <ele>1526.2302246</ele>
        <time>2012-03-02T07:36:38Z</time>
      </trkpt>
      <trkpt lat="45.27818" lon="6.20179">
        <ele>1526.7109375</ele>
        <time>2012-03-02T07:36:54Z</time>
      </trkpt>
      <trkpt lat="45.27817" lon="6.20178">
        <ele>1526.2302246</ele>
        <time>2012-03-02T07:37:20Z</time>
      </trkpt>
      <trkpt lat="45.27811" lon="6.20168">
        <ele>1526.7109375</ele>
        <time>2012-03-02T07:37:41Z</time>
      </trkpt>
      <trkpt lat="45.27794" lon="6.20147">
        <ele>1528.152832</ele>
        <time>2012-03-02T07:38:00Z</time>
      </trkpt>
      <trkpt lat="45.27782" lon="6.20134">
        <ele>1529.5947266</ele>
        <time>2012-03-02T07:38:14Z</time>
      </trkpt>
      <trkpt lat="45.27778" lon="6.20133">
        <ele>1530.5561523</ele>
        <time>2012-03-02T07:38:28Z</time>
      </trkpt>
      <trkpt lat="45.27772" lon="6.20118">
        <ele>1531.0368652</ele>
        <time>2012-03-02T07:38:51Z</time>
      </trkpt>
      <trkpt lat="45.2776" lon="6.20094">
        <ele>1531.9980469</ele>
        <time>2012-03-02T07:39:07Z</time>
      </trkpt>
      <trkpt lat="45.27751" lon="6.20072">
        <ele>1533.9208984</ele>
        <time>2012-03-02T07:39:25Z</time>
      </trkpt>
      <trkpt lat="45.27744" lon="6.20064">
        <ele>1535.362793</ele>
        <time>2012-03-02T07:39:39Z</time>
      </trkpt>
      <trkpt lat="45.27738" lon="6.20051">
        <ele>1536.3242188</ele>
        <time>2012-03-02T07:39:56Z</time>
      </trkpt>
      <trkpt lat="45.27729" lon="6.2004">
        <ele>1537.2854004</ele>
        <time>2012-03-02T07:40:09Z</time>
      </trkpt>
      <trkpt lat="45.27717" lon="6.20022">
        <ele>1540.1694336</ele>
        <time>2012-03-02T07:40:28Z</time>
      </trkpt>
      <trkpt lat="45.27708" lon="6.20007">
        <ele>1539.6887207</ele>
        <time>2012-03-02T07:40:43Z</time>
      </trkpt>
      <trkpt lat="45.27699" lon="6.19993">
        <ele>1540.1694336</ele>
        <time>2012-03-02T07:40:59Z</time>
      </trkpt>
      <trkpt lat="45.27691" lon="6.19975">
        <ele>1538.7275391</ele>
        <time>2012-03-02T07:41:36Z</time>
      </trkpt>
      <trkpt lat="45.27677" lon="6.19943">
        <ele>1539.6887207</ele>
        <time>2012-03-02T07:41:56Z</time>
      </trkpt>
      <trkpt lat="45.27664" lon="6.19919">
        <ele>1540.6499023</ele>
        <time>2012-03-02T07:42:12Z</time>
      </trkpt>
      <trkpt lat="45.27653" lon="6.19899">
        <ele>1542.092041</ele>
        <time>2012-03-02T07:42:27Z</time>
      </trkpt>
      <trkpt lat="45.27641" lon="6.1988">
        <ele>1544.0146484</ele>
        <time>2012-03-02T07:42:43Z</time>
      </trkpt>
      <trkpt lat="45.27627" lon="6.19862">
        <ele>1544.9758301</ele>
        <time>2012-03-02T07:42:59Z</time>
      </trkpt>
      <trkpt lat="45.27621" lon="6.19844">
        <ele>1547.3791504</ele>
        <time>2012-03-02T07:43:14Z</time>
      </trkpt>
      <trkpt lat="45.27612" lon="6.19821">
        <ele>1550.2634277</ele>
        <time>2012-03-02T07:43:32Z</time>
      </trkpt>
      <trkpt lat="45.27605" lon="6.19809">
        <ele>1550.7438965</ele>
        <time>2012-03-02T07:43:44Z</time>
      </trkpt>
      <trkpt lat="45.27599" lon="6.19796">
        <ele>1552.185791</ele>
        <time>2012-03-02T07:43:58Z</time>
      </trkpt>
      <trkpt lat="45.27596" lon="6.19787">
        <ele>1553.6279297</ele>
        <time>2012-03-02T07:44:08Z</time>
      </trkpt>
      <trkpt lat="45.27591" lon="6.19782">
        <ele>1555.0698242</ele>
        <time>2012-03-02T07:44:25Z</time>
      </trkpt>
      <trkpt lat="45.27584" lon="6.19768">
        <ele>1556.9924316</ele>
        <time>2012-03-02T07:45:22Z</time>
      </trkpt>
      <trkpt lat="45.27575" lon="6.19757">
        <ele>1558.4343262</ele>
        <time>2012-03-02T07:45:37Z</time>
      </trkpt>
      <trkpt lat="45.27567" lon="6.19743">
        <ele>1559.395752</ele>
        <time>2012-03-02T07:45:51Z</time>
      </trkpt>
      <trkpt lat="45.27552" lon="6.19732">
        <ele>1561.3183594</ele>
        <time>2012-03-02T07:46:08Z</time>
      </trkpt>
      <trkpt lat="45.27542" lon="6.19725">
        <ele>1564.2023926</ele>
        <time>2012-03-02T07:46:25Z</time>
      </trkpt>
      <trkpt lat="45.27529" lon="6.1972">
        <ele>1567.0864258</ele>
        <time>2012-03-02T07:46:42Z</time>
      </trkpt>
      <trkpt lat="45.27519" lon="6.19711">
        <ele>1569.9702148</ele>
        <time>2012-03-02T07:46:58Z</time>
      </trkpt>
      <trkpt lat="45.27526" lon="6.19708">
        <ele>1571.8928223</ele>
        <time>2012-03-02T07:47:16Z</time>
      </trkpt>
      <trkpt lat="45.27523" lon="6.19693">
        <ele>1574.7768555</ele>
        <time>2012-03-02T07:47:43Z</time>
      </trkpt>
      <trkpt lat="45.27522" lon="6.19687">
        <ele>1577.1801758</ele>
        <time>2012-03-02T07:47:59Z</time>
      </trkpt>
      <trkpt lat="45.27519" lon="6.19689">
        <ele>1577.6606445</ele>
        <time>2012-03-02T07:48:33Z</time>
      </trkpt>
      <trkpt lat="45.27517" lon="6.19683">
        <ele>1581.0256348</ele>
        <time>2012-03-02T07:48:49Z</time>
      </trkpt>
      <trkpt lat="45.27512" lon="6.19664">
        <ele>1584.3901367</ele>
        <time>2012-03-02T07:49:06Z</time>
      </trkpt>
      <trkpt lat="45.27505" lon="6.19648">
        <ele>1587.2739258</ele>
        <time>2012-03-02T07:49:23Z</time>
      </trkpt>
      <trkpt lat="45.27498" lon="6.19638">
        <ele>1590.6384277</ele>
        <time>2012-03-02T07:49:42Z</time>
      </trkpt>
      <trkpt lat="45.27482" lon="6.19633">
        <ele>1593.5224609</ele>
        <time>2012-03-02T07:50:01Z</time>
      </trkpt>
      <trkpt lat="45.27475" lon="6.1962">
        <ele>1596.4067383</ele>
        <time>2012-03-02T07:50:18Z</time>
      </trkpt>
      <trkpt lat="45.27478" lon="6.19617">
        <ele>1598.8098145</ele>
        <time>2012-03-02T07:50:35Z</time>
      </trkpt>
      <trkpt lat="45.27475" lon="6.19605">
        <ele>1601.6938477</ele>
        <time>2012-03-02T07:50:52Z</time>
      </trkpt>
      <trkpt lat="45.27471" lon="6.19594">
        <ele>1604.097168</ele>
        <time>2012-03-02T07:51:08Z</time>
      </trkpt>
      <trkpt lat="45.27468" lon="6.19579">
        <ele>1606.5002441</ele>
        <time>2012-03-02T07:51:20Z</time>
      </trkpt>
      <trkpt lat="45.27464" lon="6.19555">
        <ele>1608.9035645</ele>
        <time>2012-03-02T07:51:40Z</time>
      </trkpt>
      <trkpt lat="45.27458" lon="6.19548">
        <ele>1612.2683105</ele>
        <time>2012-03-02T07:51:57Z</time>
      </trkpt>
      <trkpt lat="45.27446" lon="6.19544">
        <ele>1613.2297363</ele>
        <time>2012-03-02T07:52:12Z</time>
      </trkpt>
      <trkpt lat="45.2743" lon="6.19543">
        <ele>1614.190918</ele>
        <time>2012-03-02T07:52:28Z</time>
      </trkpt>
      <trkpt lat="45.27425" lon="6.19539">
        <ele>1617.5554199</ele>
        <time>2012-03-02T07:52:48Z</time>
      </trkpt>
      <trkpt lat="45.27439" lon="6.19531">
        <ele>1620.4394531</ele>
        <time>2012-03-02T07:53:05Z</time>
      </trkpt>
      <trkpt lat="45.2743" lon="6.19523">
        <ele>1623.3234863</ele>
        <time>2012-03-02T07:53:22Z</time>
      </trkpt>
      <trkpt lat="45.27417" lon="6.19516">
        <ele>1625.7265625</ele>
        <time>2012-03-02T07:53:38Z</time>
      </trkpt>
      <trkpt lat="45.27416" lon="6.19513">
        <ele>1627.6491699</ele>
        <time>2012-03-02T07:53:59Z</time>
      </trkpt>
      <trkpt lat="45.27425" lon="6.19508">
        <ele>1629.0913086</ele>
        <time>2012-03-02T07:54:33Z</time>
      </trkpt>
      <trkpt lat="45.27425" lon="6.19498">
        <ele>1632.4560547</ele>
        <time>2012-03-02T07:54:50Z</time>
      </trkpt>
      <trkpt lat="45.27412" lon="6.19489">
        <ele>1635.3398438</ele>
        <time>2012-03-02T07:55:08Z</time>
      </trkpt>
      <trkpt lat="45.27399" lon="6.19479">
        <ele>1638.223877</ele>
        <time>2012-03-02T07:55:25Z</time>
      </trkpt>
      <trkpt lat="45.27395" lon="6.19466">
        <ele>1641.107666</ele>
        <time>2012-03-02T07:55:43Z</time>
      </trkpt>
      <trkpt lat="45.27397" lon="6.19453">
        <ele>1644.4724121</ele>
        <time>2012-03-02T07:56:00Z</time>
      </trkpt>
      <trkpt lat="45.27385" lon="6.19437">
        <ele>1646.8757324</ele>
        <time>2012-03-02T07:56:20Z</time>
      </trkpt>
      <trkpt lat="45.27383" lon="6.19425">
        <ele>1650.2404785</ele>
        <time>2012-03-02T07:56:37Z</time>
      </trkpt>
      <trkpt lat="45.27375" lon="6.19419">
        <ele>1653.1242676</ele>
        <time>2012-03-02T07:56:58Z</time>
      </trkpt>
      <trkpt lat="45.27362" lon="6.19407">
        <ele>1656.4887695</ele>
        <time>2012-03-02T07:57:15Z</time>
      </trkpt>
      <trkpt lat="45.27359" lon="6.19396">
        <ele>1659.8532715</ele>
        <time>2012-03-02T07:57:32Z</time>
      </trkpt>
      <trkpt lat="45.27352" lon="6.19392">
        <ele>1662.7375488</ele>
        <time>2012-03-02T07:57:48Z</time>
      </trkpt>
      <trkpt lat="45.27341" lon="6.19386">
        <ele>1665.621582</ele>
        <time>2012-03-02T07:58:05Z</time>
      </trkpt>
      <trkpt lat="45.27338" lon="6.19374">
        <ele>1668.986084</ele>
        <time>2012-03-02T07:58:22Z</time>
      </trkpt>
      <trkpt lat="45.2733" lon="6.19371">
        <ele>1671.869873</ele>
        <time>2012-03-02T07:58:40Z</time>
      </trkpt>
      <trkpt lat="45.27322" lon="6.19368">
        <ele>1675.234375</ele>
        <time>2012-03-02T07:58:58Z</time>
      </trkpt>
      <trkpt lat="45.27311" lon="6.19355">
        <ele>1676.6767578</ele>
        <time>2012-03-02T07:59:14Z</time>
      </trkpt>
      <trkpt lat="45.27304" lon="6.19345">
        <ele>1679.5605469</ele>
        <time>2012-03-02T07:59:36Z</time>
      </trkpt>
      <trkpt lat="45.27305" lon="6.19338">
        <ele>1679.079834</ele>
        <time>2012-03-02T07:59:59Z</time>
      </trkpt>
      <trkpt lat="45.27306" lon="6.19336">
        <ele>1680.5219727</ele>
        <time>2012-03-02T08:01:00Z</time>
      </trkpt>
      <trkpt lat="45.27315" lon="6.19342">
        <ele>1682.9250488</ele>
        <time>2012-03-02T08:01:26Z</time>
      </trkpt>
      <trkpt lat="45.27325" lon="6.19342">
        <ele>1684.8479004</ele>
        <time>2012-03-02T08:01:42Z</time>
      </trkpt>
      <trkpt lat="45.27331" lon="6.19345">
        <ele>1688.2124023</ele>
        <time>2012-03-02T08:01:59Z</time>
      </trkpt>
      <trkpt lat="45.27346" lon="6.19343">
        <ele>1690.6154785</ele>
        <time>2012-03-02T08:02:19Z</time>
      </trkpt>
      <trkpt lat="45.27352" lon="6.19337">
        <ele>1693.4997559</ele>
        <time>2012-03-02T08:02:36Z</time>
      </trkpt>
      <trkpt lat="45.27352" lon="6.19331">
        <ele>1695.4223633</ele>
        <time>2012-03-02T08:02:52Z</time>
      </trkpt>
      <trkpt lat="45.27343" lon="6.19327">
        <ele>1697.3449707</ele>
        <time>2012-03-02T08:03:13Z</time>
      </trkpt>
      <trkpt lat="45.2734" lon="6.1932">
        <ele>1699.2675781</ele>
        <time>2012-03-02T08:03:29Z</time>
      </trkpt>
      <trkpt lat="45.27333" lon="6.19315">
        <ele>1702.6320801</ele>
        <time>2012-03-02T08:03:44Z</time>
      </trkpt>
      <trkpt lat="45.27333" lon="6.19306">
        <ele>1704.5546875</ele>
        <time>2012-03-02T08:04:01Z</time>
      </trkpt>
      <trkpt lat="45.27334" lon="6.19295">
        <ele>1707.4387207</ele>
        <time>2012-03-02T08:04:20Z</time>
      </trkpt>
      <trkpt lat="45.27334" lon="6.19277">
        <ele>1710.8034668</ele>
        <time>2012-03-02T08:04:41Z</time>
      </trkpt>
      <trkpt lat="45.27328" lon="6.19268">
        <ele>1712.2453613</ele>
        <time>2012-03-02T08:04:58Z</time>
      </trkpt>
      <trkpt lat="45.2733" lon="6.19261">
        <ele>1715.6101074</ele>
        <time>2012-03-02T08:08:44Z</time>
      </trkpt>
      <trkpt lat="45.27334" lon="6.19239">
        <ele>1718.4938965</ele>
        <time>2012-03-02T08:09:04Z</time>
      </trkpt>
      <trkpt lat="45.27328" lon="6.19227">
        <ele>1720.8972168</ele>
        <time>2012-03-02T08:09:18Z</time>
      </trkpt>
      <trkpt lat="45.27325" lon="6.19217">
        <ele>1722.8198242</ele>
        <time>2012-03-02T08:09:31Z</time>
      </trkpt>
      <trkpt lat="45.27315" lon="6.19206">
        <ele>1725.7038574</ele>
        <time>2012-03-02T08:09:51Z</time>
      </trkpt>
      <trkpt lat="45.27306" lon="6.19199">
        <ele>1728.5878906</ele>
        <time>2012-03-02T08:10:08Z</time>
      </trkpt>
      <trkpt lat="45.27301" lon="6.19195">
        <ele>1730.510498</ele>
        <time>2012-03-02T08:10:17Z</time>
      </trkpt>
      <trkpt lat="45.27294" lon="6.19189">
        <ele>1733.3942871</ele>
        <time>2012-03-02T08:10:31Z</time>
      </trkpt>
      <trkpt lat="45.27284" lon="6.19181">
        <ele>1736.2783203</ele>
        <time>2012-03-02T08:10:51Z</time>
      </trkpt>
      <trkpt lat="45.27273" lon="6.1917">
        <ele>1739.1621094</ele>
        <time>2012-03-02T08:11:11Z</time>
      </trkpt>
      <trkpt lat="45.27261" lon="6.19161">
        <ele>1742.0463867</ele>
        <time>2012-03-02T08:11:34Z</time>
      </trkpt>
      <trkpt lat="45.27247" lon="6.19151">
        <ele>1745.4108887</ele>
        <time>2012-03-02T08:11:55Z</time>
      </trkpt>
      <trkpt lat="45.27238" lon="6.19143">
        <ele>1748.7753906</ele>
        <time>2012-03-02T08:12:14Z</time>
      </trkpt>
      <trkpt lat="45.27232" lon="6.19118">
        <ele>1751.6594238</ele>
        <time>2012-03-02T08:12:36Z</time>
      </trkpt>
      <trkpt lat="45.27226" lon="6.19109">
        <ele>1755.0239258</ele>
        <time>2012-03-02T08:12:53Z</time>
      </trkpt>
      <trkpt lat="45.2722" lon="6.19099">
        <ele>1757.9082031</ele>
        <time>2012-03-02T08:13:17Z</time>
      </trkpt>
      <trkpt lat="45.27214" lon="6.19085">
        <ele>1760.7919922</ele>
        <time>2012-03-02T08:13:35Z</time>
      </trkpt>
      <trkpt lat="45.27204" lon="6.19082">
        <ele>1763.6757813</ele>
        <time>2012-03-02T08:13:52Z</time>
      </trkpt>
      <trkpt lat="45.27189" lon="6.19073">
        <ele>1765.1179199</ele>
        <time>2012-03-02T08:14:16Z</time>
      </trkpt>
      <trkpt lat="45.27182" lon="6.19055">
        <ele>1768.4824219</ele>
        <time>2012-03-02T08:14:41Z</time>
      </trkpt>
      <trkpt lat="45.27178" lon="6.19038">
        <ele>1769.9243164</ele>
        <time>2012-03-02T08:15:02Z</time>
      </trkpt>
      <trkpt lat="45.27169" lon="6.19022">
        <ele>1772.8085938</ele>
        <time>2012-03-02T08:15:27Z</time>
      </trkpt>
      <trkpt lat="45.2716" lon="6.19">
        <ele>1775.6923828</ele>
        <time>2012-03-02T08:15:53Z</time>
      </trkpt>
      <trkpt lat="45.27153" lon="6.18983">
        <ele>1778.0957031</ele>
        <time>2012-03-02T08:16:14Z</time>
      </trkpt>
      <trkpt lat="45.27146" lon="6.18961">
        <ele>1780.4990234</ele>
        <time>2012-03-02T08:16:34Z</time>
      </trkpt>
      <trkpt lat="45.27148" lon="6.18964">
        <ele>1780.4990234</ele>
        <time>2012-03-02T08:16:51Z</time>
      </trkpt>
      <trkpt lat="45.27151" lon="6.18948">
        <ele>1781.940918</ele>
        <time>2012-03-02T08:17:17Z</time>
      </trkpt>
      <trkpt lat="45.27141" lon="6.18931">
        <ele>1783.3828125</ele>
        <time>2012-03-02T08:17:38Z</time>
      </trkpt>
      <trkpt lat="45.27131" lon="6.18917">
        <ele>1786.7473145</ele>
        <time>2012-03-02T08:18:00Z</time>
      </trkpt>
      <trkpt lat="45.27124" lon="6.18899">
        <ele>1788.6704102</ele>
        <time>2012-03-02T08:18:23Z</time>
      </trkpt>
      <trkpt lat="45.27121" lon="6.1888">
        <ele>1791.5541992</ele>
        <time>2012-03-02T08:18:47Z</time>
      </trkpt>
      <trkpt lat="45.27118" lon="6.18856">
        <ele>1793.9575195</ele>
        <time>2012-03-02T08:19:08Z</time>
      </trkpt>
      <trkpt lat="45.27126" lon="6.18817">
        <ele>1795.3994141</ele>
        <time>2012-03-02T08:19:34Z</time>
      </trkpt>
      <trkpt lat="45.27116" lon="6.18821">
        <ele>1795.3994141</ele>
        <time>2012-03-02T08:19:36Z</time>
      </trkpt>
      <trkpt lat="45.2711" lon="6.18803">
        <ele>1796.3608398</ele>
        <time>2012-03-02T08:19:58Z</time>
      </trkpt>
      <trkpt lat="45.2711" lon="6.18782">
        <ele>1799.2446289</ele>
        <time>2012-03-02T08:20:19Z</time>
      </trkpt>
      <trkpt lat="45.27107" lon="6.18751">
        <ele>1801.6479492</ele>
        <time>2012-03-02T08:20:45Z</time>
      </trkpt>
      <trkpt lat="45.27099" lon="6.18733">
        <ele>1804.5319824</ele>
        <time>2012-03-02T08:21:15Z</time>
      </trkpt>
      <trkpt lat="45.27087" lon="6.18716">
        <ele>1807.4160156</ele>
        <time>2012-03-02T08:21:38Z</time>
      </trkpt>
      <trkpt lat="45.2708" lon="6.18691">
        <ele>1810.2998047</ele>
        <time>2012-03-02T08:22:03Z</time>
      </trkpt>
      <trkpt lat="45.27072" lon="6.18675">
        <ele>1811.7419434</ele>
        <time>2012-03-02T08:22:21Z</time>
      </trkpt>
      <trkpt lat="45.27074" lon="6.18653">
        <ele>1812.703125</ele>
        <time>2012-03-02T08:22:40Z</time>
      </trkpt>
      <trkpt lat="45.2707" lon="6.18634">
        <ele>1815.1064453</ele>
        <time>2012-03-02T08:23:02Z</time>
      </trkpt>
      <trkpt lat="45.27065" lon="6.1861">
        <ele>1816.5483398</ele>
        <time>2012-03-02T08:23:20Z</time>
      </trkpt>
      <trkpt lat="45.27062" lon="6.18576">
        <ele>1818.4709473</ele>
        <time>2012-03-02T08:23:47Z</time>
      </trkpt>
      <trkpt lat="45.27052" lon="6.18547">
        <ele>1819.9128418</ele>
        <time>2012-03-02T08:24:06Z</time>
      </trkpt>
      <trkpt lat="45.27049" lon="6.18548">
        <ele>1820.8745117</ele>
        <time>2012-03-02T08:24:22Z</time>
      </trkpt>
      <trkpt lat="45.27038" lon="6.18526">
        <ele>1822.3164063</ele>
        <time>2012-03-02T08:24:37Z</time>
      </trkpt>
      <trkpt lat="45.27039" lon="6.18523">
        <ele>1823.7583008</ele>
        <time>2012-03-02T08:24:51Z</time>
      </trkpt>
      <trkpt lat="45.27034" lon="6.18502">
        <ele>1824.7197266</ele>
        <time>2012-03-02T08:25:07Z</time>
      </trkpt>
      <trkpt lat="45.27029" lon="6.18482">
        <ele>1825.2001953</ele>
        <time>2012-03-02T08:25:26Z</time>
      </trkpt>
      <trkpt lat="45.27028" lon="6.18476">
        <ele>1825.6809082</ele>
        <time>2012-03-02T08:25:42Z</time>
      </trkpt>
      <trkpt lat="45.27033" lon="6.18469">
        <ele>1827.6035156</ele>
        <time>2012-03-02T08:26:01Z</time>
      </trkpt>
      <trkpt lat="45.27047" lon="6.18488">
        <ele>1827.1230469</ele>
        <time>2012-03-02T08:26:32Z</time>
      </trkpt>
      <trkpt lat="45.27054" lon="6.18511">
        <ele>1826.642334</ele>
        <time>2012-03-02T08:27:04Z</time>
      </trkpt>
      <trkpt lat="45.27045" lon="6.18463">
        <ele>1828.5649414</ele>
        <time>2012-03-02T08:27:27Z</time>
      </trkpt>
      <trkpt lat="45.27048" lon="6.1845">
        <ele>1829.526123</ele>
        <time>2012-03-02T08:27:41Z</time>
      </trkpt>
      <trkpt lat="45.27049" lon="6.18436">
        <ele>1830.4875488</ele>
        <time>2012-03-02T08:27:51Z</time>
      </trkpt>
      <trkpt lat="45.27048" lon="6.18426">
        <ele>1831.4487305</ele>
        <time>2012-03-02T08:28:01Z</time>
      </trkpt>
      <trkpt lat="45.27052" lon="6.18411">
        <ele>1832.4101563</ele>
        <time>2012-03-02T08:28:11Z</time>
      </trkpt>
      <trkpt lat="45.2705" lon="6.1839">
        <ele>1833.8520508</ele>
        <time>2012-03-02T08:28:28Z</time>
      </trkpt>
      <trkpt lat="45.27052" lon="6.18362">
        <ele>1835.2939453</ele>
        <time>2012-03-02T08:28:48Z</time>
      </trkpt>
      <trkpt lat="45.27051" lon="6.18345">
        <ele>1836.736084</ele>
        <time>2012-03-02T08:29:06Z</time>
      </trkpt>
      <trkpt lat="45.27052" lon="6.18313">
        <ele>1838.1782227</ele>
        <time>2012-03-02T08:29:29Z</time>
      </trkpt>
      <trkpt lat="45.27041" lon="6.18288">
        <ele>1839.6201172</ele>
        <time>2012-03-02T08:29:47Z</time>
      </trkpt>
      <trkpt lat="45.27047" lon="6.18271">
        <ele>1841.5427246</ele>
        <time>2012-03-02T08:30:08Z</time>
      </trkpt>
      <trkpt lat="45.2705" lon="6.18255">
        <ele>1842.9846191</ele>
        <time>2012-03-02T08:30:22Z</time>
      </trkpt>
      <trkpt lat="45.27044" lon="6.18237">
        <ele>1843.9460449</ele>
        <time>2012-03-02T08:30:40Z</time>
      </trkpt>
      <trkpt lat="45.27042" lon="6.18225">
        <ele>1844.9072266</ele>
        <time>2012-03-02T08:30:54Z</time>
      </trkpt>
      <trkpt lat="45.27042" lon="6.18207">
        <ele>1847.3105469</ele>
        <time>2012-03-02T08:31:16Z</time>
      </trkpt>
      <trkpt lat="45.27038" lon="6.18192">
        <ele>1848.7524414</ele>
        <time>2012-03-02T08:31:35Z</time>
      </trkpt>
      <trkpt lat="45.27028" lon="6.18173">
        <ele>1852.1171875</ele>
        <time>2012-03-02T08:32:01Z</time>
      </trkpt>
      <trkpt lat="45.2702" lon="6.18159">
        <ele>1855.0012207</ele>
        <time>2012-03-02T08:32:27Z</time>
      </trkpt>
      <trkpt lat="45.27003" lon="6.18148">
        <ele>1858.3657227</ele>
        <time>2012-03-02T08:32:58Z</time>
      </trkpt>
      <trkpt lat="45.26985" lon="6.18154">
        <ele>1861.2497559</ele>
        <time>2012-03-02T08:33:23Z</time>
      </trkpt>
      <trkpt lat="45.26976" lon="6.18146">
        <ele>1864.6142578</ele>
        <time>2012-03-02T08:33:51Z</time>
      </trkpt>
      <trkpt lat="45.26993" lon="6.18127">
        <ele>1867.4980469</ele>
        <time>2012-03-02T08:34:21Z</time>
      </trkpt>
      <trkpt lat="45.26985" lon="6.18113">
        <ele>1870.8630371</ele>
        <time>2012-03-02T08:34:50Z</time>
      </trkpt>
      <trkpt lat="45.26979" lon="6.18096">
        <ele>1873.2663574</ele>
        <time>2012-03-02T08:35:18Z</time>
      </trkpt>
      <trkpt lat="45.2699" lon="6.18083">
        <ele>1873.7468262</ele>
        <time>2012-03-02T08:35:41Z</time>
      </trkpt>
      <trkpt lat="45.26994" lon="6.1806">
        <ele>1875.6694336</ele>
        <time>2012-03-02T08:36:05Z</time>
      </trkpt>
      <trkpt lat="45.26967" lon="6.18047">
        <ele>1877.1115723</ele>
        <time>2012-03-02T08:36:19Z</time>
      </trkpt>
      <trkpt lat="45.2697" lon="6.18018">
        <ele>1878.5534668</ele>
        <time>2012-03-02T08:36:47Z</time>
      </trkpt>
      <trkpt lat="45.26968" lon="6.18002">
        <ele>1879.5146484</ele>
        <time>2012-03-02T08:37:12Z</time>
      </trkpt>
      <trkpt lat="45.26964" lon="6.17983">
        <ele>1881.9179688</ele>
        <time>2012-03-02T08:37:42Z</time>
      </trkpt>
      <trkpt lat="45.26981" lon="6.1797">
        <ele>1883.8405762</ele>
        <time>2012-03-02T08:38:05Z</time>
      </trkpt>
      <trkpt lat="45.2702" lon="6.17931">
        <ele>1886.7246094</ele>
        <time>2012-03-02T08:38:31Z</time>
      </trkpt>
      <trkpt lat="45.27033" lon="6.17934">
        <ele>1886.7246094</ele>
        <time>2012-03-02T08:38:56Z</time>
      </trkpt>
      <trkpt lat="45.27047" lon="6.17894">
        <ele>1887.6860352</ele>
        <time>2012-03-02T08:39:10Z</time>
      </trkpt>
      <trkpt lat="45.27053" lon="6.17869">
        <ele>1890.5698242</ele>
        <time>2012-03-02T08:39:37Z</time>
      </trkpt>
      <trkpt lat="45.27062" lon="6.17859">
        <ele>1893.4538574</ele>
        <time>2012-03-02T08:40:02Z</time>
      </trkpt>
      <trkpt lat="45.27066" lon="6.17822">
        <ele>1895.8571777</ele>
        <time>2012-03-02T08:40:24Z</time>
      </trkpt>
      <trkpt lat="45.27062" lon="6.17805">
        <ele>1898.2602539</ele>
        <time>2012-03-02T08:40:42Z</time>
      </trkpt>
      <trkpt lat="45.27059" lon="6.17772">
        <ele>1901.1445313</ele>
        <time>2012-03-02T08:41:06Z</time>
      </trkpt>
      <trkpt lat="45.27065" lon="6.17752">
        <ele>1903.5478516</ele>
        <time>2012-03-02T08:41:28Z</time>
      </trkpt>
      <trkpt lat="45.27064" lon="6.17745">
        <ele>1904.0285645</ele>
        <time>2012-03-02T08:41:32Z</time>
      </trkpt>
      <trkpt lat="45.27057" lon="6.17731">
        <ele>1905.9509277</ele>
        <time>2012-03-02T08:41:48Z</time>
      </trkpt>
      <trkpt lat="45.27058" lon="6.17719">
        <ele>1909.3156738</ele>
        <time>2012-03-02T08:42:09Z</time>
      </trkpt>
      <trkpt lat="45.2706" lon="6.17711">
        <ele>1911.2382813</ele>
        <time>2012-03-02T08:42:25Z</time>
      </trkpt>
      <trkpt lat="45.27056" lon="6.17691">
        <ele>1914.1220703</ele>
        <time>2012-03-02T08:42:45Z</time>
      </trkpt>
      <trkpt lat="45.27056" lon="6.17681">
        <ele>1916.5256348</ele>
        <time>2012-03-02T08:43:02Z</time>
      </trkpt>
      <trkpt lat="45.27062" lon="6.1767">
        <ele>1919.8901367</ele>
        <time>2012-03-02T08:43:25Z</time>
      </trkpt>
      <trkpt lat="45.27048" lon="6.17638">
        <ele>1921.8127441</ele>
        <time>2012-03-02T08:43:40Z</time>
      </trkpt>
      <trkpt lat="45.27035" lon="6.17638">
        <ele>1924.2160645</ele>
        <time>2012-03-02T08:43:58Z</time>
      </trkpt>
      <trkpt lat="45.27023" lon="6.1764">
        <ele>1925.1772461</ele>
        <time>2012-03-02T08:44:12Z</time>
      </trkpt>
      <trkpt lat="45.26987" lon="6.1763">
        <ele>1928.0612793</ele>
        <time>2012-03-02T08:44:34Z</time>
      </trkpt>
      <trkpt lat="45.26989" lon="6.17617">
        <ele>1930.4645996</ele>
        <time>2012-03-02T08:44:50Z</time>
      </trkpt>
      <trkpt lat="45.26983" lon="6.17614">
        <ele>1932.8679199</ele>
        <time>2012-03-02T08:45:09Z</time>
      </trkpt>
      <trkpt lat="45.26912" lon="6.17612">
        <ele>1934.7907715</ele>
        <time>2012-03-02T08:45:23Z</time>
      </trkpt>
      <trkpt lat="45.26836" lon="6.17611">
        <ele>1936.232666</ele>
        <time>2012-03-02T08:45:32Z</time>
      </trkpt>
      <trkpt lat="45.26834" lon="6.1763">
        <ele>1937.6745605</ele>
        <time>2012-03-02T08:45:47Z</time>
      </trkpt>
      <trkpt lat="45.26835" lon="6.17622">
        <ele>1939.597168</ele>
        <time>2012-03-02T08:46:05Z</time>
      </trkpt>
      <trkpt lat="45.26836" lon="6.17615">
        <ele>1941.0390625</ele>
        <time>2012-03-02T08:46:22Z</time>
      </trkpt>
      <trkpt lat="45.26825" lon="6.17605">
        <ele>1942.9616699</ele>
        <time>2012-03-02T08:46:40Z</time>
      </trkpt>
      <trkpt lat="45.26826" lon="6.17623">
        <ele>1944.4035645</ele>
        <time>2012-03-02T08:46:54Z</time>
      </trkpt>
      <trkpt lat="45.26812" lon="6.17624">
        <ele>1945.3649902</ele>
        <time>2012-03-02T08:47:12Z</time>
      </trkpt>
      <trkpt lat="45.26818" lon="6.17607">
        <ele>1947.2875977</ele>
        <time>2012-03-02T08:47:29Z</time>
      </trkpt>
      <trkpt lat="45.26818" lon="6.17604">
        <ele>1948.2490234</ele>
        <time>2012-03-02T08:47:47Z</time>
      </trkpt>
      <trkpt lat="45.26808" lon="6.17614">
        <ele>1950.171875</ele>
        <time>2012-03-02T08:48:03Z</time>
      </trkpt>
      <trkpt lat="45.2681" lon="6.1761">
        <ele>1951.1330566</ele>
        <time>2012-03-02T08:48:20Z</time>
      </trkpt>
      <trkpt lat="45.26815" lon="6.17609">
        <ele>1953.0556641</ele>
        <time>2012-03-02T08:48:36Z</time>
      </trkpt>
      <trkpt lat="45.2682" lon="6.17606">
        <ele>1954.9782715</ele>
        <time>2012-03-02T08:48:58Z</time>
      </trkpt>
      <trkpt lat="45.26824" lon="6.17593">
        <ele>1956.9008789</ele>
        <time>2012-03-02T08:49:18Z</time>
      </trkpt>
      <trkpt lat="45.26824" lon="6.17579">
        <ele>1958.3427734</ele>
        <time>2012-03-02T08:49:37Z</time>
      </trkpt>
      <trkpt lat="45.26823" lon="6.17572">
        <ele>1985.2597656</ele>
        <time>2012-03-02T08:49:47Z</time>
      </trkpt>
      <trkpt lat="45.26823" lon="6.17572">
        <ele>1985.2597656</ele>
        <time>2012-03-02T08:49:48Z</time>
      </trkpt>
      <trkpt lat="45.26823" lon="6.1757">
        <ele>1985.7404785</ele>
        <time>2012-03-02T08:49:49Z</time>
      </trkpt>
      <trkpt lat="45.26829" lon="6.17552">
        <ele>1986.7016602</ele>
        <time>2012-03-02T08:50:08Z</time>
      </trkpt>
      <trkpt lat="45.26832" lon="6.17538">
        <ele>1987.6630859</ele>
        <time>2012-03-02T08:50:24Z</time>
      </trkpt>
      <trkpt lat="45.26831" lon="6.17523">
        <ele>1987.6630859</ele>
        <time>2012-03-02T08:50:45Z</time>
      </trkpt>
      <trkpt lat="45.26829" lon="6.17502">
        <ele>1988.6245117</ele>
        <time>2012-03-02T08:51:05Z</time>
      </trkpt>
      <trkpt lat="45.26832" lon="6.17481">
        <ele>1989.1049805</ele>
        <time>2012-03-02T08:51:24Z</time>
      </trkpt>
      <trkpt lat="45.26843" lon="6.17461">
        <ele>1990.546875</ele>
        <time>2012-03-02T08:51:46Z</time>
      </trkpt>
      <trkpt lat="45.26848" lon="6.17442">
        <ele>1991.9890137</ele>
        <time>2012-03-02T08:52:10Z</time>
      </trkpt>
      <trkpt lat="45.26855" lon="6.17419">
        <ele>1993.9116211</ele>
        <time>2012-03-02T08:52:38Z</time>
      </trkpt>
      <trkpt lat="45.26862" lon="6.17404">
        <ele>1995.8342285</ele>
        <time>2012-03-02T08:53:01Z</time>
      </trkpt>
      <trkpt lat="45.26866" lon="6.17389">
        <ele>1997.7570801</ele>
        <time>2012-03-02T08:53:22Z</time>
      </trkpt>
      <trkpt lat="45.26868" lon="6.17369">
        <ele>1999.6796875</ele>
        <time>2012-03-02T08:53:47Z</time>
      </trkpt>
      <trkpt lat="45.26871" lon="6.17352">
        <ele>2001.121582</ele>
        <time>2012-03-02T08:54:08Z</time>
      </trkpt>
      <trkpt lat="45.2687" lon="6.17334">
        <ele>2003.5249023</ele>
        <time>2012-03-02T08:54:28Z</time>
      </trkpt>
      <trkpt lat="45.26867" lon="6.17313">
        <ele>2005.4475098</ele>
        <time>2012-03-02T08:54:50Z</time>
      </trkpt>
      <trkpt lat="45.26862" lon="6.17294">
        <ele>2007.3701172</ele>
        <time>2012-03-02T08:55:08Z</time>
      </trkpt>
      <trkpt lat="45.26863" lon="6.17282">
        <ele>2007.8508301</ele>
        <time>2012-03-02T08:55:21Z</time>
      </trkpt>
      <trkpt lat="45.26858" lon="6.17271">
        <ele>2008.8120117</ele>
        <time>2012-03-02T08:55:36Z</time>
      </trkpt>
      <trkpt lat="45.2684" lon="6.17264">
        <ele>2010.7346191</ele>
        <time>2012-03-02T08:56:02Z</time>
      </trkpt>
      <trkpt lat="45.26831" lon="6.17265">
        <ele>2012.1767578</ele>
        <time>2012-03-02T08:56:18Z</time>
      </trkpt>
      <trkpt lat="45.2681" lon="6.17264">
        <ele>2014.5800781</ele>
        <time>2012-03-02T08:56:44Z</time>
      </trkpt>
      <trkpt lat="45.26796" lon="6.17265">
        <ele>2016.0219727</ele>
        <time>2012-03-02T08:57:05Z</time>
      </trkpt>
      <trkpt lat="45.26794" lon="6.17256">
        <ele>2017.4638672</ele>
        <time>2012-03-02T08:57:19Z</time>
      </trkpt>
      <trkpt lat="45.26791" lon="6.17237">
        <ele>2019.3867188</ele>
        <time>2012-03-02T08:57:42Z</time>
      </trkpt>
      <trkpt lat="45.26795" lon="6.17222">
        <ele>2020.3479004</ele>
        <time>2012-03-02T08:58:03Z</time>
      </trkpt>
      <trkpt lat="45.26796" lon="6.17214">
        <ele>2019.8671875</ele>
        <time>2012-03-02T08:58:19Z</time>
      </trkpt>
      <trkpt lat="45.26783" lon="6.16842">
        <ele>2224.6281738</ele>
        <time>2012-03-02T09:15:14Z</time>
      </trkpt>
      <trkpt lat="45.26779" lon="6.16852">
        <ele>2227.9926758</ele>
        <time>2012-03-02T09:15:30Z</time>
      </trkpt>
      <trkpt lat="45.26774" lon="6.16853">
        <ele>2229.9152832</ele>
        <time>2012-03-02T09:15:41Z</time>
      </trkpt>
      <trkpt lat="45.26774" lon="6.16842">
        <ele>2232.3186035</ele>
        <time>2012-03-02T09:15:53Z</time>
      </trkpt>
      <trkpt lat="45.26778" lon="6.16833">
        <ele>2235.6831055</ele>
        <time>2012-03-02T09:16:07Z</time>
      </trkpt>
      <trkpt lat="45.26775" lon="6.16827">
        <ele>2238.0866699</ele>
        <time>2012-03-02T09:16:23Z</time>
      </trkpt>
      <trkpt lat="45.26775" lon="6.16827">
        <ele>2240.4897461</ele>
        <time>2012-03-02T09:17:07Z</time>
      </trkpt>
      <trkpt lat="45.2677" lon="6.16825">
        <ele>2243.8544922</ele>
        <time>2012-03-02T09:17:17Z</time>
      </trkpt>
      <trkpt lat="45.26768" lon="6.16813">
        <ele>2246.7382813</ele>
        <time>2012-03-02T09:17:29Z</time>
      </trkpt>
      <trkpt lat="45.2677" lon="6.16805">
        <ele>2249.6223145</ele>
        <time>2012-03-02T09:17:41Z</time>
      </trkpt>
      <trkpt lat="45.26765" lon="6.16803">
        <ele>2252.5063477</ele>
        <time>2012-03-02T09:17:56Z</time>
      </trkpt>
      <trkpt lat="45.26756" lon="6.16804">
        <ele>2255.3903809</ele>
        <time>2012-03-02T09:18:09Z</time>
      </trkpt>
      <trkpt lat="45.26748" lon="6.16804">
        <ele>2259.2355957</ele>
        <time>2012-03-02T09:18:24Z</time>
      </trkpt>
      <trkpt lat="45.26742" lon="6.16794">
        <ele>2262.1193848</ele>
        <time>2012-03-02T09:18:38Z</time>
      </trkpt>
      <trkpt lat="45.26735" lon="6.16783">
        <ele>2265.4841309</ele>
        <time>2012-03-02T09:18:54Z</time>
      </trkpt>
      <trkpt lat="45.2673" lon="6.16783">
        <ele>2265.9645996</ele>
        <time>2012-03-02T09:19:13Z</time>
      </trkpt>
      <trkpt lat="45.26722" lon="6.16786">
        <ele>2268.848877</ele>
        <time>2012-03-02T09:20:18Z</time>
      </trkpt>
      <trkpt lat="45.26722" lon="6.16783">
        <ele>2271.732666</ele>
        <time>2012-03-02T09:21:02Z</time>
      </trkpt>
      <trkpt lat="45.26716" lon="6.16778">
        <ele>2275.097168</ele>
        <time>2012-03-02T09:21:16Z</time>
      </trkpt>
      <trkpt lat="45.26708" lon="6.16774">
        <ele>2278.4619141</ele>
        <time>2012-03-02T09:21:30Z</time>
      </trkpt>
      <trkpt lat="45.26699" lon="6.16769">
        <ele>2281.3457031</ele>
        <time>2012-03-02T09:21:44Z</time>
      </trkpt>
      <trkpt lat="45.26694" lon="6.16765">
        <ele>2284.2299805</ele>
        <time>2012-03-02T09:21:57Z</time>
      </trkpt>
      <trkpt lat="45.26686" lon="6.16769">
        <ele>2287.5944824</ele>
        <time>2012-03-02T09:22:10Z</time>
      </trkpt>
      <trkpt lat="45.26683" lon="6.16782">
        <ele>2290.9589844</ele>
        <time>2012-03-02T09:22:27Z</time>
      </trkpt>
      <trkpt lat="45.26679" lon="6.16794">
        <ele>2294.3234863</ele>
        <time>2012-03-02T09:22:42Z</time>
      </trkpt>
      <trkpt lat="45.26678" lon="6.16809">
        <ele>2297.2075195</ele>
        <time>2012-03-02T09:22:55Z</time>
      </trkpt>
      <trkpt lat="45.26683" lon="6.1683">
        <ele>2300.5722656</ele>
        <time>2012-03-02T09:23:11Z</time>
      </trkpt>
      <trkpt lat="45.26682" lon="6.16847">
        <ele>2303.4562988</ele>
        <time>2012-03-02T09:23:26Z</time>
      </trkpt>
      <trkpt lat="45.2668" lon="6.1686">
        <ele>2306.8208008</ele>
        <time>2012-03-02T09:23:39Z</time>
      </trkpt>
      <trkpt lat="45.26678" lon="6.16863">
        <ele>2309.7045898</ele>
        <time>2012-03-02T09:23:54Z</time>
      </trkpt>
      <trkpt lat="45.26672" lon="6.16853">
        <ele>2312.588623</ele>
        <time>2012-03-02T09:24:09Z</time>
      </trkpt>
      <trkpt lat="45.26666" lon="6.16844">
        <ele>2315.953125</ele>
        <time>2012-03-02T09:24:23Z</time>
      </trkpt>
      <trkpt lat="45.26662" lon="6.16847">
        <ele>2318.8374023</ele>
        <time>2012-03-02T09:24:38Z</time>
      </trkpt>
      <trkpt lat="45.26657" lon="6.16857">
        <ele>2321.7211914</ele>
        <time>2012-03-02T09:24:52Z</time>
      </trkpt>
      <trkpt lat="45.2665" lon="6.16867">
        <ele>2325.0856934</ele>
        <time>2012-03-02T09:25:07Z</time>
      </trkpt>
      <trkpt lat="45.26645" lon="6.16868">
        <ele>2327.9697266</ele>
        <time>2012-03-02T09:25:21Z</time>
      </trkpt>
      <trkpt lat="45.26638" lon="6.16867">
        <ele>2330.8537598</ele>
        <time>2012-03-02T09:25:36Z</time>
      </trkpt>
      <trkpt lat="45.26637" lon="6.16858">
        <ele>2333.737793</ele>
        <time>2012-03-02T09:26:15Z</time>
      </trkpt>
      <trkpt lat="45.26632" lon="6.16858">
        <ele>2337.1022949</ele>
        <time>2012-03-02T09:26:35Z</time>
      </trkpt>
      <trkpt lat="45.26625" lon="6.16854">
        <ele>2339.9863281</ele>
        <time>2012-03-02T09:26:47Z</time>
      </trkpt>
      <trkpt lat="45.26616" lon="6.1685">
        <ele>2343.831543</ele>
        <time>2012-03-02T09:27:00Z</time>
      </trkpt>
      <trkpt lat="45.26611" lon="6.16845">
        <ele>2346.715332</ele>
        <time>2012-03-02T09:27:12Z</time>
      </trkpt>
      <trkpt lat="45.26609" lon="6.16837">
        <ele>2350.0803223</ele>
        <time>2012-03-02T09:27:26Z</time>
      </trkpt>
      <trkpt lat="45.26611" lon="6.16825">
        <ele>2352.9641113</ele>
        <time>2012-03-02T09:27:40Z</time>
      </trkpt>
      <trkpt lat="45.26616" lon="6.16814">
        <ele>2356.3286133</ele>
        <time>2012-03-02T09:27:55Z</time>
      </trkpt>
      <trkpt lat="45.26617" lon="6.16804">
        <ele>2358.2512207</ele>
        <time>2012-03-02T09:28:07Z</time>
      </trkpt>
      <trkpt lat="45.26621" lon="6.16794">
        <ele>2361.6159668</ele>
        <time>2012-03-02T09:28:22Z</time>
      </trkpt>
      <trkpt lat="45.26613" lon="6.16792">
        <ele>2364.5</ele>
        <time>2012-03-02T09:28:39Z</time>
      </trkpt>
      <trkpt lat="45.26606" lon="6.16792">
        <ele>2367.3837891</ele>
        <time>2012-03-02T09:28:53Z</time>
      </trkpt>
      <trkpt lat="45.26597" lon="6.16792">
        <ele>2370.7485352</ele>
        <time>2012-03-02T09:29:07Z</time>
      </trkpt>
      <trkpt lat="45.26597" lon="6.16786">
        <ele>2373.6323242</ele>
        <time>2012-03-02T09:29:26Z</time>
      </trkpt>
      <trkpt lat="45.26589" lon="6.16789">
        <ele>2376.5163574</ele>
        <time>2012-03-02T09:29:41Z</time>
      </trkpt>
      <trkpt lat="45.26586" lon="6.16782">
        <ele>2378.9194336</ele>
        <time>2012-03-02T09:29:57Z</time>
      </trkpt>
      <trkpt lat="45.2659" lon="6.16768">
        <ele>2382.2844238</ele>
        <time>2012-03-02T09:30:14Z</time>
      </trkpt>
      <trkpt lat="45.26598" lon="6.16756">
        <ele>2384.6877441</ele>
        <time>2012-03-02T09:30:30Z</time>
      </trkpt>
      <trkpt lat="45.26589" lon="6.16756">
        <ele>2387.5715332</ele>
        <time>2012-03-02T09:30:46Z</time>
      </trkpt>
      <trkpt lat="45.26581" lon="6.1676">
        <ele>2389.9748535</ele>
        <time>2012-03-02T09:31:01Z</time>
      </trkpt>
      <trkpt lat="45.26581" lon="6.16753">
        <ele>2392.3781738</ele>
        <time>2012-03-02T09:31:15Z</time>
      </trkpt>
      <trkpt lat="45.26581" lon="6.16745">
        <ele>2395.2619629</ele>
        <time>2012-03-02T09:31:31Z</time>
      </trkpt>
      <trkpt lat="45.26576" lon="6.1674">
        <ele>2398.626709</ele>
        <time>2012-03-02T09:31:48Z</time>
      </trkpt>
      <trkpt lat="45.2658" lon="6.16732">
        <ele>2401.5107422</ele>
        <time>2012-03-02T09:32:03Z</time>
      </trkpt>
      <trkpt lat="45.2658" lon="6.16729">
        <ele>2404.3945313</ele>
        <time>2012-03-02T09:32:27Z</time>
      </trkpt>
      <trkpt lat="45.26574" lon="6.16724">
        <ele>2406.7978516</ele>
        <time>2012-03-02T09:32:38Z</time>
      </trkpt>
      <trkpt lat="45.26569" lon="6.16724">
        <ele>2409.6816406</ele>
        <time>2012-03-02T09:32:52Z</time>
      </trkpt>
      <trkpt lat="45.26569" lon="6.1672">
        <ele>2411.6044922</ele>
        <time>2012-03-02T09:33:10Z</time>
      </trkpt>
      <trkpt lat="45.26565" lon="6.16712">
        <ele>2414.0078125</ele>
        <time>2012-03-02T09:33:29Z</time>
      </trkpt>
      <trkpt lat="45.26563" lon="6.16709">
        <ele>2415.9304199</ele>
        <time>2012-03-02T09:33:44Z</time>
      </trkpt>
      <trkpt lat="45.26564" lon="6.16704">
        <ele>2418.3337402</ele>
        <time>2012-03-02T09:34:01Z</time>
      </trkpt>
      <trkpt lat="45.26556" lon="6.16706">
        <ele>2420.7370605</ele>
        <time>2012-03-02T09:34:20Z</time>
      </trkpt>
      <trkpt lat="45.26556" lon="6.16696">
        <ele>2424.1015625</ele>
        <time>2012-03-02T09:34:40Z</time>
      </trkpt>
      <trkpt lat="45.26559" lon="6.16685">
        <ele>2426.9855957</ele>
        <time>2012-03-02T09:35:00Z</time>
      </trkpt>
      <trkpt lat="45.26562" lon="6.16683">
        <ele>2429.8696289</ele>
        <time>2012-03-02T09:35:31Z</time>
      </trkpt>
      <trkpt lat="45.26569" lon="6.16682">
        <ele>2432.753418</ele>
        <time>2012-03-02T09:35:52Z</time>
      </trkpt>
      <trkpt lat="45.26573" lon="6.16676">
        <ele>2434.6762695</ele>
        <time>2012-03-02T09:36:10Z</time>
      </trkpt>
      <trkpt lat="45.26567" lon="6.16672">
        <ele>2437.0793457</ele>
        <time>2012-03-02T09:36:38Z</time>
      </trkpt>
      <trkpt lat="45.26564" lon="6.16671">
        <ele>2439.0019531</ele>
        <time>2012-03-02T09:36:56Z</time>
      </trkpt>
      <trkpt lat="45.26567" lon="6.16667">
        <ele>2441.8859863</ele>
        <time>2012-03-02T09:37:21Z</time>
      </trkpt>
      <trkpt lat="45.26572" lon="6.16663">
        <ele>2444.2893066</ele>
        <time>2012-03-02T09:37:48Z</time>
      </trkpt>
      <trkpt lat="45.26567" lon="6.1666">
        <ele>2446.2121582</ele>
        <time>2012-03-02T09:38:02Z</time>
      </trkpt>
      <trkpt lat="45.26562" lon="6.16663">
        <ele>2447.6540527</ele>
        <time>2012-03-02T09:38:16Z</time>
      </trkpt>
      <trkpt lat="45.2656" lon="6.16664">
        <ele>2449.5766602</ele>
        <time>2012-03-02T09:38:38Z</time>
      </trkpt>
      <trkpt lat="45.2656" lon="6.1666">
        <ele>2451.9797363</ele>
        <time>2012-03-02T09:39:03Z</time>
      </trkpt>
      <trkpt lat="45.26553" lon="6.1666">
        <ele>2453.421875</ele>
        <time>2012-03-02T09:39:26Z</time>
      </trkpt>
      <trkpt lat="45.26546" lon="6.16667">
        <ele>2454.3830566</ele>
        <time>2012-03-02T09:39:37Z</time>
      </trkpt>
      <trkpt lat="45.26543" lon="6.16672">
        <ele>2456.3056641</ele>
        <time>2012-03-02T09:39:54Z</time>
      </trkpt>
      <trkpt lat="45.2654" lon="6.16674">
        <ele>2458.7089844</ele>
        <time>2012-03-02T09:40:24Z</time>
      </trkpt>
      <trkpt lat="45.26545" lon="6.16651">
        <ele>2461.5932617</ele>
        <time>2012-03-02T09:40:51Z</time>
      </trkpt>
      <trkpt lat="45.26551" lon="6.16635">
        <ele>2463.515625</ele>
        <time>2012-03-02T09:41:08Z</time>
      </trkpt>
      <trkpt lat="45.26554" lon="6.16626">
        <ele>2465.9189453</ele>
        <time>2012-03-02T09:41:23Z</time>
      </trkpt>
      <trkpt lat="45.2655" lon="6.16629">
        <ele>2469.2836914</ele>
        <time>2012-03-02T09:42:02Z</time>
      </trkpt>
      <trkpt lat="45.2654" lon="6.16634">
        <ele>2472.6481934</ele>
        <time>2012-03-02T09:42:21Z</time>
      </trkpt>
      <trkpt lat="45.26534" lon="6.16635">
        <ele>2474.5708008</ele>
        <time>2012-03-02T09:42:41Z</time>
      </trkpt>
      <trkpt lat="45.26535" lon="6.16613">
        <ele>2477.9355469</ele>
        <time>2012-03-02T09:43:00Z</time>
      </trkpt>
      <trkpt lat="45.26536" lon="6.16612">
        <ele>2477.9355469</ele>
        <time>2012-03-02T09:43:02Z</time>
      </trkpt>
      <trkpt lat="45.26538" lon="6.16604">
        <ele>2479.3774414</ele>
        <time>2012-03-02T09:43:16Z</time>
      </trkpt>
      <trkpt lat="45.26546" lon="6.1659">
        <ele>2481.7807617</ele>
        <time>2012-03-02T09:43:31Z</time>
      </trkpt>
      <trkpt lat="45.26556" lon="6.16571">
        <ele>2484.184082</ele>
        <time>2012-03-02T09:43:53Z</time>
      </trkpt>
      <trkpt lat="45.2656" lon="6.16567">
        <ele>2485.6259766</ele>
        <time>2012-03-02T09:44:13Z</time>
      </trkpt>
      <trkpt lat="45.26547" lon="6.1658">
        <ele>2487.0678711</ele>
        <time>2012-03-02T09:44:39Z</time>
      </trkpt>
      <trkpt lat="45.26537" lon="6.16583">
        <ele>2489.9519043</ele>
        <time>2012-03-02T09:44:56Z</time>
      </trkpt>
      <trkpt lat="45.2653" lon="6.16582">
        <ele>2491.3937988</ele>
        <time>2012-03-02T09:45:31Z</time>
      </trkpt>
      <trkpt lat="45.26542" lon="6.16565">
        <ele>2493.3166504</ele>
        <time>2012-03-02T09:45:56Z</time>
      </trkpt>
      <trkpt lat="45.2653" lon="6.16571">
        <ele>2495.7199707</ele>
        <time>2012-03-02T09:46:26Z</time>
      </trkpt>
      <trkpt lat="45.26525" lon="6.16579">
        <ele>2497.6425781</ele>
        <time>2012-03-02T09:47:03Z</time>
      </trkpt>
      <trkpt lat="45.26532" lon="6.16569">
        <ele>2499.0844727</ele>
        <time>2012-03-02T09:47:35Z</time>
      </trkpt>
      <trkpt lat="45.26524" lon="6.16566">
        <ele>2501.9682617</ele>
        <time>2012-03-02T09:47:59Z</time>
      </trkpt>
      <trkpt lat="45.26518" lon="6.16563">
        <ele>2503.8911133</ele>
        <time>2012-03-02T09:48:21Z</time>
      </trkpt>
      <trkpt lat="45.26509" lon="6.16568">
        <ele>2505.3330078</ele>
        <time>2012-03-02T09:48:50Z</time>
      </trkpt>
      <trkpt lat="45.26513" lon="6.16561">
        <ele>2508.217041</ele>
        <time>2012-03-02T09:49:45Z</time>
      </trkpt>
      <trkpt lat="45.26507" lon="6.16552">
        <ele>2510.1396484</ele>
        <time>2012-03-02T09:50:08Z</time>
      </trkpt>
      <trkpt lat="45.26511" lon="6.16545">
        <ele>2513.5041504</ele>
        <time>2012-03-02T09:50:42Z</time>
      </trkpt>
      <trkpt lat="45.26516" lon="6.16537">
        <ele>2514.9462891</ele>
        <time>2012-03-02T09:51:11Z</time>
      </trkpt>
      <trkpt lat="45.26512" lon="6.16534">
        <ele>2517.3493652</ele>
        <time>2012-03-02T09:51:56Z</time>
      </trkpt>
      <trkpt lat="45.26519" lon="6.16526">
        <ele>2520.7141113</ele>
        <time>2012-03-02T09:52:28Z</time>
      </trkpt>
      <trkpt lat="45.26516" lon="6.16525">
        <ele>2521.675293</ele>
        <time>2012-03-02T09:52:48Z</time>
      </trkpt>
      <trkpt lat="45.26511" lon="6.16525">
        <ele>2523.5979004</ele>
        <time>2012-03-02T09:53:05Z</time>
      </trkpt>
      <trkpt lat="45.26519" lon="6.16517">
        <ele>2525.0400391</ele>
        <time>2012-03-02T09:53:41Z</time>
      </trkpt>
      <trkpt lat="45.2651" lon="6.16516">
        <ele>2526.4821777</ele>
        <time>2012-03-02T09:54:01Z</time>
      </trkpt>
      <trkpt lat="45.26507" lon="6.16517">
        <ele>2528.4047852</ele>
        <time>2012-03-02T09:54:33Z</time>
      </trkpt>
      <trkpt lat="45.26513" lon="6.16511">
        <ele>2529.8466797</ele>
        <time>2012-03-02T09:54:46Z</time>
      </trkpt>
      <trkpt lat="45.26515" lon="6.16508">
        <ele>2531.2885742</ele>
        <time>2012-03-02T09:55:23Z</time>
      </trkpt>
      <trkpt lat="45.26508" lon="6.16505">
        <ele>2534.1726074</ele>
        <time>2012-03-02T09:56:07Z</time>
      </trkpt>
      <trkpt lat="45.2651" lon="6.16499">
        <ele>2537.5371094</ele>
        <time>2012-03-02T09:56:43Z</time>
      </trkpt>
      <trkpt lat="45.26496" lon="6.16502">
        <ele>2540.4211426</ele>
        <time>2012-03-02T09:57:01Z</time>
      </trkpt>
      <trkpt lat="45.26489" lon="6.16506">
        <ele>2541.3825684</ele>
        <time>2012-03-02T09:57:20Z</time>
      </trkpt>
      <trkpt lat="45.26492" lon="6.16504">
        <ele>2543.7858887</ele>
        <time>2012-03-02T09:57:45Z</time>
      </trkpt>
      <trkpt lat="45.26494" lon="6.16497">
        <ele>2545.2277832</ele>
        <time>2012-03-02T09:58:04Z</time>
      </trkpt>
      <trkpt lat="45.26491" lon="6.16498">
        <ele>2546.189209</ele>
        <time>2012-03-02T09:58:18Z</time>
      </trkpt>
      <trkpt lat="45.26481" lon="6.16509">
        <ele>2549.5537109</ele>
        <time>2012-03-02T09:58:43Z</time>
      </trkpt>
      <trkpt lat="45.26474" lon="6.16511">
        <ele>2551.4763184</ele>
        <time>2012-03-02T09:59:12Z</time>
      </trkpt>
      <trkpt lat="45.26478" lon="6.16504">
        <ele>2554.8408203</ele>
        <time>2012-03-02T09:59:37Z</time>
      </trkpt>
      <trkpt lat="45.26482" lon="6.16498">
        <ele>2558.2055664</ele>
        <time>2012-03-02T10:00:03Z</time>
      </trkpt>
      <trkpt lat="45.26484" lon="6.16486">
        <ele>2560.6088867</ele>
        <time>2012-03-02T10:00:29Z</time>
      </trkpt>
      <trkpt lat="45.26476" lon="6.16489">
        <ele>2563.012207</ele>
        <time>2012-03-02T10:00:45Z</time>
      </trkpt>
      <trkpt lat="45.26472" lon="6.16485">
        <ele>2564.9348145</ele>
        <time>2012-03-02T10:01:00Z</time>
      </trkpt>
      <trkpt lat="45.26484" lon="6.16478">
        <ele>2567.8186035</ele>
        <time>2012-03-02T10:01:16Z</time>
      </trkpt>
      <trkpt lat="45.2649" lon="6.16477">
        <ele>2569.7412109</ele>
        <time>2012-03-02T10:01:30Z</time>
      </trkpt>
      <trkpt lat="45.26477" lon="6.16476">
        <ele>2571.6638184</ele>
        <time>2012-03-02T10:01:47Z</time>
      </trkpt>
      <trkpt lat="45.2647" lon="6.16479">
        <ele>2573.5866699</ele>
        <time>2012-03-02T10:02:01Z</time>
      </trkpt>
      <trkpt lat="45.26461" lon="6.16481">
        <ele>2576.951416</ele>
        <time>2012-03-02T10:02:16Z</time>
      </trkpt>
      <trkpt lat="45.2646" lon="6.16471">
        <ele>2579.8352051</ele>
        <time>2012-03-02T10:02:31Z</time>
      </trkpt>
      <trkpt lat="45.26453" lon="6.16465">
        <ele>2583.199707</ele>
        <time>2012-03-02T10:02:46Z</time>
      </trkpt>
      <trkpt lat="45.26448" lon="6.16455">
        <ele>2586.564209</ele>
        <time>2012-03-02T10:03:03Z</time>
      </trkpt>
      <trkpt lat="45.26445" lon="6.16449">
        <ele>2588.9677734</ele>
        <time>2012-03-02T10:03:17Z</time>
      </trkpt>
      <trkpt lat="45.26441" lon="6.16444">
        <ele>2592.3325195</ele>
        <time>2012-03-02T10:03:31Z</time>
      </trkpt>
      <trkpt lat="45.26436" lon="6.16438">
        <ele>2595.2163086</ele>
        <time>2012-03-02T10:03:45Z</time>
      </trkpt>
      <trkpt lat="45.26433" lon="6.16426">
        <ele>2598.5810547</ele>
        <time>2012-03-02T10:04:11Z</time>
      </trkpt>
      <trkpt lat="45.26428" lon="6.16415">
        <ele>2601.4648438</ele>
        <time>2012-03-02T10:04:40Z</time>
      </trkpt>
      <trkpt lat="45.26423" lon="6.16408">
        <ele>2604.3486328</ele>
        <time>2012-03-02T10:04:59Z</time>
      </trkpt>
      <trkpt lat="45.26418" lon="6.16397">
        <ele>2607.7133789</ele>
        <time>2012-03-02T10:05:14Z</time>
      </trkpt>
      <trkpt lat="45.26413" lon="6.16384">
        <ele>2610.597168</ele>
        <time>2012-03-02T10:05:32Z</time>
      </trkpt>
      <trkpt lat="45.26407" lon="6.16372">
        <ele>2613.9624023</ele>
        <time>2012-03-02T10:05:48Z</time>
      </trkpt>
      <trkpt lat="45.26402" lon="6.16364">
        <ele>2616.8461914</ele>
        <time>2012-03-02T10:06:04Z</time>
      </trkpt>
      <trkpt lat="45.26396" lon="6.16357">
        <ele>2620.2104492</ele>
        <time>2012-03-02T10:06:22Z</time>
      </trkpt>
      <trkpt lat="45.2639" lon="6.16347">
        <ele>2623.0947266</ele>
        <time>2012-03-02T10:06:38Z</time>
      </trkpt>
      <trkpt lat="45.26386" lon="6.16338">
        <ele>2626.4589844</ele>
        <time>2012-03-02T10:06:54Z</time>
      </trkpt>
      <trkpt lat="45.26382" lon="6.16325">
        <ele>2628.8623047</ele>
        <time>2012-03-02T10:07:09Z</time>
      </trkpt>
      <trkpt lat="45.26379" lon="6.16317">
        <ele>2630.7851563</ele>
        <time>2012-03-02T10:07:22Z</time>
      </trkpt>
      <trkpt lat="45.26373" lon="6.16307">
        <ele>2634.1494141</ele>
        <time>2012-03-02T10:07:35Z</time>
      </trkpt>
      <trkpt lat="45.26367" lon="6.16302">
        <ele>2637.5141602</ele>
        <time>2012-03-02T10:07:48Z</time>
      </trkpt>
      <trkpt lat="45.26358" lon="6.16292">
        <ele>2640.3979492</ele>
        <time>2012-03-02T10:08:05Z</time>
      </trkpt>
      <trkpt lat="45.26354" lon="6.16285">
        <ele>2643.2817383</ele>
        <time>2012-03-02T10:08:18Z</time>
      </trkpt>
      <trkpt lat="45.26347" lon="6.16276">
        <ele>2646.6469727</ele>
        <time>2012-03-02T10:08:34Z</time>
      </trkpt>
      <trkpt lat="45.2634" lon="6.16269">
        <ele>2650.0117188</ele>
        <time>2012-03-02T10:08:49Z</time>
      </trkpt>
      <trkpt lat="45.26335" lon="6.16264">
        <ele>2652.8955078</ele>
        <time>2012-03-02T10:09:03Z</time>
      </trkpt>
      <trkpt lat="45.26331" lon="6.1626">
        <ele>2656.2602539</ele>
        <time>2012-03-02T10:09:16Z</time>
      </trkpt>
      <trkpt lat="45.26326" lon="6.16257">
        <ele>2659.6245117</ele>
        <time>2012-03-02T10:09:31Z</time>
      </trkpt>
      <trkpt lat="45.2632" lon="6.16261">
        <ele>2662.5087891</ele>
        <time>2012-03-02T10:09:46Z</time>
      </trkpt>
      <trkpt lat="45.26316" lon="6.16265">
        <ele>2665.8730469</ele>
        <time>2012-03-02T10:10:00Z</time>
      </trkpt>
      <trkpt lat="45.26309" lon="6.16267">
        <ele>2669.237793</ele>
        <time>2012-03-02T10:10:16Z</time>
      </trkpt>
      <trkpt lat="45.26306" lon="6.16274">
        <ele>2672.121582</ele>
        <time>2012-03-02T10:10:33Z</time>
      </trkpt>
      <trkpt lat="45.26305" lon="6.16278">
        <ele>2674.5249023</ele>
        <time>2012-03-02T10:11:06Z</time>
      </trkpt>
      <trkpt lat="45.26306" lon="6.1628">
        <ele>2675.9667969</ele>
        <time>2012-03-02T10:11:49Z</time>
      </trkpt>
      <trkpt lat="45.2631" lon="6.163">
        <ele>2674.5249023</ele>
        <time>2012-03-02T10:12:06Z</time>
      </trkpt>
      <trkpt lat="45.26309" lon="6.16307">
        <ele>2675.9667969</ele>
        <time>2012-03-02T10:13:13Z</time>
      </trkpt>
      <trkpt lat="45.26309" lon="6.16309">
        <ele>2676.4477539</ele>
        <time>2012-03-02T10:13:30Z</time>
      </trkpt>
      <trkpt lat="45.26317" lon="6.16319">
        <ele>2674.5249023</ele>
        <time>2012-03-02T10:14:06Z</time>
      </trkpt>
      <trkpt lat="45.26318" lon="6.16319">
        <ele>2677.4091797</ele>
        <time>2012-03-02T10:15:39Z</time>
      </trkpt>
      <trkpt lat="45.26318" lon="6.16317">
        <ele>2678.3706055</ele>
        <time>2012-03-02T10:16:20Z</time>
      </trkpt>
      <trkpt lat="45.26318" lon="6.16318">
        <ele>2677.4091797</ele>
        <time>2012-03-02T10:16:58Z</time>
      </trkpt>
      <trkpt lat="45.26318" lon="6.16317">
        <ele>2681.2543945</ele>
        <time>2012-03-02T10:18:47Z</time>
      </trkpt>
      <trkpt lat="45.26319" lon="6.16313">
        <ele>2682.2158203</ele>
        <time>2012-03-02T10:19:04Z</time>
      </trkpt>
      <trkpt lat="45.26319" lon="6.16313">
        <ele>2682.6962891</ele>
        <time>2012-03-02T10:19:08Z</time>
      </trkpt>
      <trkpt lat="45.26321" lon="6.16312">
        <ele>2683.6577148</ele>
        <time>2012-03-02T10:20:06Z</time>
      </trkpt>
      <trkpt lat="45.26315" lon="6.16308">
        <ele>2685.0996094</ele>
        <time>2012-03-02T10:20:51Z</time>
      </trkpt>
      <trkpt lat="45.26311" lon="6.16303">
        <ele>2688.4643555</ele>
        <time>2012-03-02T10:21:02Z</time>
      </trkpt>
      <trkpt lat="45.26309" lon="6.16303">
        <ele>2688.4643555</ele>
        <time>2012-03-02T10:21:23Z</time>
      </trkpt>
      <trkpt lat="45.2631" lon="6.16303">
        <ele>2689.425293</ele>
        <time>2012-03-02T10:22:06Z</time>
      </trkpt>
      <trkpt lat="45.26309" lon="6.16296">
        <ele>2690.8676758</ele>
        <time>2012-03-02T10:22:23Z</time>
      </trkpt>
      <trkpt lat="45.26309" lon="6.16295">
        <ele>2690.8676758</ele>
        <time>2012-03-02T10:22:24Z</time>
      </trkpt>
      <trkpt lat="45.26304" lon="6.16278">
        <ele>2692.7900391</ele>
        <time>2012-03-02T10:22:41Z</time>
      </trkpt>
      <trkpt lat="45.26303" lon="6.16276">
        <ele>2691.8286133</ele>
        <time>2012-03-02T10:23:08Z</time>
      </trkpt>
      <trkpt lat="45.26305" lon="6.16274">
        <ele>2692.3095703</ele>
        <time>2012-03-02T10:23:33Z</time>
      </trkpt>
      <trkpt lat="45.26308" lon="6.1627">
        <ele>2690.3867188</ele>
        <time>2012-03-02T10:23:51Z</time>
      </trkpt>
      <trkpt lat="45.2631" lon="6.16269">
        <ele>2690.3867188</ele>
        <time>2012-03-02T10:23:59Z</time>
      </trkpt>
      <trkpt lat="45.2631" lon="6.16264">
        <ele>2690.3867188</ele>
        <time>2012-03-02T10:24:02Z</time>
      </trkpt>
      <trkpt lat="45.2631" lon="6.16261">
        <ele>2687.9833984</ele>
        <time>2012-03-02T10:24:05Z</time>
      </trkpt>
      <trkpt lat="45.2631" lon="6.16261">
        <ele>2689.425293</ele>
        <time>2012-03-02T10:24:07Z</time>
      </trkpt>
      <trkpt lat="45.26312" lon="6.16264">
        <ele>2690.8676758</ele>
        <time>2012-03-02T10:24:24Z</time>
      </trkpt>
      <trkpt lat="45.26314" lon="6.16268">
        <ele>2690.8676758</ele>
        <time>2012-03-02T10:24:56Z</time>
      </trkpt>
      <trkpt lat="45.26315" lon="6.16266">
        <ele>2690.3867188</ele>
        <time>2012-03-02T10:24:58Z</time>
      </trkpt>
      <trkpt lat="45.26324" lon="6.16239">
        <ele>2687.9833984</ele>
        <time>2012-03-02T10:25:09Z</time>
      </trkpt>
      <trkpt lat="45.26323" lon="6.16237">
        <ele>2687.5029297</ele>
        <time>2012-03-02T10:25:29Z</time>
      </trkpt>
      <trkpt lat="45.26323" lon="6.16239">
        <ele>2688.4643555</ele>
        <time>2012-03-02T10:26:15Z</time>
      </trkpt>
      <trkpt lat="45.26322" lon="6.16238">
        <ele>2688.4643555</ele>
        <time>2012-03-02T10:26:41Z</time>
      </trkpt>
      <trkpt lat="45.26323" lon="6.16238">
        <ele>2690.8676758</ele>
        <time>2012-03-02T10:28:13Z</time>
      </trkpt>
      <trkpt lat="45.26323" lon="6.16239">
        <ele>2692.3095703</ele>
        <time>2012-03-02T10:29:08Z</time>
      </trkpt>
      <trkpt lat="45.26318" lon="6.16248">
        <ele>2694.7128906</ele>
        <time>2012-03-02T10:31:08Z</time>
      </trkpt>
      <trkpt lat="45.26318" lon="6.1625">
        <ele>2695.1933594</ele>
        <time>2012-03-02T10:31:10Z</time>
      </trkpt>
      <trkpt lat="45.26313" lon="6.16265">
        <ele>2698.5581055</ele>
        <time>2012-03-02T10:31:25Z</time>
      </trkpt>
      <trkpt lat="45.26313" lon="6.16268">
        <ele>2698.5581055</ele>
        <time>2012-03-02T10:31:41Z</time>
      </trkpt>
      <trkpt lat="45.26314" lon="6.16266">
        <ele>2698.5581055</ele>
        <time>2012-03-02T10:31:44Z</time>
      </trkpt>
      <trkpt lat="45.26322" lon="6.16247">
        <ele>2695.6738281</ele>
        <time>2012-03-02T10:31:49Z</time>
      </trkpt>
      <trkpt lat="45.26326" lon="6.16239">
        <ele>2694.7128906</ele>
        <time>2012-03-02T10:31:51Z</time>
      </trkpt>
      <trkpt lat="45.26328" lon="6.16233">
        <ele>2694.2319336</ele>
        <time>2012-03-02T10:32:01Z</time>
      </trkpt>
      <trkpt lat="45.26328" lon="6.16232">
        <ele>2693.2709961</ele>
        <time>2012-03-02T10:32:12Z</time>
      </trkpt>
      <trkpt lat="45.26328" lon="6.16231">
        <ele>2696.1547852</ele>
        <time>2012-03-02T10:36:10Z</time>
      </trkpt>
      <trkpt lat="45.26329" lon="6.16233">
        <ele>2699.519043</ele>
        <time>2012-03-02T10:37:14Z</time>
      </trkpt>
      <trkpt lat="45.26333" lon="6.16221">
        <ele>2700.9614258</ele>
        <time>2012-03-02T10:37:39Z</time>
      </trkpt>
      <trkpt lat="45.26336" lon="6.16215">
        <ele>2700.9614258</ele>
        <time>2012-03-02T10:37:46Z</time>
      </trkpt>
      <trkpt lat="45.26343" lon="6.16198">
        <ele>2703.8452148</ele>
        <time>2012-03-02T10:37:59Z</time>
      </trkpt>
      <trkpt lat="45.26352" lon="6.16192">
        <ele>2707.2094727</ele>
        <time>2012-03-02T10:38:09Z</time>
      </trkpt>
      <trkpt lat="45.26353" lon="6.16191">
        <ele>2707.2094727</ele>
        <time>2012-03-02T10:38:11Z</time>
      </trkpt>
      <trkpt lat="45.26356" lon="6.16186">
        <ele>2709.1328125</ele>
        <time>2012-03-02T10:38:15Z</time>
      </trkpt>
      <trkpt lat="45.26356" lon="6.16185">
        <ele>2709.1328125</ele>
        <time>2012-03-02T10:38:16Z</time>
      </trkpt>
      <trkpt lat="45.2636" lon="6.16168">
        <ele>2712.4970703</ele>
        <time>2012-03-02T10:38:30Z</time>
      </trkpt>
      <trkpt lat="45.2637" lon="6.16156">
        <ele>2712.9780273</ele>
        <time>2012-03-02T10:38:49Z</time>
      </trkpt>
      <trkpt lat="45.26369" lon="6.16155">
        <ele>2714.4199219</ele>
        <time>2012-03-02T10:40:28Z</time>
      </trkpt>
      <trkpt lat="45.26369" lon="6.16156">
        <ele>2716.8232422</ele>
        <time>2012-03-02T10:43:01Z</time>
      </trkpt>
      <trkpt lat="45.26368" lon="6.16157">
        <ele>2717.3037109</ele>
        <time>2012-03-02T10:43:27Z</time>
      </trkpt>
      <trkpt lat="45.2637" lon="6.16152">
        <ele>2717.3037109</ele>
        <time>2012-03-02T10:43:41Z</time>
      </trkpt>
      <trkpt lat="45.26375" lon="6.16154">
        <ele>2716.3427734</ele>
        <time>2012-03-02T10:43:57Z</time>
      </trkpt>
      <trkpt lat="45.26377" lon="6.16155">
        <ele>2715.8618164</ele>
        <time>2012-03-02T10:44:20Z</time>
      </trkpt>
      <trkpt lat="45.26378" lon="6.16155">
        <ele>2716.3427734</ele>
        <time>2012-03-02T10:45:19Z</time>
      </trkpt>
      <trkpt lat="45.26377" lon="6.16155">
        <ele>2717.3037109</ele>
        <time>2012-03-02T10:46:27Z</time>
      </trkpt>
      <trkpt lat="45.26369" lon="6.16156">
        <ele>2719.2265625</ele>
        <time>2012-03-02T10:47:09Z</time>
      </trkpt>
      <trkpt lat="45.26366" lon="6.16155">
        <ele>2719.7070313</ele>
        <time>2012-03-02T10:47:29Z</time>
      </trkpt>
      <trkpt lat="45.26366" lon="6.16155">
        <ele>2719.7070313</ele>
        <time>2012-03-02T10:49:25Z</time>
      </trkpt>
      <trkpt lat="45.26367" lon="6.16156">
        <ele>2722.5908203</ele>
        <time>2012-03-02T10:54:10Z</time>
      </trkpt>
      <trkpt lat="45.26367" lon="6.16156">
        <ele>2725.9555664</ele>
        <time>2012-03-02T10:59:50Z</time>
      </trkpt>
      <trkpt lat="45.26366" lon="6.16156">
        <ele>2725.9555664</ele>
        <time>2012-03-02T11:00:15Z</time>
      </trkpt>
      <trkpt lat="45.26366" lon="6.16156">
        <ele>2728.8393555</ele>
        <time>2012-03-02T11:08:55Z</time>
      </trkpt>
      <trkpt lat="45.26366" lon="6.16156">
        <ele>2732.2041016</ele>
        <time>2012-03-02T11:22:41Z</time>
      </trkpt>
      <trkpt lat="45.26367" lon="6.16157">
        <ele>2735.0878906</ele>
        <time>2012-03-02T11:39:04Z</time>
      </trkpt>
      <trkpt lat="45.26367" lon="6.16157">
        <ele>2738.4526367</ele>
        <time>2012-03-02T12:00:02Z</time>
      </trkpt>
      <trkpt lat="45.26366" lon="6.16156">
        <ele>2738.9331055</ele>
        <time>2012-03-02T12:00:17Z</time>
      </trkpt>
      <trkpt lat="45.26366" lon="6.16156">
        <ele>2737.9716797</ele>
        <time>2012-03-02T12:00:55Z</time>
      </trkpt>
      <trkpt lat="45.26365" lon="6.16155">
        <ele>2738.4526367</ele>
        <time>2012-03-02T12:03:22Z</time>
      </trkpt>
      <trkpt lat="45.26365" lon="6.16156">
        <ele>2738.9331055</ele>
        <time>2012-03-02T12:04:12Z</time>
      </trkpt>
      <trkpt lat="45.26364" lon="6.16157">
        <ele>2738.4526367</ele>
        <time>2012-03-02T12:04:58Z</time>
      </trkpt>
      <trkpt lat="45.26359" lon="6.16168">
        <ele>2737.0107422</ele>
        <time>2012-03-02T12:05:02Z</time>
      </trkpt>
      <trkpt lat="45.26358" lon="6.16178">
        <ele>2736.0493164</ele>
        <time>2012-03-02T12:05:04Z</time>
      </trkpt>
      <trkpt lat="45.26354" lon="6.16188">
        <ele>2734.6074219</ele>
        <time>2012-03-02T12:05:06Z</time>
      </trkpt>
      <trkpt lat="45.26355" lon="6.16201">
        <ele>2732.6845703</ele>
        <time>2012-03-02T12:05:13Z</time>
      </trkpt>
      <trkpt lat="45.26354" lon="6.16201">
        <ele>2731.2426758</ele>
        <time>2012-03-02T12:06:56Z</time>
      </trkpt>
      <trkpt lat="45.26353" lon="6.16213">
        <ele>2726.4360352</ele>
        <time>2012-03-02T12:07:00Z</time>
      </trkpt>
      <trkpt lat="45.26354" lon="6.16232">
        <ele>2723.0717773</ele>
        <time>2012-03-02T12:07:03Z</time>
      </trkpt>
      <trkpt lat="45.26353" lon="6.16247">
        <ele>2717.3037109</ele>
        <time>2012-03-02T12:07:05Z</time>
      </trkpt>
      <trkpt lat="45.26356" lon="6.1627">
        <ele>2711.0551758</ele>
        <time>2012-03-02T12:07:08Z</time>
      </trkpt>
      <trkpt lat="45.26359" lon="6.16286">
        <ele>2707.2094727</ele>
        <time>2012-03-02T12:07:10Z</time>
      </trkpt>
      <trkpt lat="45.26361" lon="6.16292">
        <ele>2706.7290039</ele>
        <time>2012-03-02T12:07:11Z</time>
      </trkpt>
      <trkpt lat="45.26362" lon="6.16308">
        <ele>2701.9223633</ele>
        <time>2012-03-02T12:07:13Z</time>
      </trkpt>
      <trkpt lat="45.26366" lon="6.16309">
        <ele>2700.4804688</ele>
        <time>2012-03-02T12:07:14Z</time>
      </trkpt>
      <trkpt lat="45.26376" lon="6.16327">
        <ele>2692.7900391</ele>
        <time>2012-03-02T12:07:18Z</time>
      </trkpt>
      <trkpt lat="45.2638" lon="6.16332">
        <ele>2691.3481445</ele>
        <time>2012-03-02T12:07:19Z</time>
      </trkpt>
      <trkpt lat="45.26402" lon="6.16355">
        <ele>2687.5029297</ele>
        <time>2012-03-02T12:07:23Z</time>
      </trkpt>
      <trkpt lat="45.26407" lon="6.16359">
        <ele>2687.0224609</ele>
        <time>2012-03-02T12:07:24Z</time>
      </trkpt>
      <trkpt lat="45.26407" lon="6.16377">
        <ele>2678.8510742</ele>
        <time>2012-03-02T12:07:27Z</time>
      </trkpt>
      <trkpt lat="45.26412" lon="6.1639">
        <ele>2675.4863281</ele>
        <time>2012-03-02T12:07:29Z</time>
      </trkpt>
      <trkpt lat="45.26417" lon="6.16395">
        <ele>2675.9667969</ele>
        <time>2012-03-02T12:07:30Z</time>
      </trkpt>
      <trkpt lat="45.26435" lon="6.16412">
        <ele>2671.1601563</ele>
        <time>2012-03-02T12:07:34Z</time>
      </trkpt>
      <trkpt lat="45.26443" lon="6.1643">
        <ele>2667.3149414</ele>
        <time>2012-03-02T12:07:38Z</time>
      </trkpt>
      <trkpt lat="45.26443" lon="6.16441">
        <ele>2662.9892578</ele>
        <time>2012-03-02T12:07:40Z</time>
      </trkpt>
      <trkpt lat="45.26452" lon="6.16456">
        <ele>2659.6245117</ele>
        <time>2012-03-02T12:07:43Z</time>
      </trkpt>
      <trkpt lat="45.26452" lon="6.16469">
        <ele>2654.3374023</ele>
        <time>2012-03-02T12:07:45Z</time>
      </trkpt>
      <trkpt lat="45.2646" lon="6.16476">
        <ele>2653.3759766</ele>
        <time>2012-03-02T12:07:50Z</time>
      </trkpt>
      <trkpt lat="45.2646" lon="6.16476">
        <ele>2652.8955078</ele>
        <time>2012-03-02T12:08:15Z</time>
      </trkpt>
      <trkpt lat="45.26467" lon="6.16481">
        <ele>2648.5698242</ele>
        <time>2012-03-02T12:08:19Z</time>
      </trkpt>
      <trkpt lat="45.26469" lon="6.16484">
        <ele>2647.1279297</ele>
        <time>2012-03-02T12:08:20Z</time>
      </trkpt>
      <trkpt lat="45.26476" lon="6.16489">
        <ele>2643.2817383</ele>
        <time>2012-03-02T12:08:23Z</time>
      </trkpt>
      <trkpt lat="45.26482" lon="6.16501">
        <ele>2637.5141602</ele>
        <time>2012-03-02T12:08:27Z</time>
      </trkpt>
      <trkpt lat="45.26485" lon="6.16508">
        <ele>2634.1494141</ele>
        <time>2012-03-02T12:08:29Z</time>
      </trkpt>
      <trkpt lat="45.26485" lon="6.16511">
        <ele>2634.6303711</ele>
        <time>2012-03-02T12:08:30Z</time>
      </trkpt>
      <trkpt lat="45.2649" lon="6.16516">
        <ele>2631.265625</ele>
        <time>2012-03-02T12:08:32Z</time>
      </trkpt>
      <trkpt lat="45.26492" lon="6.16519">
        <ele>2627.9008789</ele>
        <time>2012-03-02T12:08:34Z</time>
      </trkpt>
      <trkpt lat="45.26497" lon="6.16525">
        <ele>2624.0561523</ele>
        <time>2012-03-02T12:08:37Z</time>
      </trkpt>
      <trkpt lat="45.26498" lon="6.16531">
        <ele>2620.6914063</ele>
        <time>2012-03-02T12:08:39Z</time>
      </trkpt>
      <trkpt lat="45.26502" lon="6.16535">
        <ele>2617.3266602</ele>
        <time>2012-03-02T12:08:41Z</time>
      </trkpt>
      <trkpt lat="45.26504" lon="6.1654">
        <ele>2613.9624023</ele>
        <time>2012-03-02T12:08:43Z</time>
      </trkpt>
      <trkpt lat="45.26505" lon="6.16543">
        <ele>2612.5200195</ele>
        <time>2012-03-02T12:08:44Z</time>
      </trkpt>
      <trkpt lat="45.26509" lon="6.16546">
        <ele>2608.1938477</ele>
        <time>2012-03-02T12:08:46Z</time>
      </trkpt>
      <trkpt lat="45.26514" lon="6.16554">
        <ele>2605.3100586</ele>
        <time>2012-03-02T12:08:50Z</time>
      </trkpt>
      <trkpt lat="45.26515" lon="6.16551">
        <ele>2604.8291016</ele>
        <time>2012-03-02T12:09:10Z</time>
      </trkpt>
      <trkpt lat="45.26512" lon="6.16555">
        <ele>2602.4262695</ele>
        <time>2012-03-02T12:09:13Z</time>
      </trkpt>
      <trkpt lat="45.26513" lon="6.16563">
        <ele>2599.0615234</ele>
        <time>2012-03-02T12:09:16Z</time>
      </trkpt>
      <trkpt lat="45.26514" lon="6.1657">
        <ele>2595.2163086</ele>
        <time>2012-03-02T12:09:19Z</time>
      </trkpt>
      <trkpt lat="45.26516" lon="6.16576">
        <ele>2593.2937012</ele>
        <time>2012-03-02T12:09:21Z</time>
      </trkpt>
      <trkpt lat="45.26517" lon="6.16583">
        <ele>2588.4873047</ele>
        <time>2012-03-02T12:09:25Z</time>
      </trkpt>
      <trkpt lat="45.26522" lon="6.16591">
        <ele>2586.0837402</ele>
        <time>2012-03-02T12:09:36Z</time>
      </trkpt>
      <trkpt lat="45.26524" lon="6.16594">
        <ele>2585.6030273</ele>
        <time>2012-03-02T12:10:00Z</time>
      </trkpt>
      <trkpt lat="45.26526" lon="6.16599">
        <ele>2582.2385254</ele>
        <time>2012-03-02T12:10:04Z</time>
      </trkpt>
      <trkpt lat="45.26537" lon="6.1661">
        <ele>2574.5480957</ele>
        <time>2012-03-02T12:10:10Z</time>
      </trkpt>
      <trkpt lat="45.26541" lon="6.16612">
        <ele>2574.0673828</ele>
        <time>2012-03-02T12:10:11Z</time>
      </trkpt>
      <trkpt lat="45.26539" lon="6.16615">
        <ele>2569.2607422</ele>
        <time>2012-03-02T12:10:14Z</time>
      </trkpt>
      <trkpt lat="45.26538" lon="6.16617">
        <ele>2569.7412109</ele>
        <time>2012-03-02T12:10:15Z</time>
      </trkpt>
      <trkpt lat="45.26542" lon="6.16619">
        <ele>2564.9348145</ele>
        <time>2012-03-02T12:10:18Z</time>
      </trkpt>
      <trkpt lat="45.2654" lon="6.16622">
        <ele>2564.4541016</ele>
        <time>2012-03-02T12:10:19Z</time>
      </trkpt>
      <trkpt lat="45.26541" lon="6.16627">
        <ele>2560.1281738</ele>
        <time>2012-03-02T12:10:22Z</time>
      </trkpt>
      <trkpt lat="45.26539" lon="6.16634">
        <ele>2555.802002</ele>
        <time>2012-03-02T12:10:25Z</time>
      </trkpt>
      <trkpt lat="45.26543" lon="6.16637">
        <ele>2552.4375</ele>
        <time>2012-03-02T12:10:28Z</time>
      </trkpt>
      <trkpt lat="45.26547" lon="6.16634">
        <ele>2552.9182129</ele>
        <time>2012-03-02T12:10:29Z</time>
      </trkpt>
      <trkpt lat="45.26547" lon="6.16639">
        <ele>2548.5922852</ele>
        <time>2012-03-02T12:10:31Z</time>
      </trkpt>
      <trkpt lat="45.2655" lon="6.16644">
        <ele>2543.3051758</ele>
        <time>2012-03-02T12:10:35Z</time>
      </trkpt>
      <trkpt lat="45.26549" lon="6.16663">
        <ele>2539.4597168</ele>
        <time>2012-03-02T12:10:38Z</time>
      </trkpt>
      <trkpt lat="45.26554" lon="6.16665">
        <ele>2536.5756836</ele>
        <time>2012-03-02T12:10:41Z</time>
      </trkpt>
      <trkpt lat="45.26554" lon="6.16666">
        <ele>2536.5756836</ele>
        <time>2012-03-02T12:10:52Z</time>
      </trkpt>
      <trkpt lat="45.26561" lon="6.16667">
        <ele>2532.7304688</ele>
        <time>2012-03-02T12:10:56Z</time>
      </trkpt>
      <trkpt lat="45.26562" lon="6.16673">
        <ele>2529.3659668</ele>
        <time>2012-03-02T12:10:58Z</time>
      </trkpt>
      <trkpt lat="45.26568" lon="6.16677">
        <ele>2526.0014648</ele>
        <time>2012-03-02T12:11:01Z</time>
      </trkpt>
      <trkpt lat="45.26567" lon="6.16683">
        <ele>2522.6367188</ele>
        <time>2012-03-02T12:11:03Z</time>
      </trkpt>
      <trkpt lat="45.26575" lon="6.16688">
        <ele>2519.7526855</ele>
        <time>2012-03-02T12:11:06Z</time>
      </trkpt>
      <trkpt lat="45.2658" lon="6.16698">
        <ele>2514.4655762</ele>
        <time>2012-03-02T12:11:10Z</time>
      </trkpt>
      <trkpt lat="45.26579" lon="6.16714">
        <ele>2510.1396484</ele>
        <time>2012-03-02T12:11:14Z</time>
      </trkpt>
      <trkpt lat="45.26582" lon="6.16725">
        <ele>2507.2556152</ele>
        <time>2012-03-02T12:11:17Z</time>
      </trkpt>
      <trkpt lat="45.26586" lon="6.16727">
        <ele>2503.4104004</ele>
        <time>2012-03-02T12:11:20Z</time>
      </trkpt>
      <trkpt lat="45.26587" lon="6.16725">
        <ele>2501.487793</ele>
        <time>2012-03-02T12:11:22Z</time>
      </trkpt>
      <trkpt lat="45.26589" lon="6.16733">
        <ele>2496.2006836</ele>
        <time>2012-03-02T12:11:25Z</time>
      </trkpt>
      <trkpt lat="45.26583" lon="6.1674">
        <ele>2495.7199707</ele>
        <time>2012-03-02T12:11:33Z</time>
      </trkpt>
      <trkpt lat="45.26583" lon="6.16741">
        <ele>2495.2392578</ele>
        <time>2012-03-02T12:11:39Z</time>
      </trkpt>
      <trkpt lat="45.26588" lon="6.16744">
        <ele>2491.3937988</ele>
        <time>2012-03-02T12:11:42Z</time>
      </trkpt>
      <trkpt lat="45.26593" lon="6.16751">
        <ele>2487.0678711</ele>
        <time>2012-03-02T12:11:45Z</time>
      </trkpt>
      <trkpt lat="45.266" lon="6.16756">
        <ele>2483.7033691</ele>
        <time>2012-03-02T12:11:48Z</time>
      </trkpt>
      <trkpt lat="45.26595" lon="6.16761">
        <ele>2481.7807617</ele>
        <time>2012-03-02T12:11:55Z</time>
      </trkpt>
      <trkpt lat="45.26596" lon="6.16762">
        <ele>2480.8195801</ele>
        <time>2012-03-02T12:12:55Z</time>
      </trkpt>
      <trkpt lat="45.26595" lon="6.16765">
        <ele>2476.0129395</ele>
        <time>2012-03-02T12:12:58Z</time>
      </trkpt>
      <trkpt lat="45.26593" lon="6.1677">
        <ele>2473.609375</ele>
        <time>2012-03-02T12:13:01Z</time>
      </trkpt>
      <trkpt lat="45.26594" lon="6.16773">
        <ele>2470.7255859</ele>
        <time>2012-03-02T12:13:34Z</time>
      </trkpt>
      <trkpt lat="45.26598" lon="6.16782">
        <ele>2465.4384766</ele>
        <time>2012-03-02T12:13:37Z</time>
      </trkpt>
      <trkpt lat="45.26599" lon="6.16787">
        <ele>2464.4770508</ele>
        <time>2012-03-02T12:13:38Z</time>
      </trkpt>
      <trkpt lat="45.26604" lon="6.16798">
        <ele>2459.670166</ele>
        <time>2012-03-02T12:13:41Z</time>
      </trkpt>
      <trkpt lat="45.26607" lon="6.16805">
        <ele>2456.3056641</ele>
        <time>2012-03-02T12:13:43Z</time>
      </trkpt>
      <trkpt lat="45.2661" lon="6.16818">
        <ele>2452.9411621</ele>
        <time>2012-03-02T12:13:46Z</time>
      </trkpt>
      <trkpt lat="45.26614" lon="6.1683">
        <ele>2448.1345215</ele>
        <time>2012-03-02T12:13:48Z</time>
      </trkpt>
      <trkpt lat="45.26618" lon="6.16845">
        <ele>2443.8085938</ele>
        <time>2012-03-02T12:13:51Z</time>
      </trkpt>
      <trkpt lat="45.26622" lon="6.16858">
        <ele>2439.0019531</ele>
        <time>2012-03-02T12:13:53Z</time>
      </trkpt>
      <trkpt lat="45.26627" lon="6.16863">
        <ele>2436.5986328</ele>
        <time>2012-03-02T12:13:54Z</time>
      </trkpt>
      <trkpt lat="45.26649" lon="6.16884">
        <ele>2427.4660645</ele>
        <time>2012-03-02T12:13:58Z</time>
      </trkpt>
      <trkpt lat="45.26653" lon="6.16876">
        <ele>2427.4660645</ele>
        <time>2012-03-02T12:14:00Z</time>
      </trkpt>
      <trkpt lat="45.26653" lon="6.16877">
        <ele>2428.4277344</ele>
        <time>2012-03-02T12:14:12Z</time>
      </trkpt>
      <trkpt lat="45.26653" lon="6.16877">
        <ele>2427.9467773</ele>
        <time>2012-03-02T12:14:52Z</time>
      </trkpt>
      <trkpt lat="45.26661" lon="6.16878">
        <ele>2423.1403809</ele>
        <time>2012-03-02T12:14:56Z</time>
      </trkpt>
      <trkpt lat="45.26665" lon="6.16874">
        <ele>2421.2175293</ele>
        <time>2012-03-02T12:14:57Z</time>
      </trkpt>
      <trkpt lat="45.26676" lon="6.16867">
        <ele>2417.8530273</ele>
        <time>2012-03-02T12:15:00Z</time>
      </trkpt>
      <trkpt lat="45.26686" lon="6.16861">
        <ele>2413.0466309</ele>
        <time>2012-03-02T12:15:03Z</time>
      </trkpt>
      <trkpt lat="45.26692" lon="6.1686">
        <ele>2410.6430664</ele>
        <time>2012-03-02T12:15:04Z</time>
      </trkpt>
      <trkpt lat="45.26705" lon="6.16853">
        <ele>2403.4333496</ele>
        <time>2012-03-02T12:15:08Z</time>
      </trkpt>
      <trkpt lat="45.2672" lon="6.16838">
        <ele>2395.7426758</ele>
        <time>2012-03-02T12:15:12Z</time>
      </trkpt>
      <trkpt lat="45.26729" lon="6.16804">
        <ele>2390.9360352</ele>
        <time>2012-03-02T12:15:16Z</time>
      </trkpt>
      <trkpt lat="45.26746" lon="6.16778">
        <ele>2388.0522461</ele>
        <time>2012-03-02T12:15:21Z</time>
      </trkpt>
      <trkpt lat="45.26776" lon="6.16768">
        <ele>2387.5715332</ele>
        <time>2012-03-02T12:15:32Z</time>
      </trkpt>
      <trkpt lat="45.26776" lon="6.16767">
        <ele>2387.5715332</ele>
        <time>2012-03-02T12:15:47Z</time>
      </trkpt>
      <trkpt lat="45.26771" lon="6.16777">
        <ele>2385.6489258</ele>
        <time>2012-03-02T12:15:51Z</time>
      </trkpt>
      <trkpt lat="45.26765" lon="6.16812">
        <ele>2377.958252</ele>
        <time>2012-03-02T12:15:56Z</time>
      </trkpt>
      <trkpt lat="45.26784" lon="6.1683">
        <ele>2369.3066406</ele>
        <time>2012-03-02T12:16:01Z</time>
      </trkpt>
      <trkpt lat="45.26809" lon="6.16833">
        <ele>2362.5771484</ele>
        <time>2012-03-02T12:16:04Z</time>
      </trkpt>
      <trkpt lat="45.26827" lon="6.16833">
        <ele>2358.2512207</ele>
        <time>2012-03-02T12:16:09Z</time>
      </trkpt>
      <trkpt lat="45.26829" lon="6.16834">
        <ele>2358.7319336</ele>
        <time>2012-03-02T12:16:25Z</time>
      </trkpt>
      <trkpt lat="45.26829" lon="6.16833">
        <ele>2359.2126465</ele>
        <time>2012-03-02T12:16:40Z</time>
      </trkpt>
      <trkpt lat="45.26831" lon="6.1684">
        <ele>2353.9255371</ele>
        <time>2012-03-02T12:16:44Z</time>
      </trkpt>
      <trkpt lat="45.26834" lon="6.16844">
        <ele>2350.0803223</ele>
        <time>2012-03-02T12:16:46Z</time>
      </trkpt>
      <trkpt lat="45.26844" lon="6.16835">
        <ele>2348.1574707</ele>
        <time>2012-03-02T12:16:49Z</time>
      </trkpt>
      <trkpt lat="45.26852" lon="6.16827">
        <ele>2344.7927246</ele>
        <time>2012-03-02T12:16:52Z</time>
      </trkpt>
      <trkpt lat="45.26856" lon="6.16831">
        <ele>2340.4667969</ele>
        <time>2012-03-02T12:16:55Z</time>
      </trkpt>
      <trkpt lat="45.26855" lon="6.16834">
        <ele>2339.9863281</ele>
        <time>2012-03-02T12:16:56Z</time>
      </trkpt>
      <trkpt lat="45.26852" lon="6.16839">
        <ele>2339.0249023</ele>
        <time>2012-03-02T12:16:58Z</time>
      </trkpt>
      <trkpt lat="45.26856" lon="6.16843">
        <ele>2336.621582</ele>
        <time>2012-03-02T12:17:02Z</time>
      </trkpt>
      <trkpt lat="45.26857" lon="6.16843">
        <ele>2335.6604004</ele>
        <time>2012-03-02T12:17:03Z</time>
      </trkpt>
      <trkpt lat="45.26858" lon="6.16846">
        <ele>2334.2185059</ele>
        <time>2012-03-02T12:17:06Z</time>
      </trkpt>
      <trkpt lat="45.26858" lon="6.16847">
        <ele>2333.737793</ele>
        <time>2012-03-02T12:17:07Z</time>
      </trkpt>
      <trkpt lat="45.26862" lon="6.16854">
        <ele>2328.9309082</ele>
        <time>2012-03-02T12:17:11Z</time>
      </trkpt>
      <trkpt lat="45.26857" lon="6.16867">
        <ele>2325.5664063</ele>
        <time>2012-03-02T12:17:13Z</time>
      </trkpt>
      <trkpt lat="45.26849" lon="6.16885">
        <ele>2320.7600098</ele>
        <time>2012-03-02T12:17:16Z</time>
      </trkpt>
      <trkpt lat="45.26844" lon="6.16897">
        <ele>2318.3566895</ele>
        <time>2012-03-02T12:17:18Z</time>
      </trkpt>
      <trkpt lat="45.26847" lon="6.16905">
        <ele>2314.5112305</ele>
        <time>2012-03-02T12:17:21Z</time>
      </trkpt>
      <trkpt lat="45.26853" lon="6.169">
        <ele>2314.0305176</ele>
        <time>2012-03-02T12:17:23Z</time>
      </trkpt>
      <trkpt lat="45.26865" lon="6.16883">
        <ele>2311.1467285</ele>
        <time>2012-03-02T12:17:28Z</time>
      </trkpt>
      <trkpt lat="45.26868" lon="6.16879">
        <ele>2310.1853027</ele>
        <time>2012-03-02T12:17:29Z</time>
      </trkpt>
      <trkpt lat="45.26876" lon="6.16871">
        <ele>2309.7045898</ele>
        <time>2012-03-02T12:17:31Z</time>
      </trkpt>
      <trkpt lat="45.26888" lon="6.16861">
        <ele>2305.859375</ele>
        <time>2012-03-02T12:17:34Z</time>
      </trkpt>
      <trkpt lat="45.26903" lon="6.16845">
        <ele>2302.0141602</ele>
        <time>2012-03-02T12:17:39Z</time>
      </trkpt>
      <trkpt lat="45.26903" lon="6.16846">
        <ele>2302.0141602</ele>
        <time>2012-03-02T12:17:55Z</time>
      </trkpt>
      <trkpt lat="45.26902" lon="6.16847">
        <ele>2302.494873</ele>
        <time>2012-03-02T12:18:30Z</time>
      </trkpt>
      <trkpt lat="45.26901" lon="6.16848">
        <ele>2302.494873</ele>
        <time>2012-03-02T12:19:02Z</time>
      </trkpt>
      <trkpt lat="45.26901" lon="6.1685">
        <ele>2302.494873</ele>
        <time>2012-03-02T12:19:04Z</time>
      </trkpt>
      <trkpt lat="45.26896" lon="6.1686">
        <ele>2301.5336914</ele>
        <time>2012-03-02T12:19:15Z</time>
      </trkpt>
      <trkpt lat="45.26898" lon="6.1686">
        <ele>2301.0529785</ele>
        <time>2012-03-02T12:19:37Z</time>
      </trkpt>
      <trkpt lat="45.26898" lon="6.1686">
        <ele>2301.5336914</ele>
        <time>2012-03-02T12:19:41Z</time>
      </trkpt>
      <trkpt lat="45.26899" lon="6.16873">
        <ele>2297.6882324</ele>
        <time>2012-03-02T12:19:45Z</time>
      </trkpt>
      <trkpt lat="45.26897" lon="6.16878">
        <ele>2296.2463379</ele>
        <time>2012-03-02T12:19:46Z</time>
      </trkpt>
      <trkpt lat="45.26896" lon="6.16886">
        <ele>2295.765625</ele>
        <time>2012-03-02T12:19:48Z</time>
      </trkpt>
      <trkpt lat="45.26902" lon="6.16889">
        <ele>2289.9978027</ele>
        <time>2012-03-02T12:19:50Z</time>
      </trkpt>
      <trkpt lat="45.2691" lon="6.169">
        <ele>2286.6330566</ele>
        <time>2012-03-02T12:19:53Z</time>
      </trkpt>
      <trkpt lat="45.26917" lon="6.16915">
        <ele>2283.2683105</ele>
        <time>2012-03-02T12:19:55Z</time>
      </trkpt>
      <trkpt lat="45.26927" lon="6.16908">
        <ele>2278.9423828</ele>
        <time>2012-03-02T12:19:57Z</time>
      </trkpt>
      <trkpt lat="45.26929" lon="6.16901">
        <ele>2278.4619141</ele>
        <time>2012-03-02T12:20:03Z</time>
      </trkpt>
      <trkpt lat="45.26931" lon="6.16897">
        <ele>2277.0200195</ele>
        <time>2012-03-02T12:20:09Z</time>
      </trkpt>
      <trkpt lat="45.26934" lon="6.169">
        <ele>2274.1359863</ele>
        <time>2012-03-02T12:20:13Z</time>
      </trkpt>
      <trkpt lat="45.26935" lon="6.16899">
        <ele>2274.1359863</ele>
        <time>2012-03-02T12:20:15Z</time>
      </trkpt>
      <trkpt lat="45.2694" lon="6.16883">
        <ele>2269.8100586</ele>
        <time>2012-03-02T12:20:19Z</time>
      </trkpt>
      <trkpt lat="45.26947" lon="6.16865">
        <ele>2268.3681641</ele>
        <time>2012-03-02T12:20:22Z</time>
      </trkpt>
      <trkpt lat="45.26965" lon="6.16857">
        <ele>2267.887207</ele>
        <time>2012-03-02T12:20:27Z</time>
      </trkpt>
      <trkpt lat="45.26991" lon="6.16865">
        <ele>2266.4453125</ele>
        <time>2012-03-02T12:20:42Z</time>
      </trkpt>
      <trkpt lat="45.27024" lon="6.16867">
        <ele>2263.0808105</ele>
        <time>2012-03-02T12:20:52Z</time>
      </trkpt>
      <trkpt lat="45.27027" lon="6.16868">
        <ele>2263.0808105</ele>
        <time>2012-03-02T12:20:53Z</time>
      </trkpt>
      <trkpt lat="45.27056" lon="6.1689">
        <ele>2259.2355957</ele>
        <time>2012-03-02T12:21:01Z</time>
      </trkpt>
      <trkpt lat="45.27071" lon="6.16902">
        <ele>2256.8322754</ele>
        <time>2012-03-02T12:21:04Z</time>
      </trkpt>
      <trkpt lat="45.27071" lon="6.16919">
        <ele>2250.5834961</ele>
        <time>2012-03-02T12:21:08Z</time>
      </trkpt>
      <trkpt lat="45.27065" lon="6.16917">
        <ele>2246.7382813</ele>
        <time>2012-03-02T12:21:09Z</time>
      </trkpt>
      <trkpt lat="45.2705" lon="6.16909">
        <ele>2244.8156738</ele>
        <time>2012-03-02T12:21:11Z</time>
      </trkpt>
      <trkpt lat="45.27031" lon="6.16916">
        <ele>2243.3737793</ele>
        <time>2012-03-02T12:21:16Z</time>
      </trkpt>
      <trkpt lat="45.27029" lon="6.16935">
        <ele>2233.760498</ele>
        <time>2012-03-02T12:21:19Z</time>
      </trkpt>
      <trkpt lat="45.27024" lon="6.1694">
        <ele>2233.2797852</ele>
        <time>2012-03-02T12:21:20Z</time>
      </trkpt>
      <trkpt lat="45.27018" lon="6.16943">
        <ele>2233.2797852</ele>
        <time>2012-03-02T12:21:21Z</time>
      </trkpt>
      <trkpt lat="45.27011" lon="6.16956">
        <ele>2228.4733887</ele>
        <time>2012-03-02T12:21:26Z</time>
      </trkpt>
      <trkpt lat="45.27008" lon="6.16955">
        <ele>2228.4733887</ele>
        <time>2012-03-02T12:21:41Z</time>
      </trkpt>
      <trkpt lat="45.27008" lon="6.16956">
        <ele>2228.9538574</ele>
        <time>2012-03-02T12:22:08Z</time>
      </trkpt>
      <trkpt lat="45.2701" lon="6.16957">
        <ele>2228.4733887</ele>
        <time>2012-03-02T12:22:30Z</time>
      </trkpt>
      <trkpt lat="45.27034" lon="6.16971">
        <ele>2224.6281738</ele>
        <time>2012-03-02T12:22:39Z</time>
      </trkpt>
      <trkpt lat="45.27058" lon="6.16998">
        <ele>2218.3793945</ele>
        <time>2012-03-02T12:22:42Z</time>
      </trkpt>
      <trkpt lat="45.27075" lon="6.17035">
        <ele>2214.0534668</ele>
        <time>2012-03-02T12:22:46Z</time>
      </trkpt>
      <trkpt lat="45.2708" lon="6.17052">
        <ele>2212.1308594</ele>
        <time>2012-03-02T12:22:48Z</time>
      </trkpt>
      <trkpt lat="45.27084" lon="6.17091">
        <ele>2206.84375</ele>
        <time>2012-03-02T12:22:54Z</time>
      </trkpt>
      <trkpt lat="45.27082" lon="6.17117">
        <ele>2203.4790039</ele>
        <time>2012-03-02T12:22:57Z</time>
      </trkpt>
      <trkpt lat="45.2708" lon="6.17137">
        <ele>2200.114502</ele>
        <time>2012-03-02T12:22:59Z</time>
      </trkpt>
      <trkpt lat="45.2708" lon="6.17166">
        <ele>2195.7885742</ele>
        <time>2012-03-02T12:23:02Z</time>
      </trkpt>
      <trkpt lat="45.27078" lon="6.17192">
        <ele>2191.4626465</ele>
        <time>2012-03-02T12:23:04Z</time>
      </trkpt>
      <trkpt lat="45.27075" lon="6.17223">
        <ele>2187.6171875</ele>
        <time>2012-03-02T12:23:06Z</time>
      </trkpt>
      <trkpt lat="45.27073" lon="6.17247">
        <ele>2183.2912598</ele>
        <time>2012-03-02T12:23:08Z</time>
      </trkpt>
      <trkpt lat="45.27073" lon="6.17259">
        <ele>2181.3686523</ele>
        <time>2012-03-02T12:23:09Z</time>
      </trkpt>
      <trkpt lat="45.27074" lon="6.17289">
        <ele>2179.4460449</ele>
        <time>2012-03-02T12:23:13Z</time>
      </trkpt>
      <trkpt lat="45.27074" lon="6.17287">
        <ele>2179.4460449</ele>
        <time>2012-03-02T12:23:30Z</time>
      </trkpt>
      <trkpt lat="45.27074" lon="6.17287">
        <ele>2179.4460449</ele>
        <time>2012-03-02T12:23:42Z</time>
      </trkpt>
      <trkpt lat="45.27072" lon="6.17289">
        <ele>2175.6008301</ele>
        <time>2012-03-02T12:23:44Z</time>
      </trkpt>
      <trkpt lat="45.27066" lon="6.17285">
        <ele>2171.2746582</ele>
        <time>2012-03-02T12:23:46Z</time>
      </trkpt>
      <trkpt lat="45.27064" lon="6.17278">
        <ele>2169.8327637</ele>
        <time>2012-03-02T12:23:47Z</time>
      </trkpt>
      <trkpt lat="45.27049" lon="6.1725">
        <ele>2165.0263672</ele>
        <time>2012-03-02T12:23:51Z</time>
      </trkpt>
      <trkpt lat="45.27042" lon="6.17235">
        <ele>2161.1811523</ele>
        <time>2012-03-02T12:23:53Z</time>
      </trkpt>
      <trkpt lat="45.2703" lon="6.17217">
        <ele>2161.1811523</ele>
        <time>2012-03-02T12:23:56Z</time>
      </trkpt>
      <trkpt lat="45.27017" lon="6.17221">
        <ele>2158.777832</ele>
        <time>2012-03-02T12:24:00Z</time>
      </trkpt>
      <trkpt lat="45.27012" lon="6.17247">
        <ele>2151.5678711</ele>
        <time>2012-03-02T12:24:03Z</time>
      </trkpt>
      <trkpt lat="45.27009" lon="6.17272">
        <ele>2142.4355469</ele>
        <time>2012-03-02T12:24:05Z</time>
      </trkpt>
      <trkpt lat="45.27009" lon="6.17289">
        <ele>2139.0705566</ele>
        <time>2012-03-02T12:24:06Z</time>
      </trkpt>
      <trkpt lat="45.27008" lon="6.17306">
        <ele>2136.1867676</ele>
        <time>2012-03-02T12:24:07Z</time>
      </trkpt>
      <trkpt lat="45.26999" lon="6.17357">
        <ele>2128.015625</ele>
        <time>2012-03-02T12:24:10Z</time>
      </trkpt>
      <trkpt lat="45.26998" lon="6.17396">
        <ele>2125.6123047</ele>
        <time>2012-03-02T12:24:12Z</time>
      </trkpt>
      <trkpt lat="45.26991" lon="6.17413">
        <ele>2117.9216309</ele>
        <time>2012-03-02T12:24:14Z</time>
      </trkpt>
      <trkpt lat="45.26978" lon="6.17422">
        <ele>2114.5571289</ele>
        <time>2012-03-02T12:24:16Z</time>
      </trkpt>
      <trkpt lat="45.2698" lon="6.17465">
        <ele>2111.6733398</ele>
        <time>2012-03-02T12:24:20Z</time>
      </trkpt>
      <trkpt lat="45.26977" lon="6.17479">
        <ele>2105.9050293</ele>
        <time>2012-03-02T12:24:22Z</time>
      </trkpt>
      <trkpt lat="45.26966" lon="6.17487">
        <ele>2103.0212402</ele>
        <time>2012-03-02T12:24:24Z</time>
      </trkpt>
      <trkpt lat="45.26955" lon="6.17486">
        <ele>2106.8664551</ele>
        <time>2012-03-02T12:24:33Z</time>
      </trkpt>
      <trkpt lat="45.26955" lon="6.17487">
        <ele>2107.347168</ele>
        <time>2012-03-02T12:26:03Z</time>
      </trkpt>
      <trkpt lat="45.2696" lon="6.17498">
        <ele>2102.0598145</ele>
        <time>2012-03-02T12:26:07Z</time>
      </trkpt>
      <trkpt lat="45.26974" lon="6.17507">
        <ele>2098.6953125</ele>
        <time>2012-03-02T12:26:09Z</time>
      </trkpt>
      <trkpt lat="45.26986" lon="6.17523">
        <ele>2097.253418</ele>
        <time>2012-03-02T12:26:11Z</time>
      </trkpt>
      <trkpt lat="45.26995" lon="6.17545">
        <ele>2094.8500977</ele>
        <time>2012-03-02T12:26:13Z</time>
      </trkpt>
      <trkpt lat="45.2701" lon="6.17571">
        <ele>2091.0046387</ele>
        <time>2012-03-02T12:26:16Z</time>
      </trkpt>
      <trkpt lat="45.27021" lon="6.17589">
        <ele>2087.6401367</ele>
        <time>2012-03-02T12:26:18Z</time>
      </trkpt>
      <trkpt lat="45.2703" lon="6.17605">
        <ele>2085.7175293</ele>
        <time>2012-03-02T12:26:20Z</time>
      </trkpt>
      <trkpt lat="45.27027" lon="6.1762">
        <ele>2080.4304199</ele>
        <time>2012-03-02T12:26:23Z</time>
      </trkpt>
      <trkpt lat="45.2702" lon="6.17616">
        <ele>2076.1044922</ele>
        <time>2012-03-02T12:26:24Z</time>
      </trkpt>
      <trkpt lat="45.2701" lon="6.17629">
        <ele>2071.7783203</ele>
        <time>2012-03-02T12:26:28Z</time>
      </trkpt>
      <trkpt lat="45.27012" lon="6.17636">
        <ele>2069.8557129</ele>
        <time>2012-03-02T12:26:29Z</time>
      </trkpt>
      <trkpt lat="45.27017" lon="6.17649">
        <ele>2067.9331055</ele>
        <time>2012-03-02T12:26:31Z</time>
      </trkpt>
      <trkpt lat="45.2701" lon="6.17654">
        <ele>2062.1652832</ele>
        <time>2012-03-02T12:26:33Z</time>
      </trkpt>
      <trkpt lat="45.27004" lon="6.17652">
        <ele>2058.8005371</ele>
        <time>2012-03-02T12:26:34Z</time>
      </trkpt>
      <trkpt lat="45.27" lon="6.17654">
        <ele>2059.28125</ele>
        <time>2012-03-02T12:26:35Z</time>
      </trkpt>
      <trkpt lat="45.26998" lon="6.17667">
        <ele>2055.4360352</ele>
        <time>2012-03-02T12:26:37Z</time>
      </trkpt>
      <trkpt lat="45.27" lon="6.17677">
        <ele>2053.0327148</ele>
        <time>2012-03-02T12:26:38Z</time>
      </trkpt>
      <trkpt lat="45.27007" lon="6.17709">
        <ele>2045.822998</ele>
        <time>2012-03-02T12:26:41Z</time>
      </trkpt>
      <trkpt lat="45.27012" lon="6.1774">
        <ele>2042.9387207</ele>
        <time>2012-03-02T12:26:44Z</time>
      </trkpt>
      <trkpt lat="45.27011" lon="6.17763">
        <ele>2038.6130371</ele>
        <time>2012-03-02T12:26:47Z</time>
      </trkpt>
      <trkpt lat="45.27007" lon="6.17766">
        <ele>2033.3256836</ele>
        <time>2012-03-02T12:26:48Z</time>
      </trkpt>
      <trkpt lat="45.26993" lon="6.17758">
        <ele>2028.5192871</ele>
        <time>2012-03-02T12:26:50Z</time>
      </trkpt>
      <trkpt lat="45.26974" lon="6.17743">
        <ele>2026.5964355</ele>
        <time>2012-03-02T12:26:53Z</time>
      </trkpt>
      <trkpt lat="45.26952" lon="6.17756">
        <ele>2021.7897949</ele>
        <time>2012-03-02T12:26:57Z</time>
      </trkpt>
      <trkpt lat="45.26951" lon="6.17779">
        <ele>2016.5026855</ele>
        <time>2012-03-02T12:27:00Z</time>
      </trkpt>
      <trkpt lat="45.26946" lon="6.17783">
        <ele>2015.060791</ele>
        <time>2012-03-02T12:27:01Z</time>
      </trkpt>
      <trkpt lat="45.26931" lon="6.17794">
        <ele>2011.215332</ele>
        <time>2012-03-02T12:27:03Z</time>
      </trkpt>
      <trkpt lat="45.2691" lon="6.17822">
        <ele>2008.8120117</ele>
        <time>2012-03-02T12:27:07Z</time>
      </trkpt>
      <trkpt lat="45.26907" lon="6.17828">
        <ele>2009.2927246</ele>
        <time>2012-03-02T12:27:08Z</time>
      </trkpt>
      <trkpt lat="45.26905" lon="6.17849">
        <ele>2005.4475098</ele>
        <time>2012-03-02T12:27:11Z</time>
      </trkpt>
      <trkpt lat="45.26896" lon="6.1787">
        <ele>2001.6022949</ele>
        <time>2012-03-02T12:27:14Z</time>
      </trkpt>
      <trkpt lat="45.26892" lon="6.17875">
        <ele>2001.121582</ele>
        <time>2012-03-02T12:27:15Z</time>
      </trkpt>
      <trkpt lat="45.26891" lon="6.17894">
        <ele>1996.3151855</ele>
        <time>2012-03-02T12:27:18Z</time>
      </trkpt>
      <trkpt lat="45.26898" lon="6.179">
        <ele>1994.3920898</ele>
        <time>2012-03-02T12:27:19Z</time>
      </trkpt>
      <trkpt lat="45.26912" lon="6.17917">
        <ele>1990.546875</ele>
        <time>2012-03-02T12:27:21Z</time>
      </trkpt>
      <trkpt lat="45.26922" lon="6.17946">
        <ele>1984.298584</ele>
        <time>2012-03-02T12:27:24Z</time>
      </trkpt>
      <trkpt lat="45.2692" lon="6.17957">
        <ele>1983.3371582</ele>
        <time>2012-03-02T12:27:25Z</time>
      </trkpt>
      <trkpt lat="45.26913" lon="6.1798">
        <ele>1975.6464844</ele>
        <time>2012-03-02T12:27:27Z</time>
      </trkpt>
      <trkpt lat="45.26908" lon="6.18013">
        <ele>1974.2045898</ele>
        <time>2012-03-02T12:27:32Z</time>
      </trkpt>
      <trkpt lat="45.26907" lon="6.18013">
        <ele>1975.1657715</ele>
        <time>2012-03-02T12:27:50Z</time>
      </trkpt>
      <trkpt lat="45.26906" lon="6.18015">
        <ele>1974.6853027</ele>
        <time>2012-03-02T12:27:56Z</time>
      </trkpt>
      <trkpt lat="45.26904" lon="6.1802">
        <ele>1973.2434082</ele>
        <time>2012-03-02T12:28:01Z</time>
      </trkpt>
      <trkpt lat="45.26904" lon="6.18049">
        <ele>1966.5141602</ele>
        <time>2012-03-02T12:28:05Z</time>
      </trkpt>
      <trkpt lat="45.26905" lon="6.18071">
        <ele>1961.7075195</ele>
        <time>2012-03-02T12:28:07Z</time>
      </trkpt>
      <trkpt lat="45.26899" lon="6.18094">
        <ele>1962.6687012</ele>
        <time>2012-03-02T12:28:10Z</time>
      </trkpt>
      <trkpt lat="45.26902" lon="6.18114">
        <ele>1958.3427734</ele>
        <time>2012-03-02T12:28:13Z</time>
      </trkpt>
      <trkpt lat="45.269" lon="6.18123">
        <ele>1956.9008789</ele>
        <time>2012-03-02T12:28:15Z</time>
      </trkpt>
      <trkpt lat="45.26905" lon="6.18133">
        <ele>1951.6137695</ele>
        <time>2012-03-02T12:28:20Z</time>
      </trkpt>
      <trkpt lat="45.26907" lon="6.1814">
        <ele>1947.7683105</ele>
        <time>2012-03-02T12:28:23Z</time>
      </trkpt>
      <trkpt lat="45.2691" lon="6.18144">
        <ele>1943.4423828</ele>
        <time>2012-03-02T12:28:25Z</time>
      </trkpt>
      <trkpt lat="45.26909" lon="6.18149">
        <ele>1942.4812012</ele>
        <time>2012-03-02T12:28:26Z</time>
      </trkpt>
      <trkpt lat="45.26924" lon="6.18166">
        <ele>1933.3486328</ele>
        <time>2012-03-02T12:28:30Z</time>
      </trkpt>
      <trkpt lat="45.26921" lon="6.18189">
        <ele>1929.9838867</ele>
        <time>2012-03-02T12:28:33Z</time>
      </trkpt>
      <trkpt lat="45.26919" lon="6.18195">
        <ele>1929.9838867</ele>
        <time>2012-03-02T12:28:34Z</time>
      </trkpt>
      <trkpt lat="45.2692" lon="6.18196">
        <ele>1930.9453125</ele>
        <time>2012-03-02T12:28:44Z</time>
      </trkpt>
      <trkpt lat="45.26935" lon="6.18187">
        <ele>1927.1000977</ele>
        <time>2012-03-02T12:28:49Z</time>
      </trkpt>
      <trkpt lat="45.26944" lon="6.18185">
        <ele>1925.657959</ele>
        <time>2012-03-02T12:28:51Z</time>
      </trkpt>
      <trkpt lat="45.26965" lon="6.18202">
        <ele>1921.8127441</ele>
        <time>2012-03-02T12:29:00Z</time>
      </trkpt>
      <trkpt lat="45.26974" lon="6.18212">
        <ele>1918.4482422</ele>
        <time>2012-03-02T12:29:02Z</time>
      </trkpt>
      <trkpt lat="45.26997" lon="6.18251">
        <ele>1913.6413574</ele>
        <time>2012-03-02T12:29:12Z</time>
      </trkpt>
      <trkpt lat="45.27002" lon="6.18286">
        <ele>1909.3156738</ele>
        <time>2012-03-02T12:29:18Z</time>
      </trkpt>
      <trkpt lat="45.27006" lon="6.18314">
        <ele>1904.9897461</ele>
        <time>2012-03-02T12:29:21Z</time>
      </trkpt>
      <trkpt lat="45.27008" lon="6.18347">
        <ele>1901.6252441</ele>
        <time>2012-03-02T12:29:24Z</time>
      </trkpt>
      <trkpt lat="45.27011" lon="6.1837">
        <ele>1897.7797852</ele>
        <time>2012-03-02T12:29:26Z</time>
      </trkpt>
      <trkpt lat="45.27013" lon="6.18393">
        <ele>1896.3378906</ele>
        <time>2012-03-02T12:29:28Z</time>
      </trkpt>
      <trkpt lat="45.27015" lon="6.18439">
        <ele>1892.0119629</ele>
        <time>2012-03-02T12:29:35Z</time>
      </trkpt>
      <trkpt lat="45.27014" lon="6.18453">
        <ele>1890.0893555</ele>
        <time>2012-03-02T12:29:37Z</time>
      </trkpt>
      <trkpt lat="45.27017" lon="6.18483">
        <ele>1886.2441406</ele>
        <time>2012-03-02T12:29:41Z</time>
      </trkpt>
      <trkpt lat="45.27025" lon="6.18516">
        <ele>1880.9567871</ele>
        <time>2012-03-02T12:29:45Z</time>
      </trkpt>
      <trkpt lat="45.27029" lon="6.18532">
        <ele>1878.5534668</ele>
        <time>2012-03-02T12:29:47Z</time>
      </trkpt>
      <trkpt lat="45.27043" lon="6.18567">
        <ele>1875.6694336</ele>
        <time>2012-03-02T12:29:54Z</time>
      </trkpt>
      <trkpt lat="45.27052" lon="6.18591">
        <ele>1872.3049316</ele>
        <time>2012-03-02T12:29:58Z</time>
      </trkpt>
      <trkpt lat="45.27064" lon="6.1863">
        <ele>1868.9404297</ele>
        <time>2012-03-02T12:30:04Z</time>
      </trkpt>
      <trkpt lat="45.27071" lon="6.18656">
        <ele>1865.5756836</ele>
        <time>2012-03-02T12:30:08Z</time>
      </trkpt>
      <trkpt lat="45.27077" lon="6.18676">
        <ele>1862.6916504</ele>
        <time>2012-03-02T12:30:11Z</time>
      </trkpt>
      <trkpt lat="45.27082" lon="6.18701">
        <ele>1860.769043</ele>
        <time>2012-03-02T12:30:20Z</time>
      </trkpt>
      <trkpt lat="45.27093" lon="6.18729">
        <ele>1856.9238281</ele>
        <time>2012-03-02T12:30:32Z</time>
      </trkpt>
      <trkpt lat="45.27101" lon="6.18748">
        <ele>1853.5593262</ele>
        <time>2012-03-02T12:30:35Z</time>
      </trkpt>
      <trkpt lat="45.27106" lon="6.18762">
        <ele>1850.1945801</ele>
        <time>2012-03-02T12:30:37Z</time>
      </trkpt>
      <trkpt lat="45.27109" lon="6.1877">
        <ele>1849.7138672</ele>
        <time>2012-03-02T12:30:38Z</time>
      </trkpt>
      <trkpt lat="45.27114" lon="6.18787">
        <ele>1848.7524414</ele>
        <time>2012-03-02T12:30:45Z</time>
      </trkpt>
      <trkpt lat="45.27113" lon="6.18788">
        <ele>1848.2717285</ele>
        <time>2012-03-02T12:30:57Z</time>
      </trkpt>
      <trkpt lat="45.27114" lon="6.18794">
        <ele>1846.829834</ele>
        <time>2012-03-02T12:31:11Z</time>
      </trkpt>
      <trkpt lat="45.27122" lon="6.18826">
        <ele>1842.9846191</ele>
        <time>2012-03-02T12:31:18Z</time>
      </trkpt>
      <trkpt lat="45.27127" lon="6.18871">
        <ele>1841.0620117</ele>
        <time>2012-03-02T12:31:28Z</time>
      </trkpt>
      <trkpt lat="45.27129" lon="6.18878">
        <ele>1841.0620117</ele>
        <time>2012-03-02T12:31:36Z</time>
      </trkpt>
      <trkpt lat="45.27134" lon="6.18904">
        <ele>1837.2167969</ele>
        <time>2012-03-02T12:31:43Z</time>
      </trkpt>
      <trkpt lat="45.27148" lon="6.18936">
        <ele>1833.3713379</ele>
        <time>2012-03-02T12:31:52Z</time>
      </trkpt>
      <trkpt lat="45.27158" lon="6.18958">
        <ele>1829.0454102</ele>
        <time>2012-03-02T12:31:55Z</time>
      </trkpt>
      <trkpt lat="45.27161" lon="6.18965">
        <ele>1828.5649414</ele>
        <time>2012-03-02T12:31:56Z</time>
      </trkpt>
      <trkpt lat="45.27164" lon="6.18983">
        <ele>1829.0454102</ele>
        <time>2012-03-02T12:31:59Z</time>
      </trkpt>
      <trkpt lat="45.27169" lon="6.1899">
        <ele>1828.0842285</ele>
        <time>2012-03-02T12:32:06Z</time>
      </trkpt>
      <trkpt lat="45.27168" lon="6.18991">
        <ele>1827.1230469</ele>
        <time>2012-03-02T12:32:49Z</time>
      </trkpt>
      <trkpt lat="45.27171" lon="6.18994">
        <ele>1825.6809082</ele>
        <time>2012-03-02T12:32:57Z</time>
      </trkpt>
      <trkpt lat="45.27171" lon="6.18995">
        <ele>1825.6809082</ele>
        <time>2012-03-02T12:33:29Z</time>
      </trkpt>
      <trkpt lat="45.27182" lon="6.19011">
        <ele>1823.277832</ele>
        <time>2012-03-02T12:33:35Z</time>
      </trkpt>
      <trkpt lat="45.27195" lon="6.19039">
        <ele>1817.5095215</ele>
        <time>2012-03-02T12:33:39Z</time>
      </trkpt>
      <trkpt lat="45.27203" lon="6.19055">
        <ele>1815.5871582</ele>
        <time>2012-03-02T12:33:41Z</time>
      </trkpt>
      <trkpt lat="45.2721" lon="6.19067">
        <ele>1814.1450195</ele>
        <time>2012-03-02T12:33:43Z</time>
      </trkpt>
      <trkpt lat="45.27225" lon="6.19078">
        <ele>1810.2998047</ele>
        <time>2012-03-02T12:33:47Z</time>
      </trkpt>
      <trkpt lat="45.27238" lon="6.19084">
        <ele>1806.9353027</ele>
        <time>2012-03-02T12:33:50Z</time>
      </trkpt>
      <trkpt lat="45.27254" lon="6.19096">
        <ele>1801.6479492</ele>
        <time>2012-03-02T12:33:53Z</time>
      </trkpt>
      <trkpt lat="45.27265" lon="6.19106">
        <ele>1800.2060547</ele>
        <time>2012-03-02T12:33:55Z</time>
      </trkpt>
      <trkpt lat="45.27287" lon="6.19125">
        <ele>1796.8413086</ele>
        <time>2012-03-02T12:34:00Z</time>
      </trkpt>
      <trkpt lat="45.273" lon="6.19135">
        <ele>1793.9575195</ele>
        <time>2012-03-02T12:34:03Z</time>
      </trkpt>
      <trkpt lat="45.27316" lon="6.19147">
        <ele>1791.0734863</ele>
        <time>2012-03-02T12:34:06Z</time>
      </trkpt>
      <trkpt lat="45.27334" lon="6.19165">
        <ele>1785.7861328</ele>
        <time>2012-03-02T12:34:10Z</time>
      </trkpt>
      <trkpt lat="45.27343" lon="6.19173">
        <ele>1784.3442383</ele>
        <time>2012-03-02T12:34:13Z</time>
      </trkpt>
      <trkpt lat="45.27355" lon="6.19181">
        <ele>1780.9797363</ele>
        <time>2012-03-02T12:34:17Z</time>
      </trkpt>
      <trkpt lat="45.27365" lon="6.19186">
        <ele>1778.0957031</ele>
        <time>2012-03-02T12:34:20Z</time>
      </trkpt>
      <trkpt lat="45.27372" lon="6.19198">
        <ele>1773.7697754</ele>
        <time>2012-03-02T12:34:23Z</time>
      </trkpt>
      <trkpt lat="45.27366" lon="6.19204">
        <ele>1770.4050293</ele>
        <time>2012-03-02T12:34:25Z</time>
      </trkpt>
      <trkpt lat="45.27351" lon="6.19211">
        <ele>1767.0405273</ele>
        <time>2012-03-02T12:34:29Z</time>
      </trkpt>
      <trkpt lat="45.27353" lon="6.19231">
        <ele>1761.753418</ele>
        <time>2012-03-02T12:34:32Z</time>
      </trkpt>
      <trkpt lat="45.27357" lon="6.19241">
        <ele>1759.8305664</ele>
        <time>2012-03-02T12:34:34Z</time>
      </trkpt>
      <trkpt lat="45.27363" lon="6.19247">
        <ele>1758.3886719</ele>
        <time>2012-03-02T12:34:46Z</time>
      </trkpt>
      <trkpt lat="45.27362" lon="6.19248">
        <ele>1757.9082031</ele>
        <time>2012-03-02T12:34:47Z</time>
      </trkpt>
      <trkpt lat="45.27351" lon="6.19261">
        <ele>1754.5432129</ele>
        <time>2012-03-02T12:34:52Z</time>
      </trkpt>
      <trkpt lat="45.27342" lon="6.19273">
        <ele>1752.1398926</ele>
        <time>2012-03-02T12:35:00Z</time>
      </trkpt>
      <trkpt lat="45.2734" lon="6.19279">
        <ele>1750.697998</ele>
        <time>2012-03-02T12:35:04Z</time>
      </trkpt>
      <trkpt lat="45.27342" lon="6.19285">
        <ele>1747.814209</ele>
        <time>2012-03-02T12:35:07Z</time>
      </trkpt>
      <trkpt lat="45.27343" lon="6.19288">
        <ele>1747.814209</ele>
        <time>2012-03-02T12:35:12Z</time>
      </trkpt>
      <trkpt lat="45.27345" lon="6.19297">
        <ele>1747.3334961</ele>
        <time>2012-03-02T12:35:25Z</time>
      </trkpt>
      <trkpt lat="45.27345" lon="6.19298">
        <ele>1747.3334961</ele>
        <time>2012-03-02T12:35:42Z</time>
      </trkpt>
      <trkpt lat="45.27351" lon="6.19311">
        <ele>1743.9689941</ele>
        <time>2012-03-02T12:35:46Z</time>
      </trkpt>
      <trkpt lat="45.27351" lon="6.19315">
        <ele>1743.9689941</ele>
        <time>2012-03-02T12:35:59Z</time>
      </trkpt>
      <trkpt lat="45.27351" lon="6.19319">
        <ele>1741.5656738</ele>
        <time>2012-03-02T12:36:04Z</time>
      </trkpt>
      <trkpt lat="45.27354" lon="6.1932">
        <ele>1738.6816406</ele>
        <time>2012-03-02T12:36:06Z</time>
      </trkpt>
      <trkpt lat="45.27355" lon="6.19327">
        <ele>1739.1621094</ele>
        <time>2012-03-02T12:36:14Z</time>
      </trkpt>
      <trkpt lat="45.2736" lon="6.1934">
        <ele>1736.7587891</ele>
        <time>2012-03-02T12:36:24Z</time>
      </trkpt>
      <trkpt lat="45.2736" lon="6.19341">
        <ele>1736.7587891</ele>
        <time>2012-03-02T12:36:25Z</time>
      </trkpt>
      <trkpt lat="45.2737" lon="6.19349">
        <ele>1734.3557129</ele>
        <time>2012-03-02T12:36:32Z</time>
      </trkpt>
      <trkpt lat="45.27367" lon="6.1935">
        <ele>1731.4716797</ele>
        <time>2012-03-02T12:36:38Z</time>
      </trkpt>
      <trkpt lat="45.27362" lon="6.19352">
        <ele>1729.5490723</ele>
        <time>2012-03-02T12:36:43Z</time>
      </trkpt>
      <trkpt lat="45.27356" lon="6.19362">
        <ele>1726.6652832</ele>
        <time>2012-03-02T12:36:56Z</time>
      </trkpt>
      <trkpt lat="45.27354" lon="6.19364">
        <ele>1725.2231445</ele>
        <time>2012-03-02T12:36:58Z</time>
      </trkpt>
      <trkpt lat="45.27349" lon="6.19365">
        <ele>1724.2619629</ele>
        <time>2012-03-02T12:37:04Z</time>
      </trkpt>
      <trkpt lat="45.27344" lon="6.19365">
        <ele>1721.8583984</ele>
        <time>2012-03-02T12:37:07Z</time>
      </trkpt>
      <trkpt lat="45.27328" lon="6.19366">
        <ele>1718.0131836</ele>
        <time>2012-03-02T12:37:18Z</time>
      </trkpt>
      <trkpt lat="45.27326" lon="6.19369">
        <ele>1716.0905762</ele>
        <time>2012-03-02T12:37:21Z</time>
      </trkpt>
      <trkpt lat="45.27321" lon="6.19376">
        <ele>1716.5712891</ele>
        <time>2012-03-02T12:37:41Z</time>
      </trkpt>
      <trkpt lat="45.27329" lon="6.19388">
        <ele>1714.6486816</ele>
        <time>2012-03-02T12:37:46Z</time>
      </trkpt>
      <trkpt lat="45.27337" lon="6.1939">
        <ele>1712.2453613</ele>
        <time>2012-03-02T12:37:52Z</time>
      </trkpt>
      <trkpt lat="45.27347" lon="6.19396">
        <ele>1707.9194336</ele>
        <time>2012-03-02T12:37:55Z</time>
      </trkpt>
      <trkpt lat="45.27354" lon="6.19404">
        <ele>1704.5546875</ele>
        <time>2012-03-02T12:38:03Z</time>
      </trkpt>
      <trkpt lat="45.27363" lon="6.19412">
        <ele>1701.6708984</ele>
        <time>2012-03-02T12:38:14Z</time>
      </trkpt>
      <trkpt lat="45.27366" lon="6.19413">
        <ele>1700.2290039</ele>
        <time>2012-03-02T12:38:15Z</time>
      </trkpt>
      <trkpt lat="45.27372" lon="6.19418">
        <ele>1695.9030762</ele>
        <time>2012-03-02T12:38:18Z</time>
      </trkpt>
      <trkpt lat="45.27377" lon="6.19421">
        <ele>1694.9416504</ele>
        <time>2012-03-02T12:38:20Z</time>
      </trkpt>
      <trkpt lat="45.27381" lon="6.19424">
        <ele>1692.5385742</ele>
        <time>2012-03-02T12:38:23Z</time>
      </trkpt>
      <trkpt lat="45.27381" lon="6.19427">
        <ele>1692.5385742</ele>
        <time>2012-03-02T12:38:27Z</time>
      </trkpt>
      <trkpt lat="45.2739" lon="6.19433">
        <ele>1689.173584</ele>
        <time>2012-03-02T12:38:31Z</time>
      </trkpt>
      <trkpt lat="45.2739" lon="6.19437">
        <ele>1687.7316895</ele>
        <time>2012-03-02T12:38:37Z</time>
      </trkpt>
      <trkpt lat="45.27394" lon="6.19445">
        <ele>1685.3283691</ele>
        <time>2012-03-02T12:38:40Z</time>
      </trkpt>
      <trkpt lat="45.27402" lon="6.19458">
        <ele>1681.9638672</ele>
        <time>2012-03-02T12:38:46Z</time>
      </trkpt>
      <trkpt lat="45.27405" lon="6.19464">
        <ele>1681.4831543</ele>
        <time>2012-03-02T12:38:48Z</time>
      </trkpt>
      <trkpt lat="45.27408" lon="6.19479">
        <ele>1678.1186523</ele>
        <time>2012-03-02T12:38:56Z</time>
      </trkpt>
      <trkpt lat="45.27415" lon="6.19492">
        <ele>1674.7539063</ele>
        <time>2012-03-02T12:39:01Z</time>
      </trkpt>
      <trkpt lat="45.27416" lon="6.19493">
        <ele>1675.234375</ele>
        <time>2012-03-02T12:39:02Z</time>
      </trkpt>
      <trkpt lat="45.27425" lon="6.19503">
        <ele>1671.3891602</ele>
        <time>2012-03-02T12:39:07Z</time>
      </trkpt>
      <trkpt lat="45.27428" lon="6.19506">
        <ele>1668.986084</ele>
        <time>2012-03-02T12:39:09Z</time>
      </trkpt>
      <trkpt lat="45.2743" lon="6.19519">
        <ele>1665.1408691</ele>
        <time>2012-03-02T12:39:20Z</time>
      </trkpt>
      <trkpt lat="45.27437" lon="6.19522">
        <ele>1662.2568359</ele>
        <time>2012-03-02T12:39:24Z</time>
      </trkpt>
      <trkpt lat="45.27442" lon="6.19526">
        <ele>1657.9309082</ele>
        <time>2012-03-02T12:39:27Z</time>
      </trkpt>
      <trkpt lat="45.27446" lon="6.19528">
        <ele>1656.4887695</ele>
        <time>2012-03-02T12:39:29Z</time>
      </trkpt>
      <trkpt lat="45.27452" lon="6.19538">
        <ele>1656.0080566</ele>
        <time>2012-03-02T12:39:42Z</time>
      </trkpt>
      <trkpt lat="45.27457" lon="6.19537">
        <ele>1654.5661621</ele>
        <time>2012-03-02T12:39:45Z</time>
      </trkpt>
      <trkpt lat="45.27457" lon="6.19542">
        <ele>1650.7209473</ele>
        <time>2012-03-02T12:39:49Z</time>
      </trkpt>
      <trkpt lat="45.27459" lon="6.19549">
        <ele>1648.7983398</ele>
        <time>2012-03-02T12:39:53Z</time>
      </trkpt>
      <trkpt lat="45.27462" lon="6.19554">
        <ele>1647.3564453</ele>
        <time>2012-03-02T12:39:55Z</time>
      </trkpt>
      <trkpt lat="45.27462" lon="6.19566">
        <ele>1643.5109863</ele>
        <time>2012-03-02T12:39:58Z</time>
      </trkpt>
      <trkpt lat="45.27464" lon="6.19571">
        <ele>1643.0302734</ele>
        <time>2012-03-02T12:39:59Z</time>
      </trkpt>
      <trkpt lat="45.27468" lon="6.19588">
        <ele>1643.5109863</ele>
        <time>2012-03-02T12:40:23Z</time>
      </trkpt>
      <trkpt lat="45.27469" lon="6.19589">
        <ele>1640.1464844</ele>
        <time>2012-03-02T12:44:00Z</time>
      </trkpt>
      <trkpt lat="45.27469" lon="6.1959">
        <ele>1639.1850586</ele>
        <time>2012-03-02T12:44:01Z</time>
      </trkpt>
      <trkpt lat="45.27473" lon="6.19593">
        <ele>1636.7817383</ele>
        <time>2012-03-02T12:44:03Z</time>
      </trkpt>
      <trkpt lat="45.27475" lon="6.19594">
        <ele>1636.3012695</ele>
        <time>2012-03-02T12:44:04Z</time>
      </trkpt>
      <trkpt lat="45.27482" lon="6.19609">
        <ele>1631.4946289</ele>
        <time>2012-03-02T12:44:09Z</time>
      </trkpt>
      <trkpt lat="45.27482" lon="6.1961">
        <ele>1631.0141602</ele>
        <time>2012-03-02T12:44:10Z</time>
      </trkpt>
      <trkpt lat="45.27492" lon="6.1963">
        <ele>1628.130127</ele>
        <time>2012-03-02T12:44:15Z</time>
      </trkpt>
      <trkpt lat="45.27494" lon="6.19633">
        <ele>1626.6879883</ele>
        <time>2012-03-02T12:44:17Z</time>
      </trkpt>
      <trkpt lat="45.27498" lon="6.19642">
        <ele>1622.8427734</ele>
        <time>2012-03-02T12:44:21Z</time>
      </trkpt>
      <trkpt lat="45.27504" lon="6.19653">
        <ele>1619.9587402</ele>
        <time>2012-03-02T12:44:24Z</time>
      </trkpt>
      <trkpt lat="45.27512" lon="6.19656">
        <ele>1618.5168457</ele>
        <time>2012-03-02T12:44:26Z</time>
      </trkpt>
      <trkpt lat="45.27521" lon="6.1967">
        <ele>1614.190918</ele>
        <time>2012-03-02T12:44:29Z</time>
      </trkpt>
      <trkpt lat="45.27527" lon="6.19686">
        <ele>1609.3842773</ele>
        <time>2012-03-02T12:44:32Z</time>
      </trkpt>
      <trkpt lat="45.27529" lon="6.19691">
        <ele>1608.4228516</ele>
        <time>2012-03-02T12:44:33Z</time>
      </trkpt>
      <trkpt lat="45.2754" lon="6.19699">
        <ele>1606.5002441</ele>
        <time>2012-03-02T12:44:38Z</time>
      </trkpt>
      <trkpt lat="45.27549" lon="6.19707">
        <ele>1602.6550293</ele>
        <time>2012-03-02T12:44:41Z</time>
      </trkpt>
      <trkpt lat="45.27557" lon="6.19708">
        <ele>1601.2131348</ele>
        <time>2012-03-02T12:44:43Z</time>
      </trkpt>
      <trkpt lat="45.27565" lon="6.1973">
        <ele>1595.9257813</ele>
        <time>2012-03-02T12:44:46Z</time>
      </trkpt>
      <trkpt lat="45.2757" lon="6.19749">
        <ele>1593.5224609</ele>
        <time>2012-03-02T12:44:48Z</time>
      </trkpt>
      <trkpt lat="45.27589" lon="6.19778">
        <ele>1593.041748</ele>
        <time>2012-03-02T12:44:53Z</time>
      </trkpt>
      <trkpt lat="45.27599" lon="6.19797">
        <ele>1591.1191406</ele>
        <time>2012-03-02T12:44:56Z</time>
      </trkpt>
      <trkpt lat="45.27617" lon="6.19834">
        <ele>1587.2739258</ele>
        <time>2012-03-02T12:45:02Z</time>
      </trkpt>
      <trkpt lat="45.27622" lon="6.19843">
        <ele>1586.3127441</ele>
        <time>2012-03-02T12:45:04Z</time>
      </trkpt>
      <trkpt lat="45.27626" lon="6.19857">
        <ele>1583.9094238</ele>
        <time>2012-03-02T12:45:06Z</time>
      </trkpt>
      <trkpt lat="45.27648" lon="6.19888">
        <ele>1581.0256348</ele>
        <time>2012-03-02T12:45:13Z</time>
      </trkpt>
      <trkpt lat="45.27661" lon="6.19911">
        <ele>1578.6220703</ele>
        <time>2012-03-02T12:45:17Z</time>
      </trkpt>
      <trkpt lat="45.27684" lon="6.19957">
        <ele>1576.21875</ele>
        <time>2012-03-02T12:45:30Z</time>
      </trkpt>
      <trkpt lat="45.27694" lon="6.19979">
        <ele>1576.6994629</ele>
        <time>2012-03-02T12:45:43Z</time>
      </trkpt>
      <trkpt lat="45.277" lon="6.19991">
        <ele>1577.1801758</ele>
        <time>2012-03-02T12:45:57Z</time>
      </trkpt>
      <trkpt lat="45.2771" lon="6.20007">
        <ele>1577.1801758</ele>
        <time>2012-03-02T12:46:15Z</time>
      </trkpt>
      <trkpt lat="45.27713" lon="6.20014">
        <ele>1577.6606445</ele>
        <time>2012-03-02T12:46:28Z</time>
      </trkpt>
      <trkpt lat="45.27718" lon="6.20021">
        <ele>1577.6606445</ele>
        <time>2012-03-02T12:46:44Z</time>
      </trkpt>
      <trkpt lat="45.27718" lon="6.2002">
        <ele>1577.1801758</ele>
        <time>2012-03-02T12:47:40Z</time>
      </trkpt>
      <trkpt lat="45.27727" lon="6.20037">
        <ele>1574.2961426</ele>
        <time>2012-03-02T12:48:15Z</time>
      </trkpt>
      <trkpt lat="45.27736" lon="6.2005">
        <ele>1572.854248</ele>
        <time>2012-03-02T12:48:18Z</time>
      </trkpt>
      <trkpt lat="45.27742" lon="6.20059">
        <ele>1572.3735352</ele>
        <time>2012-03-02T12:48:20Z</time>
      </trkpt>
      <trkpt lat="45.27757" lon="6.20087">
        <ele>1568.0476074</ele>
        <time>2012-03-02T12:48:26Z</time>
      </trkpt>
      <trkpt lat="45.2776" lon="6.20093">
        <ele>1568.5283203</ele>
        <time>2012-03-02T12:48:27Z</time>
      </trkpt>
      <trkpt lat="45.2778" lon="6.20141">
        <ele>1565.6445313</ele>
        <time>2012-03-02T12:48:36Z</time>
      </trkpt>
      <trkpt lat="45.27795" lon="6.20163">
        <ele>1562.279541</ele>
        <time>2012-03-02T12:48:42Z</time>
      </trkpt>
      <trkpt lat="45.27814" lon="6.20188">
        <ele>1560.8376465</ele>
        <time>2012-03-02T12:48:54Z</time>
      </trkpt>
      <trkpt lat="45.27835" lon="6.20211">
        <ele>1557.4731445</ele>
        <time>2012-03-02T12:49:03Z</time>
      </trkpt>
      <trkpt lat="45.27843" lon="6.2022">
        <ele>1556.9924316</ele>
        <time>2012-03-02T12:49:12Z</time>
      </trkpt>
      <trkpt lat="45.27845" lon="6.20217">
        <ele>1554.1086426</ele>
        <time>2012-03-02T12:53:12Z</time>
      </trkpt>
      <trkpt lat="45.27848" lon="6.20217">
        <ele>1553.6279297</ele>
        <time>2012-03-02T12:53:23Z</time>
      </trkpt>
      <trkpt lat="45.27853" lon="6.20209">
        <ele>1549.7827148</ele>
        <time>2012-03-02T12:53:26Z</time>
      </trkpt>
      <trkpt lat="45.27853" lon="6.202">
        <ele>1546.4179688</ele>
        <time>2012-03-02T12:53:29Z</time>
      </trkpt>
      <trkpt lat="45.27854" lon="6.20194">
        <ele>1543.5339355</ele>
        <time>2012-03-02T12:53:39Z</time>
      </trkpt>
      <trkpt lat="45.27854" lon="6.20195">
        <ele>1542.5727539</ele>
        <time>2012-03-02T12:53:41Z</time>
      </trkpt>
      <trkpt lat="45.27855" lon="6.20189">
        <ele>1539.6887207</ele>
        <time>2012-03-02T12:53:47Z</time>
      </trkpt>
      <trkpt lat="45.27855" lon="6.20184">
        <ele>1535.8435059</ele>
        <time>2012-03-02T12:53:51Z</time>
      </trkpt>
      <trkpt lat="45.27855" lon="6.20181">
        <ele>1532.4790039</ele>
        <time>2012-03-02T12:53:53Z</time>
      </trkpt>
      <trkpt lat="45.27854" lon="6.20179">
        <ele>1531.9980469</ele>
        <time>2012-03-02T12:53:54Z</time>
      </trkpt>
      <trkpt lat="45.27857" lon="6.20172">
        <ele>1529.1140137</ele>
        <time>2012-03-02T12:54:07Z</time>
      </trkpt>
      <trkpt lat="45.27857" lon="6.2017">
        <ele>1526.7109375</ele>
        <time>2012-03-02T12:54:11Z</time>
      </trkpt>
      <trkpt lat="45.27859" lon="6.20165">
        <ele>1522.3850098</ele>
        <time>2012-03-02T12:54:18Z</time>
      </trkpt>
      <trkpt lat="45.2786" lon="6.2016">
        <ele>1520.9431152</ele>
        <time>2012-03-02T12:54:20Z</time>
      </trkpt>
      <trkpt lat="45.27856" lon="6.2015">
        <ele>1517.5783691</ele>
        <time>2012-03-02T12:54:26Z</time>
      </trkpt>
      <trkpt lat="45.2786" lon="6.20144">
        <ele>1513.7329102</ele>
        <time>2012-03-02T12:54:30Z</time>
      </trkpt>
      <trkpt lat="45.27861" lon="6.2014">
        <ele>1512.7717285</ele>
        <time>2012-03-02T12:54:32Z</time>
      </trkpt>
      <trkpt lat="45.27862" lon="6.2014">
        <ele>1511.8105469</ele>
        <time>2012-03-02T12:54:33Z</time>
      </trkpt>
      <trkpt lat="45.27862" lon="6.20134">
        <ele>1509.4072266</ele>
        <time>2012-03-02T12:54:36Z</time>
      </trkpt>
      <trkpt lat="45.2786" lon="6.20133">
        <ele>1508.9265137</ele>
        <time>2012-03-02T12:54:42Z</time>
      </trkpt>
      <trkpt lat="45.27855" lon="6.20127">
        <ele>1505.5620117</ele>
        <time>2012-03-02T12:54:47Z</time>
      </trkpt>
      <trkpt lat="45.27859" lon="6.20077">
        <ele>1502.6779785</ele>
        <time>2012-03-02T12:54:55Z</time>
      </trkpt>
      <trkpt lat="45.27822" lon="6.20042">
        <ele>1500.2749023</ele>
        <time>2012-03-02T12:55:00Z</time>
      </trkpt>
      <trkpt lat="45.27812" lon="6.20007">
        <ele>1496.4294434</ele>
        <time>2012-03-02T12:55:05Z</time>
      </trkpt>
      <trkpt lat="45.27804" lon="6.19964">
        <ele>1492.5842285</ele>
        <time>2012-03-02T12:55:09Z</time>
      </trkpt>
      <trkpt lat="45.27797" lon="6.1996">
        <ele>1491.1420898</ele>
        <time>2012-03-02T12:55:11Z</time>
      </trkpt>
      <trkpt lat="45.27785" lon="6.19944">
        <ele>1489.2194824</ele>
        <time>2012-03-02T12:55:16Z</time>
      </trkpt>
      <trkpt lat="45.27782" lon="6.19932">
        <ele>1487.296875</ele>
        <time>2012-03-02T12:55:18Z</time>
      </trkpt>
      <trkpt lat="45.27782" lon="6.1989">
        <ele>1483.9321289</ele>
        <time>2012-03-02T12:55:24Z</time>
      </trkpt>
      <trkpt lat="45.27783" lon="6.19883">
        <ele>1483.9321289</ele>
        <time>2012-03-02T12:55:25Z</time>
      </trkpt>
      <trkpt lat="45.27783" lon="6.1988">
        <ele>1482.9707031</ele>
        <time>2012-03-02T12:55:26Z</time>
      </trkpt>
      <trkpt lat="45.27781" lon="6.19858">
        <ele>1478.6450195</ele>
        <time>2012-03-02T12:55:29Z</time>
      </trkpt>
      <trkpt lat="45.27787" lon="6.19829">
        <ele>1476.7224121</ele>
        <time>2012-03-02T12:55:32Z</time>
      </trkpt>
      <trkpt lat="45.27786" lon="6.198">
        <ele>1474.3190918</ele>
        <time>2012-03-02T12:55:39Z</time>
      </trkpt>
      <trkpt lat="45.27785" lon="6.19791">
        <ele>1472.8771973</ele>
        <time>2012-03-02T12:55:42Z</time>
      </trkpt>
      <trkpt lat="45.27788" lon="6.19775">
        <ele>1469.0319824</ele>
        <time>2012-03-02T12:55:49Z</time>
      </trkpt>
      <trkpt lat="45.27796" lon="6.19759">
        <ele>1465.6672363</ele>
        <time>2012-03-02T12:55:52Z</time>
      </trkpt>
      <trkpt lat="45.278" lon="6.19739">
        <ele>1464.2250977</ele>
        <time>2012-03-02T12:56:01Z</time>
      </trkpt>
      <trkpt lat="45.27808" lon="6.1973">
        <ele>1462.7832031</ele>
        <time>2012-03-02T12:56:19Z</time>
      </trkpt>
      <trkpt lat="45.27812" lon="6.19729">
        <ele>1460.3798828</ele>
        <time>2012-03-02T12:56:26Z</time>
      </trkpt>
      <trkpt lat="45.27814" lon="6.19727">
        <ele>1457.0153809</ele>
        <time>2012-03-02T12:56:30Z</time>
      </trkpt>
      <trkpt lat="45.27816" lon="6.19724">
        <ele>1456.534668</ele>
        <time>2012-03-02T12:56:32Z</time>
      </trkpt>
      <trkpt lat="45.27821" lon="6.19721">
        <ele>1454.1315918</ele>
        <time>2012-03-02T12:56:34Z</time>
      </trkpt>
      <trkpt lat="45.27826" lon="6.1972">
        <ele>1452.2087402</ele>
        <time>2012-03-02T12:56:37Z</time>
      </trkpt>
      <trkpt lat="45.27829" lon="6.19718">
        <ele>1452.2087402</ele>
        <time>2012-03-02T12:56:39Z</time>
      </trkpt>
      <trkpt lat="45.27836" lon="6.19717">
        <ele>1448.3632813</ele>
        <time>2012-03-02T12:56:43Z</time>
      </trkpt>
      <trkpt lat="45.27837" lon="6.19716">
        <ele>1447.8828125</ele>
        <time>2012-03-02T12:56:44Z</time>
      </trkpt>
      <trkpt lat="45.2784" lon="6.19711">
        <ele>1445.9602051</ele>
        <time>2012-03-02T12:56:46Z</time>
      </trkpt>
      <trkpt lat="45.2787" lon="6.19691">
        <ele>1443.5568848</ele>
        <time>2012-03-02T12:56:58Z</time>
      </trkpt>
      <trkpt lat="45.27872" lon="6.19685">
        <ele>1443.5568848</ele>
        <time>2012-03-02T12:57:35Z</time>
      </trkpt>
      <trkpt lat="45.27865" lon="6.19683">
        <ele>1443.0761719</ele>
        <time>2012-03-02T12:59:56Z</time>
      </trkpt>
      <trkpt lat="45.27875" lon="6.19653">
        <ele>1439.230957</ele>
        <time>2012-03-02T13:00:02Z</time>
      </trkpt>
      <trkpt lat="45.27881" lon="6.1966">
        <ele>1437.3083496</ele>
        <time>2012-03-02T13:00:08Z</time>
      </trkpt>
      <trkpt lat="45.27885" lon="6.1967">
        <ele>1434.9050293</ele>
        <time>2012-03-02T13:00:12Z</time>
      </trkpt>
      <trkpt lat="45.27888" lon="6.19679">
        <ele>1432.9821777</ele>
        <time>2012-03-02T13:00:17Z</time>
      </trkpt>
      <trkpt lat="45.2789" lon="6.19688">
        <ele>1428.6564941</ele>
        <time>2012-03-02T13:00:21Z</time>
      </trkpt>
      <trkpt lat="45.27898" lon="6.19695">
        <ele>1424.8112793</ele>
        <time>2012-03-02T13:00:25Z</time>
      </trkpt>
      <trkpt lat="45.27913" lon="6.19721">
        <ele>1420.9660645</ele>
        <time>2012-03-02T13:00:28Z</time>
      </trkpt>
      <trkpt lat="45.27921" lon="6.19738">
        <ele>1419.0432129</ele>
        <time>2012-03-02T13:00:31Z</time>
      </trkpt>
      <trkpt lat="45.27926" lon="6.19739">
        <ele>1418.0817871</ele>
        <time>2012-03-02T13:00:42Z</time>
      </trkpt>
      <trkpt lat="45.27927" lon="6.19744">
        <ele>1417.1206055</ele>
        <time>2012-03-02T13:00:44Z</time>
      </trkpt>
      <trkpt lat="45.27931" lon="6.19743">
        <ele>1417.1206055</ele>
        <time>2012-03-02T13:00:47Z</time>
      </trkpt>
      <trkpt lat="45.27942" lon="6.19744">
        <ele>1414.7172852</ele>
        <time>2012-03-02T13:00:51Z</time>
      </trkpt>
      <trkpt lat="45.27951" lon="6.19755">
        <ele>1409.4301758</ele>
        <time>2012-03-02T13:00:54Z</time>
      </trkpt>
      <trkpt lat="45.27961" lon="6.19774">
        <ele>1406.5461426</ele>
        <time>2012-03-02T13:00:57Z</time>
      </trkpt>
      <trkpt lat="45.27967" lon="6.19794">
        <ele>1403.6621094</ele>
        <time>2012-03-02T13:01:01Z</time>
      </trkpt>
      <trkpt lat="45.27972" lon="6.19806">
        <ele>1400.7780762</ele>
        <time>2012-03-02T13:01:04Z</time>
      </trkpt>
      <trkpt lat="45.27977" lon="6.1981">
        <ele>1398.8554688</ele>
        <time>2012-03-02T13:01:05Z</time>
      </trkpt>
      <trkpt lat="45.27983" lon="6.1981">
        <ele>1398.3747559</ele>
        <time>2012-03-02T13:01:07Z</time>
      </trkpt>
      <trkpt lat="45.27987" lon="6.1981">
        <ele>1398.8554688</ele>
        <time>2012-03-02T13:01:08Z</time>
      </trkpt>
      <trkpt lat="45.27997" lon="6.19821">
        <ele>1397.8942871</ele>
        <time>2012-03-02T13:01:13Z</time>
      </trkpt>
      <trkpt lat="45.27997" lon="6.1983">
        <ele>1395.9716797</ele>
        <time>2012-03-02T13:01:16Z</time>
      </trkpt>
      <trkpt lat="45.28" lon="6.19839">
        <ele>1395.0102539</ele>
        <time>2012-03-02T13:01:18Z</time>
      </trkpt>
      <trkpt lat="45.28003" lon="6.19861">
        <ele>1395.0102539</ele>
        <time>2012-03-02T13:01:28Z</time>
      </trkpt>
      <trkpt lat="45.28005" lon="6.19884">
        <ele>1394.0490723</ele>
        <time>2012-03-02T13:01:37Z</time>
      </trkpt>
      <trkpt lat="45.28011" lon="6.19905">
        <ele>1395.0102539</ele>
        <time>2012-03-02T13:01:48Z</time>
      </trkpt>
      <trkpt lat="45.28015" lon="6.19909">
        <ele>1395.9716797</ele>
        <time>2012-03-02T13:01:59Z</time>
      </trkpt>
      <trkpt lat="45.28018" lon="6.19917">
        <ele>1396.4523926</ele>
        <time>2012-03-02T13:02:09Z</time>
      </trkpt>
      <trkpt lat="45.28024" lon="6.1992">
        <ele>1397.4135742</ele>
        <time>2012-03-02T13:02:25Z</time>
      </trkpt>
      <trkpt lat="45.28027" lon="6.19931">
        <ele>1397.8942871</ele>
        <time>2012-03-02T13:02:36Z</time>
      </trkpt>
      <trkpt lat="45.2803" lon="6.19938">
        <ele>1398.3747559</ele>
        <time>2012-03-02T13:02:45Z</time>
      </trkpt>
      <trkpt lat="45.28027" lon="6.19946">
        <ele>1399.3361816</ele>
        <time>2012-03-02T13:02:56Z</time>
      </trkpt>
      <trkpt lat="45.28029" lon="6.19945">
        <ele>1399.3361816</ele>
        <time>2012-03-02T13:02:59Z</time>
      </trkpt>
      <trkpt lat="45.28034" lon="6.19949">
        <ele>1400.7780762</ele>
        <time>2012-03-02T13:03:15Z</time>
      </trkpt>
      <trkpt lat="45.28034" lon="6.19953">
        <ele>1401.2587891</ele>
        <time>2012-03-02T13:03:22Z</time>
      </trkpt>
      <trkpt lat="45.2804" lon="6.19948">
        <ele>1400.7780762</ele>
        <time>2012-03-02T13:03:26Z</time>
      </trkpt>
      <trkpt lat="45.28051" lon="6.19939">
        <ele>1401.2587891</ele>
        <time>2012-03-02T13:03:37Z</time>
      </trkpt>
      <trkpt lat="45.28058" lon="6.19944">
        <ele>1400.7780762</ele>
        <time>2012-03-02T13:03:55Z</time>
      </trkpt>
      <trkpt lat="45.28059" lon="6.19955">
        <ele>1400.7780762</ele>
        <time>2012-03-02T13:04:09Z</time>
      </trkpt>
      <trkpt lat="45.2806" lon="6.1996">
        <ele>1400.7780762</ele>
        <time>2012-03-02T13:04:17Z</time>
      </trkpt>
      <trkpt lat="45.2807" lon="6.19978">
        <ele>1399.8168945</ele>
        <time>2012-03-02T13:04:28Z</time>
      </trkpt>
      <trkpt lat="45.2807" lon="6.19979">
        <ele>1399.8168945</ele>
        <time>2012-03-02T13:04:29Z</time>
      </trkpt>
      <trkpt lat="45.28074" lon="6.19994">
        <ele>1400.7780762</ele>
        <time>2012-03-02T13:04:42Z</time>
      </trkpt>
      <trkpt lat="45.28078" lon="6.20004">
        <ele>1400.7780762</ele>
        <time>2012-03-02T13:04:50Z</time>
      </trkpt>
      <trkpt lat="45.28079" lon="6.20007">
        <ele>1400.7780762</ele>
        <time>2012-03-02T13:04:53Z</time>
      </trkpt>
      <trkpt lat="45.28087" lon="6.20016">
        <ele>1401.739502</ele>
        <time>2012-03-02T13:05:06Z</time>
      </trkpt>
      <trkpt lat="45.28088" lon="6.20019">
        <ele>1401.739502</ele>
        <time>2012-03-02T13:05:10Z</time>
      </trkpt>
      <trkpt lat="45.28098" lon="6.20025">
        <ele>1402.2199707</ele>
        <time>2012-03-02T13:05:22Z</time>
      </trkpt>
      <trkpt lat="45.28103" lon="6.20035">
        <ele>1402.7006836</ele>
        <time>2012-03-02T13:05:37Z</time>
      </trkpt>
      <trkpt lat="45.28107" lon="6.20037">
        <ele>1403.1813965</ele>
        <time>2012-03-02T13:05:44Z</time>
      </trkpt>
      <trkpt lat="45.2811" lon="6.20047">
        <ele>1403.1813965</ele>
        <time>2012-03-02T13:05:53Z</time>
      </trkpt>
      <trkpt lat="45.2812" lon="6.2005">
        <ele>1403.6621094</ele>
        <time>2012-03-02T13:06:06Z</time>
      </trkpt>
      <trkpt lat="45.28126" lon="6.2006">
        <ele>1404.1430664</ele>
        <time>2012-03-02T13:06:20Z</time>
      </trkpt>
      <trkpt lat="45.28128" lon="6.20059">
        <ele>1404.1430664</ele>
        <time>2012-03-02T13:06:40Z</time>
      </trkpt>
      <trkpt lat="45.28129" lon="6.20057">
        <ele>1402.2199707</ele>
        <time>2012-03-02T13:10:05Z</time>
      </trkpt>
      <trkpt lat="45.28131" lon="6.20054">
        <ele>1401.739502</ele>
        <time>2012-03-02T13:10:27Z</time>
      </trkpt>
      <trkpt lat="45.28132" lon="6.20058">
        <ele>1401.2587891</ele>
        <time>2012-03-02T13:11:34Z</time>
      </trkpt>
      <trkpt lat="45.2814" lon="6.20062">
        <ele>1400.2976074</ele>
        <time>2012-03-02T13:11:38Z</time>
      </trkpt>
      <trkpt lat="45.28157" lon="6.20069">
        <ele>1395.9716797</ele>
        <time>2012-03-02T13:11:42Z</time>
      </trkpt>
      <trkpt lat="45.2817" lon="6.20084">
        <ele>1391.645752</ele>
        <time>2012-03-02T13:11:45Z</time>
      </trkpt>
      <trkpt lat="45.28176" lon="6.2009">
        <ele>1390.2038574</ele>
        <time>2012-03-02T13:11:46Z</time>
      </trkpt>
      <trkpt lat="45.28194" lon="6.20102">
        <ele>1385.8776855</ele>
        <time>2012-03-02T13:11:49Z</time>
      </trkpt>
      <trkpt lat="45.28197" lon="6.2011">
        <ele>1384.435791</ele>
        <time>2012-03-02T13:11:50Z</time>
      </trkpt>
      <trkpt lat="45.28212" lon="6.20138">
        <ele>1380.1098633</ele>
        <time>2012-03-02T13:11:54Z</time>
      </trkpt>
      <trkpt lat="45.28216" lon="6.20145">
        <ele>1379.1484375</ele>
        <time>2012-03-02T13:11:55Z</time>
      </trkpt>
      <trkpt lat="45.28227" lon="6.20172">
        <ele>1374.8227539</ele>
        <time>2012-03-02T13:11:58Z</time>
      </trkpt>
      <trkpt lat="45.28233" lon="6.20196">
        <ele>1372.4194336</ele>
        <time>2012-03-02T13:12:00Z</time>
      </trkpt>
      <trkpt lat="45.2824" lon="6.20212">
        <ele>1370.496582</ele>
        <time>2012-03-02T13:12:02Z</time>
      </trkpt>
      <trkpt lat="45.28247" lon="6.20236">
        <ele>1367.6125488</ele>
        <time>2012-03-02T13:12:05Z</time>
      </trkpt>
      <trkpt lat="45.28253" lon="6.20246">
        <ele>1366.6513672</ele>
        <time>2012-03-02T13:12:07Z</time>
      </trkpt>
      <trkpt lat="45.28252" lon="6.20252">
        <ele>1366.6513672</ele>
        <time>2012-03-02T13:12:12Z</time>
      </trkpt>
      <trkpt lat="45.2826" lon="6.20267">
        <ele>1362.8061523</ele>
        <time>2012-03-02T13:12:18Z</time>
      </trkpt>
      <trkpt lat="45.28267" lon="6.20281">
        <ele>1359.9221191</ele>
        <time>2012-03-02T13:12:21Z</time>
      </trkpt>
      <trkpt lat="45.28267" lon="6.20299">
        <ele>1357.9997559</ele>
        <time>2012-03-02T13:12:24Z</time>
      </trkpt>
      <trkpt lat="45.2828" lon="6.20301">
        <ele>1356.0769043</ele>
        <time>2012-03-02T13:12:27Z</time>
      </trkpt>
      <trkpt lat="45.28282" lon="6.20308">
        <ele>1356.5576172</ele>
        <time>2012-03-02T13:12:29Z</time>
      </trkpt>
      <trkpt lat="45.28289" lon="6.20319">
        <ele>1355.1154785</ele>
        <time>2012-03-02T13:12:32Z</time>
      </trkpt>
      <trkpt lat="45.28293" lon="6.20342">
        <ele>1352.7121582</ele>
        <time>2012-03-02T13:12:40Z</time>
      </trkpt>
      <trkpt lat="45.28303" lon="6.20355">
        <ele>1349.3476563</ele>
        <time>2012-03-02T13:12:47Z</time>
      </trkpt>
      <trkpt lat="45.28305" lon="6.20369">
        <ele>1347.9057617</ele>
        <time>2012-03-02T13:12:50Z</time>
      </trkpt>
      <trkpt lat="45.2831" lon="6.20371">
        <ele>1347.9057617</ele>
        <time>2012-03-02T13:12:51Z</time>
      </trkpt>
      <trkpt lat="45.28312" lon="6.20382">
        <ele>1346.4638672</ele>
        <time>2012-03-02T13:12:54Z</time>
      </trkpt>
      <trkpt lat="45.28308" lon="6.20398">
        <ele>1342.6186523</ele>
        <time>2012-03-02T13:12:59Z</time>
      </trkpt>
      <trkpt lat="45.2831" lon="6.20405">
        <ele>1341.1765137</ele>
        <time>2012-03-02T13:13:01Z</time>
      </trkpt>
      <trkpt lat="45.28312" lon="6.20408">
        <ele>1340.215332</ele>
        <time>2012-03-02T13:13:02Z</time>
      </trkpt>
      <trkpt lat="45.28315" lon="6.20418">
        <ele>1338.7731934</ele>
        <time>2012-03-02T13:13:05Z</time>
      </trkpt>
      <trkpt lat="45.28318" lon="6.20428">
        <ele>1337.3310547</ele>
        <time>2012-03-02T13:13:08Z</time>
      </trkpt>
      <trkpt lat="45.28328" lon="6.20448">
        <ele>1334.9279785</ele>
        <time>2012-03-02T13:13:14Z</time>
      </trkpt>
      <trkpt lat="45.28338" lon="6.20467">
        <ele>1331.0827637</ele>
        <time>2012-03-02T13:13:20Z</time>
      </trkpt>
      <trkpt lat="45.28343" lon="6.20489">
        <ele>1327.7180176</ele>
        <time>2012-03-02T13:13:24Z</time>
      </trkpt>
      <trkpt lat="45.28352" lon="6.20508">
        <ele>1324.3535156</ele>
        <time>2012-03-02T13:13:28Z</time>
      </trkpt>
      <trkpt lat="45.28356" lon="6.20514">
        <ele>1323.3920898</ele>
        <time>2012-03-02T13:13:30Z</time>
      </trkpt>
      <trkpt lat="45.28372" lon="6.20537">
        <ele>1321.4692383</ele>
        <time>2012-03-02T13:13:38Z</time>
      </trkpt>
      <trkpt lat="45.28379" lon="6.20562">
        <ele>1318.1047363</ele>
        <time>2012-03-02T13:13:47Z</time>
      </trkpt>
      <trkpt lat="45.28382" lon="6.20577">
        <ele>1315.2209473</ele>
        <time>2012-03-02T13:13:51Z</time>
      </trkpt>
      <trkpt lat="45.28384" lon="6.20579">
        <ele>1314.7402344</ele>
        <time>2012-03-02T13:13:52Z</time>
      </trkpt>
      <trkpt lat="45.28385" lon="6.20595">
        <ele>1310.8950195</ele>
        <time>2012-03-02T13:13:56Z</time>
      </trkpt>
      <trkpt lat="45.28374" lon="6.2061">
        <ele>1308.9724121</ele>
        <time>2012-03-02T13:14:05Z</time>
      </trkpt>
      <trkpt lat="45.28379" lon="6.20616">
        <ele>1307.5302734</ele>
        <time>2012-03-02T13:14:08Z</time>
      </trkpt>
      <trkpt lat="45.2837" lon="6.20642">
        <ele>1303.6850586</ele>
        <time>2012-03-02T13:14:13Z</time>
      </trkpt>
      <trkpt lat="45.28373" lon="6.20647">
        <ele>1303.2043457</ele>
        <time>2012-03-02T13:14:17Z</time>
      </trkpt>
      <trkpt lat="45.28374" lon="6.2065">
        <ele>1303.2043457</ele>
        <time>2012-03-02T13:14:19Z</time>
      </trkpt>
      <trkpt lat="45.28386" lon="6.20665">
        <ele>1299.3591309</ele>
        <time>2012-03-02T13:14:24Z</time>
      </trkpt>
      <trkpt lat="45.28388" lon="6.20693">
        <ele>1296.4753418</ele>
        <time>2012-03-02T13:14:27Z</time>
      </trkpt>
      <trkpt lat="45.28379" lon="6.20718">
        <ele>1292.1494141</ele>
        <time>2012-03-02T13:14:33Z</time>
      </trkpt>
      <trkpt lat="45.28382" lon="6.20728">
        <ele>1290.2265625</ele>
        <time>2012-03-02T13:14:35Z</time>
      </trkpt>
      <trkpt lat="45.28379" lon="6.20746">
        <ele>1285.4199219</ele>
        <time>2012-03-02T13:14:39Z</time>
      </trkpt>
      <trkpt lat="45.28371" lon="6.20761">
        <ele>1284.4587402</ele>
        <time>2012-03-02T13:14:41Z</time>
      </trkpt>
      <trkpt lat="45.28378" lon="6.2079">
        <ele>1281.574707</ele>
        <time>2012-03-02T13:14:46Z</time>
      </trkpt>
      <trkpt lat="45.28371" lon="6.20798">
        <ele>1276.7683105</ele>
        <time>2012-03-02T13:14:49Z</time>
      </trkpt>
      <trkpt lat="45.28367" lon="6.20799">
        <ele>1276.7683105</ele>
        <time>2012-03-02T13:14:50Z</time>
      </trkpt>
      <trkpt lat="45.28362" lon="6.20805">
        <ele>1276.2875977</ele>
        <time>2012-03-02T13:14:51Z</time>
      </trkpt>
      <trkpt lat="45.28358" lon="6.20808">
        <ele>1272.4421387</ele>
        <time>2012-03-02T13:14:55Z</time>
      </trkpt>
      <trkpt lat="45.2836" lon="6.20811">
        <ele>1271.4807129</ele>
        <time>2012-03-02T13:14:56Z</time>
      </trkpt>
      <trkpt lat="45.28363" lon="6.2082">
        <ele>1271.0002441</ele>
        <time>2012-03-02T13:14:58Z</time>
      </trkpt>
      <trkpt lat="45.28362" lon="6.20835">
        <ele>1270.5195313</ele>
        <time>2012-03-02T13:15:06Z</time>
      </trkpt>
      <trkpt lat="45.28362" lon="6.20836">
        <ele>1269.0776367</ele>
        <time>2012-03-02T13:15:09Z</time>
      </trkpt>
      <trkpt lat="45.28356" lon="6.20841">
        <ele>1267.1550293</ele>
        <time>2012-03-02T13:15:12Z</time>
      </trkpt>
      <trkpt lat="45.28354" lon="6.20843">
        <ele>1267.635498</ele>
        <time>2012-03-02T13:15:17Z</time>
      </trkpt>
      <trkpt lat="45.28346" lon="6.20843">
        <ele>1263.7902832</ele>
        <time>2012-03-02T13:15:20Z</time>
      </trkpt>
      <trkpt lat="45.28336" lon="6.20845">
        <ele>1261.387207</ele>
        <time>2012-03-02T13:15:22Z</time>
      </trkpt>
      <trkpt lat="45.28336" lon="6.20855">
        <ele>1259.4643555</ele>
        <time>2012-03-02T13:15:25Z</time>
      </trkpt>
      <trkpt lat="45.28338" lon="6.20857">
        <ele>1258.9836426</ele>
        <time>2012-03-02T13:15:26Z</time>
      </trkpt>
      <trkpt lat="45.28339" lon="6.20866">
        <ele>1255.6191406</ele>
        <time>2012-03-02T13:15:29Z</time>
      </trkpt>
      <trkpt lat="45.28336" lon="6.20882">
        <ele>1253.2158203</ele>
        <time>2012-03-02T13:15:32Z</time>
      </trkpt>
      <trkpt lat="45.28333" lon="6.209">
        <ele>1251.7739258</ele>
        <time>2012-03-02T13:15:35Z</time>
      </trkpt>
      <trkpt lat="45.2833" lon="6.20919">
        <ele>1247.447998</ele>
        <time>2012-03-02T13:15:39Z</time>
      </trkpt>
      <trkpt lat="45.28331" lon="6.20941">
        <ele>1244.5639648</ele>
        <time>2012-03-02T13:15:43Z</time>
      </trkpt>
      <trkpt lat="45.2833" lon="6.20954">
        <ele>1243.1218262</ele>
        <time>2012-03-02T13:15:45Z</time>
      </trkpt>
      <trkpt lat="45.28334" lon="6.20971">
        <ele>1242.6413574</ele>
        <time>2012-03-02T13:15:48Z</time>
      </trkpt>
      <trkpt lat="45.28354" lon="6.21001">
        <ele>1238.7961426</ele>
        <time>2012-03-02T13:15:56Z</time>
      </trkpt>
      <trkpt lat="45.28363" lon="6.21018">
        <ele>1238.3154297</ele>
        <time>2012-03-02T13:16:04Z</time>
      </trkpt>
      <trkpt lat="45.28367" lon="6.21029">
        <ele>1237.8347168</ele>
        <time>2012-03-02T13:16:16Z</time>
      </trkpt>
      <trkpt lat="45.2837" lon="6.21039">
        <ele>1237.3540039</ele>
        <time>2012-03-02T13:16:29Z</time>
      </trkpt>
    </trkseg>
  </trk>
</gpx>